<?xml version="1.0" encoding="UTF-8" standalone="no" ?>
<gpx xmlns="http://www.topografix.com/GPX/1/1" xmlns:xsi="http://www.w3.org/2001/XMLSchema-instance" xsi:schemaLocation="http://www.topografix.com/GPX/1/1 http://www.topografix.com/GPX/1/1/gpx.xsd" version="1.1" creator="VisuGPX - https://www.visugpx.com">
  <metadata>
    <name>vallon des Conquettes</name>
    <desc><![CDATA[départ du camping de Ceyreste et retour par le mythique vallon des Conquettes]]></desc>
  </metadata>
  <trk>
    <name><![CDATA[2018-03-25 vallon des Conquettes]]></name>
    <trkseg>
      <trkpt lat="43.22197" lon="5.62962">
        <ele>175.5859375</ele>
        <time>2018-03-25T06:59:00Z</time>
      </trkpt>
      <trkpt lat="43.22196" lon="5.62966">
        <ele>175.171875</ele>
        <time>2018-03-25T06:59:29Z</time>
      </trkpt>
      <trkpt lat="43.22198" lon="5.62965">
        <ele>175.58203125</ele>
        <time>2018-03-25T06:59:46Z</time>
      </trkpt>
      <trkpt lat="43.22198" lon="5.62964">
        <ele>175.6328125</ele>
        <time>2018-03-25T07:00:08Z</time>
      </trkpt>
      <trkpt lat="43.22198" lon="5.62964">
        <ele>175.6328125</ele>
        <time>2018-03-25T07:00:09Z</time>
      </trkpt>
      <trkpt lat="43.22198" lon="5.62964">
        <ele>175.640625</ele>
        <time>2018-03-25T07:00:10Z</time>
      </trkpt>
      <trkpt lat="43.22198" lon="5.62964">
        <ele>175.63671875</ele>
        <time>2018-03-25T07:00:14Z</time>
      </trkpt>
      <trkpt lat="43.22198" lon="5.62964">
        <ele>175.64453125</ele>
        <time>2018-03-25T07:00:15Z</time>
      </trkpt>
      <trkpt lat="43.22205" lon="5.62962">
        <ele>176.81640625</ele>
        <time>2018-03-25T07:00:23Z</time>
      </trkpt>
      <trkpt lat="43.22207" lon="5.62962">
        <ele>177.046875</ele>
        <time>2018-03-25T07:00:24Z</time>
      </trkpt>
      <trkpt lat="43.22207" lon="5.62962">
        <ele>176.9765625</ele>
        <time>2018-03-25T07:00:33Z</time>
      </trkpt>
      <trkpt lat="43.22207" lon="5.62963">
        <ele>177.02734375</ele>
        <time>2018-03-25T07:00:38Z</time>
      </trkpt>
      <trkpt lat="43.22208" lon="5.62966">
        <ele>177.13671875</ele>
        <time>2018-03-25T07:00:47Z</time>
      </trkpt>
      <trkpt lat="43.22206" lon="5.62964">
        <ele>176.8828125</ele>
        <time>2018-03-25T07:01:19Z</time>
      </trkpt>
      <trkpt lat="43.22206" lon="5.62972">
        <ele>176.58203125</ele>
        <time>2018-03-25T07:01:55Z</time>
      </trkpt>
      <trkpt lat="43.22208" lon="5.62957">
        <ele>177.5</ele>
        <time>2018-03-25T07:02:24Z</time>
      </trkpt>
      <trkpt lat="43.22206" lon="5.62956">
        <ele>177.3515625</ele>
        <time>2018-03-25T07:02:40Z</time>
      </trkpt>
      <trkpt lat="43.22205" lon="5.62956">
        <ele>177.17578125</ele>
        <time>2018-03-25T07:02:42Z</time>
      </trkpt>
      <trkpt lat="43.22203" lon="5.62957">
        <ele>176.89453125</ele>
        <time>2018-03-25T07:02:43Z</time>
      </trkpt>
      <trkpt lat="43.22201" lon="5.62957">
        <ele>176.55078125</ele>
        <time>2018-03-25T07:02:44Z</time>
      </trkpt>
      <trkpt lat="43.22197" lon="5.62956">
        <ele>176.0703125</ele>
        <time>2018-03-25T07:02:45Z</time>
      </trkpt>
      <trkpt lat="43.22194" lon="5.62953">
        <ele>175.5625</ele>
        <time>2018-03-25T07:02:46Z</time>
      </trkpt>
      <trkpt lat="43.2219" lon="5.6295">
        <ele>175.12109375</ele>
        <time>2018-03-25T07:02:47Z</time>
      </trkpt>
      <trkpt lat="43.22186" lon="5.62947">
        <ele>174.72265625</ele>
        <time>2018-03-25T07:02:48Z</time>
      </trkpt>
      <trkpt lat="43.22178" lon="5.6294">
        <ele>173.75</ele>
        <time>2018-03-25T07:02:50Z</time>
      </trkpt>
      <trkpt lat="43.22155" lon="5.62922">
        <ele>170.375</ele>
        <time>2018-03-25T07:02:55Z</time>
      </trkpt>
      <trkpt lat="43.22153" lon="5.62921">
        <ele>170.04296875</ele>
        <time>2018-03-25T07:02:56Z</time>
      </trkpt>
      <trkpt lat="43.22151" lon="5.62922">
        <ele>169.71484375</ele>
        <time>2018-03-25T07:02:57Z</time>
      </trkpt>
      <trkpt lat="43.2215" lon="5.62924">
        <ele>169.42578125</ele>
        <time>2018-03-25T07:02:58Z</time>
      </trkpt>
      <trkpt lat="43.2216" lon="5.62933">
        <ele>170.92578125</ele>
        <time>2018-03-25T07:03:06Z</time>
      </trkpt>
      <trkpt lat="43.22161" lon="5.62931">
        <ele>171.2265625</ele>
        <time>2018-03-25T07:03:07Z</time>
      </trkpt>
      <trkpt lat="43.22163" lon="5.6293">
        <ele>171.640625</ele>
        <time>2018-03-25T07:03:08Z</time>
      </trkpt>
      <trkpt lat="43.22166" lon="5.6293">
        <ele>172</ele>
        <time>2018-03-25T07:03:09Z</time>
      </trkpt>
      <trkpt lat="43.22167" lon="5.62932">
        <ele>172.21875</ele>
        <time>2018-03-25T07:03:10Z</time>
      </trkpt>
      <trkpt lat="43.22168" lon="5.62935">
        <ele>172.2890625</ele>
        <time>2018-03-25T07:03:11Z</time>
      </trkpt>
      <trkpt lat="43.22181" lon="5.6295">
        <ele>173.59765625</ele>
        <time>2018-03-25T07:03:17Z</time>
      </trkpt>
      <trkpt lat="43.22184" lon="5.62951">
        <ele>174.05859375</ele>
        <time>2018-03-25T07:03:18Z</time>
      </trkpt>
      <trkpt lat="43.22209" lon="5.6296">
        <ele>177.3828125</ele>
        <time>2018-03-25T07:03:30Z</time>
      </trkpt>
      <trkpt lat="43.22211" lon="5.62963">
        <ele>177.57421875</ele>
        <time>2018-03-25T07:03:45Z</time>
      </trkpt>
      <trkpt lat="43.22209" lon="5.62964">
        <ele>177.3203125</ele>
        <time>2018-03-25T07:04:36Z</time>
      </trkpt>
      <trkpt lat="43.22211" lon="5.62964">
        <ele>177.54296875</ele>
        <time>2018-03-25T07:05:17Z</time>
      </trkpt>
      <trkpt lat="43.2221" lon="5.62966">
        <ele>177.37890625</ele>
        <time>2018-03-25T07:05:50Z</time>
      </trkpt>
      <trkpt lat="43.22209" lon="5.62969">
        <ele>177.1484375</ele>
        <time>2018-03-25T07:06:25Z</time>
      </trkpt>
      <trkpt lat="43.2221" lon="5.62968">
        <ele>177.28125</ele>
        <time>2018-03-25T07:07:02Z</time>
      </trkpt>
      <trkpt lat="43.22209" lon="5.6296">
        <ele>177.5078125</ele>
        <time>2018-03-25T07:07:25Z</time>
      </trkpt>
      <trkpt lat="43.2221" lon="5.62959">
        <ele>177.7421875</ele>
        <time>2018-03-25T07:07:26Z</time>
      </trkpt>
      <trkpt lat="43.22212" lon="5.62959">
        <ele>177.91015625</ele>
        <time>2018-03-25T07:07:27Z</time>
      </trkpt>
      <trkpt lat="43.22213" lon="5.6296">
        <ele>177.984375</ele>
        <time>2018-03-25T07:07:28Z</time>
      </trkpt>
      <trkpt lat="43.22213" lon="5.62961">
        <ele>178.03515625</ele>
        <time>2018-03-25T07:07:29Z</time>
      </trkpt>
      <trkpt lat="43.22215" lon="5.62963">
        <ele>178.109375</ele>
        <time>2018-03-25T07:07:30Z</time>
      </trkpt>
      <trkpt lat="43.22219" lon="5.62968">
        <ele>178.4921875</ele>
        <time>2018-03-25T07:07:38Z</time>
      </trkpt>
      <trkpt lat="43.22222" lon="5.62972">
        <ele>178.78125</ele>
        <time>2018-03-25T07:07:43Z</time>
      </trkpt>
      <trkpt lat="43.22223" lon="5.62978">
        <ele>178.84375</ele>
        <time>2018-03-25T07:07:47Z</time>
      </trkpt>
      <trkpt lat="43.22237" lon="5.63001">
        <ele>180.33984375</ele>
        <time>2018-03-25T07:08:01Z</time>
      </trkpt>
      <trkpt lat="43.22252" lon="5.63022">
        <ele>182.4140625</ele>
        <time>2018-03-25T07:08:16Z</time>
      </trkpt>
      <trkpt lat="43.22264" lon="5.63041">
        <ele>182.3828125</ele>
        <time>2018-03-25T07:08:27Z</time>
      </trkpt>
      <trkpt lat="43.22266" lon="5.63043">
        <ele>182.3984375</ele>
        <time>2018-03-25T07:08:28Z</time>
      </trkpt>
      <trkpt lat="43.22267" lon="5.63045">
        <ele>182.41796875</ele>
        <time>2018-03-25T07:08:29Z</time>
      </trkpt>
      <trkpt lat="43.22268" lon="5.63047">
        <ele>182.44921875</ele>
        <time>2018-03-25T07:08:30Z</time>
      </trkpt>
      <trkpt lat="43.22269" lon="5.63048">
        <ele>182.4921875</ele>
        <time>2018-03-25T07:08:31Z</time>
      </trkpt>
      <trkpt lat="43.2227" lon="5.6305">
        <ele>182.53515625</ele>
        <time>2018-03-25T07:08:32Z</time>
      </trkpt>
      <trkpt lat="43.22272" lon="5.63052">
        <ele>182.58203125</ele>
        <time>2018-03-25T07:08:33Z</time>
      </trkpt>
      <trkpt lat="43.22273" lon="5.63054">
        <ele>182.625</ele>
        <time>2018-03-25T07:08:34Z</time>
      </trkpt>
      <trkpt lat="43.22274" lon="5.63056">
        <ele>182.66796875</ele>
        <time>2018-03-25T07:08:35Z</time>
      </trkpt>
      <trkpt lat="43.22275" lon="5.63058">
        <ele>182.703125</ele>
        <time>2018-03-25T07:08:36Z</time>
      </trkpt>
      <trkpt lat="43.22297" lon="5.63095">
        <ele>183.75390625</ele>
        <time>2018-03-25T07:08:51Z</time>
      </trkpt>
      <trkpt lat="43.22317" lon="5.63132">
        <ele>184.33984375</ele>
        <time>2018-03-25T07:09:06Z</time>
      </trkpt>
      <trkpt lat="43.22332" lon="5.63156">
        <ele>185.33203125</ele>
        <time>2018-03-25T07:09:17Z</time>
      </trkpt>
      <trkpt lat="43.22335" lon="5.63167">
        <ele>186.28515625</ele>
        <time>2018-03-25T07:09:21Z</time>
      </trkpt>
      <trkpt lat="43.22335" lon="5.6317">
        <ele>186.55078125</ele>
        <time>2018-03-25T07:09:22Z</time>
      </trkpt>
      <trkpt lat="43.22347" lon="5.63209">
        <ele>190.296875</ele>
        <time>2018-03-25T07:09:36Z</time>
      </trkpt>
      <trkpt lat="43.22359" lon="5.63247">
        <ele>194.56640625</ele>
        <time>2018-03-25T07:09:52Z</time>
      </trkpt>
      <trkpt lat="43.22367" lon="5.63257">
        <ele>196.453125</ele>
        <time>2018-03-25T07:09:59Z</time>
      </trkpt>
      <trkpt lat="43.22368" lon="5.63257">
        <ele>196.484375</ele>
        <time>2018-03-25T07:10:00Z</time>
      </trkpt>
      <trkpt lat="43.2237" lon="5.63256">
        <ele>196.47265625</ele>
        <time>2018-03-25T07:10:01Z</time>
      </trkpt>
      <trkpt lat="43.22371" lon="5.63256">
        <ele>196.55859375</ele>
        <time>2018-03-25T07:10:02Z</time>
      </trkpt>
      <trkpt lat="43.22372" lon="5.63257">
        <ele>196.75</ele>
        <time>2018-03-25T07:10:03Z</time>
      </trkpt>
      <trkpt lat="43.22373" lon="5.63258">
        <ele>197.03125</ele>
        <time>2018-03-25T07:10:04Z</time>
      </trkpt>
      <trkpt lat="43.22374" lon="5.6326">
        <ele>197.4453125</ele>
        <time>2018-03-25T07:10:05Z</time>
      </trkpt>
      <trkpt lat="43.22374" lon="5.63263">
        <ele>197.85546875</ele>
        <time>2018-03-25T07:10:06Z</time>
      </trkpt>
      <trkpt lat="43.22369" lon="5.6327">
        <ele>198.375</ele>
        <time>2018-03-25T07:10:10Z</time>
      </trkpt>
      <trkpt lat="43.22375" lon="5.63277">
        <ele>199.34765625</ele>
        <time>2018-03-25T07:10:15Z</time>
      </trkpt>
      <trkpt lat="43.22381" lon="5.63281">
        <ele>200.34765625</ele>
        <time>2018-03-25T07:10:19Z</time>
      </trkpt>
      <trkpt lat="43.22405" lon="5.63287">
        <ele>201.59375</ele>
        <time>2018-03-25T07:10:34Z</time>
      </trkpt>
      <trkpt lat="43.22427" lon="5.63306">
        <ele>203.2734375</ele>
        <time>2018-03-25T07:10:51Z</time>
      </trkpt>
      <trkpt lat="43.22453" lon="5.63326">
        <ele>207.08203125</ele>
        <time>2018-03-25T07:11:08Z</time>
      </trkpt>
      <trkpt lat="43.22479" lon="5.63345">
        <ele>208.59765625</ele>
        <time>2018-03-25T07:11:24Z</time>
      </trkpt>
      <trkpt lat="43.22499" lon="5.63363">
        <ele>209.546875</ele>
        <time>2018-03-25T07:11:37Z</time>
      </trkpt>
      <trkpt lat="43.22525" lon="5.63382">
        <ele>209.921875</ele>
        <time>2018-03-25T07:11:53Z</time>
      </trkpt>
      <trkpt lat="43.22549" lon="5.63412">
        <ele>212.69140625</ele>
        <time>2018-03-25T07:12:11Z</time>
      </trkpt>
      <trkpt lat="43.22574" lon="5.63435">
        <ele>210.1015625</ele>
        <time>2018-03-25T07:12:27Z</time>
      </trkpt>
      <trkpt lat="43.22579" lon="5.63445">
        <ele>210.29296875</ele>
        <time>2018-03-25T07:12:32Z</time>
      </trkpt>
      <trkpt lat="43.22587" lon="5.63488">
        <ele>216.71875</ele>
        <time>2018-03-25T07:12:48Z</time>
      </trkpt>
      <trkpt lat="43.22594" lon="5.63531">
        <ele>220.65234375</ele>
        <time>2018-03-25T07:13:03Z</time>
      </trkpt>
      <trkpt lat="43.22613" lon="5.6355">
        <ele>223.16015625</ele>
        <time>2018-03-25T07:13:17Z</time>
      </trkpt>
      <trkpt lat="43.22631" lon="5.63562">
        <ele>226.44140625</ele>
        <time>2018-03-25T07:13:31Z</time>
      </trkpt>
      <trkpt lat="43.22646" lon="5.63564">
        <ele>228.25390625</ele>
        <time>2018-03-25T07:13:43Z</time>
      </trkpt>
      <trkpt lat="43.22649" lon="5.63565">
        <ele>228.3515625</ele>
        <time>2018-03-25T07:13:45Z</time>
      </trkpt>
      <trkpt lat="43.22652" lon="5.63567">
        <ele>228.671875</ele>
        <time>2018-03-25T07:13:47Z</time>
      </trkpt>
      <trkpt lat="43.22652" lon="5.63568">
        <ele>228.921875</ele>
        <time>2018-03-25T07:13:48Z</time>
      </trkpt>
      <trkpt lat="43.22652" lon="5.63569">
        <ele>229.1875</ele>
        <time>2018-03-25T07:13:49Z</time>
      </trkpt>
      <trkpt lat="43.22652" lon="5.63571">
        <ele>229.47265625</ele>
        <time>2018-03-25T07:13:50Z</time>
      </trkpt>
      <trkpt lat="43.22652" lon="5.63572">
        <ele>229.8203125</ele>
        <time>2018-03-25T07:13:51Z</time>
      </trkpt>
      <trkpt lat="43.22651" lon="5.63574">
        <ele>230.16015625</ele>
        <time>2018-03-25T07:13:52Z</time>
      </trkpt>
      <trkpt lat="43.2265" lon="5.63576">
        <ele>230.453125</ele>
        <time>2018-03-25T07:13:53Z</time>
      </trkpt>
      <trkpt lat="43.2265" lon="5.63578">
        <ele>230.7734375</ele>
        <time>2018-03-25T07:13:54Z</time>
      </trkpt>
      <trkpt lat="43.2265" lon="5.6358">
        <ele>231.0859375</ele>
        <time>2018-03-25T07:13:55Z</time>
      </trkpt>
      <trkpt lat="43.2265" lon="5.63582">
        <ele>231.4140625</ele>
        <time>2018-03-25T07:13:56Z</time>
      </trkpt>
      <trkpt lat="43.22654" lon="5.63613">
        <ele>235.9140625</ele>
        <time>2018-03-25T07:14:13Z</time>
      </trkpt>
      <trkpt lat="43.22654" lon="5.63615">
        <ele>236.125</ele>
        <time>2018-03-25T07:14:14Z</time>
      </trkpt>
      <trkpt lat="43.22655" lon="5.63617">
        <ele>236.3828125</ele>
        <time>2018-03-25T07:14:15Z</time>
      </trkpt>
      <trkpt lat="43.22655" lon="5.63618">
        <ele>236.5703125</ele>
        <time>2018-03-25T07:14:16Z</time>
      </trkpt>
      <trkpt lat="43.22656" lon="5.6362">
        <ele>236.75</ele>
        <time>2018-03-25T07:14:17Z</time>
      </trkpt>
      <trkpt lat="43.22656" lon="5.63621">
        <ele>236.9453125</ele>
        <time>2018-03-25T07:14:18Z</time>
      </trkpt>
      <trkpt lat="43.22665" lon="5.63646">
        <ele>240.87890625</ele>
        <time>2018-03-25T07:14:34Z</time>
      </trkpt>
      <trkpt lat="43.22667" lon="5.63654">
        <ele>242.16015625</ele>
        <time>2018-03-25T07:14:39Z</time>
      </trkpt>
      <trkpt lat="43.22667" lon="5.63656">
        <ele>242.45703125</ele>
        <time>2018-03-25T07:14:40Z</time>
      </trkpt>
      <trkpt lat="43.22667" lon="5.63658">
        <ele>242.609375</ele>
        <time>2018-03-25T07:14:41Z</time>
      </trkpt>
      <trkpt lat="43.22668" lon="5.6366">
        <ele>242.72265625</ele>
        <time>2018-03-25T07:14:42Z</time>
      </trkpt>
      <trkpt lat="43.22668" lon="5.63662">
        <ele>242.90234375</ele>
        <time>2018-03-25T07:14:43Z</time>
      </trkpt>
      <trkpt lat="43.22675" lon="5.63689">
        <ele>244.765625</ele>
        <time>2018-03-25T07:14:58Z</time>
      </trkpt>
      <trkpt lat="43.22676" lon="5.63691">
        <ele>244.82421875</ele>
        <time>2018-03-25T07:14:59Z</time>
      </trkpt>
      <trkpt lat="43.22676" lon="5.63693">
        <ele>244.8828125</ele>
        <time>2018-03-25T07:15:00Z</time>
      </trkpt>
      <trkpt lat="43.22686" lon="5.6372">
        <ele>246.859375</ele>
        <time>2018-03-25T07:15:17Z</time>
      </trkpt>
      <trkpt lat="43.22692" lon="5.6373">
        <ele>248.12109375</ele>
        <time>2018-03-25T07:15:24Z</time>
      </trkpt>
      <trkpt lat="43.22692" lon="5.63732">
        <ele>248.28515625</ele>
        <time>2018-03-25T07:15:25Z</time>
      </trkpt>
      <trkpt lat="43.22693" lon="5.63734">
        <ele>248.4140625</ele>
        <time>2018-03-25T07:15:26Z</time>
      </trkpt>
      <trkpt lat="43.22694" lon="5.63735">
        <ele>248.59375</ele>
        <time>2018-03-25T07:15:27Z</time>
      </trkpt>
      <trkpt lat="43.22695" lon="5.63736">
        <ele>248.8125</ele>
        <time>2018-03-25T07:15:28Z</time>
      </trkpt>
      <trkpt lat="43.22696" lon="5.63737">
        <ele>249.0859375</ele>
        <time>2018-03-25T07:15:29Z</time>
      </trkpt>
      <trkpt lat="43.22697" lon="5.63739">
        <ele>249.2578125</ele>
        <time>2018-03-25T07:15:30Z</time>
      </trkpt>
      <trkpt lat="43.22697" lon="5.6374">
        <ele>249.421875</ele>
        <time>2018-03-25T07:15:31Z</time>
      </trkpt>
      <trkpt lat="43.22698" lon="5.63742">
        <ele>249.5546875</ele>
        <time>2018-03-25T07:15:32Z</time>
      </trkpt>
      <trkpt lat="43.22699" lon="5.63743">
        <ele>249.7265625</ele>
        <time>2018-03-25T07:15:33Z</time>
      </trkpt>
      <trkpt lat="43.227" lon="5.63744">
        <ele>249.84765625</ele>
        <time>2018-03-25T07:15:34Z</time>
      </trkpt>
      <trkpt lat="43.22701" lon="5.63745">
        <ele>249.94140625</ele>
        <time>2018-03-25T07:15:35Z</time>
      </trkpt>
      <trkpt lat="43.22702" lon="5.63747">
        <ele>250</ele>
        <time>2018-03-25T07:15:36Z</time>
      </trkpt>
      <trkpt lat="43.22703" lon="5.63748">
        <ele>250.10546875</ele>
        <time>2018-03-25T07:15:37Z</time>
      </trkpt>
      <trkpt lat="43.22704" lon="5.63749">
        <ele>250.21875</ele>
        <time>2018-03-25T07:15:38Z</time>
      </trkpt>
      <trkpt lat="43.22705" lon="5.6375">
        <ele>250.359375</ele>
        <time>2018-03-25T07:15:39Z</time>
      </trkpt>
      <trkpt lat="43.22706" lon="5.63752">
        <ele>250.46875</ele>
        <time>2018-03-25T07:15:40Z</time>
      </trkpt>
      <trkpt lat="43.22707" lon="5.63753">
        <ele>250.58984375</ele>
        <time>2018-03-25T07:15:41Z</time>
      </trkpt>
      <trkpt lat="43.22708" lon="5.63753">
        <ele>250.75</ele>
        <time>2018-03-25T07:15:42Z</time>
      </trkpt>
      <trkpt lat="43.22708" lon="5.63755">
        <ele>250.859375</ele>
        <time>2018-03-25T07:15:43Z</time>
      </trkpt>
      <trkpt lat="43.22709" lon="5.63756">
        <ele>250.9765625</ele>
        <time>2018-03-25T07:15:44Z</time>
      </trkpt>
      <trkpt lat="43.2271" lon="5.63757">
        <ele>251.04296875</ele>
        <time>2018-03-25T07:15:45Z</time>
      </trkpt>
      <trkpt lat="43.22711" lon="5.63759">
        <ele>251.14453125</ele>
        <time>2018-03-25T07:15:46Z</time>
      </trkpt>
      <trkpt lat="43.22712" lon="5.6376">
        <ele>251.19921875</ele>
        <time>2018-03-25T07:15:47Z</time>
      </trkpt>
      <trkpt lat="43.22712" lon="5.63761">
        <ele>251.23046875</ele>
        <time>2018-03-25T07:15:48Z</time>
      </trkpt>
      <trkpt lat="43.22713" lon="5.63763">
        <ele>251.31640625</ele>
        <time>2018-03-25T07:15:49Z</time>
      </trkpt>
      <trkpt lat="43.22714" lon="5.63764">
        <ele>251.44921875</ele>
        <time>2018-03-25T07:15:50Z</time>
      </trkpt>
      <trkpt lat="43.22715" lon="5.63766">
        <ele>251.5859375</ele>
        <time>2018-03-25T07:15:51Z</time>
      </trkpt>
      <trkpt lat="43.22716" lon="5.63767">
        <ele>251.7265625</ele>
        <time>2018-03-25T07:15:52Z</time>
      </trkpt>
      <trkpt lat="43.22718" lon="5.63768">
        <ele>251.9140625</ele>
        <time>2018-03-25T07:15:53Z</time>
      </trkpt>
      <trkpt lat="43.22719" lon="5.63768">
        <ele>252.125</ele>
        <time>2018-03-25T07:15:54Z</time>
      </trkpt>
      <trkpt lat="43.2272" lon="5.63769">
        <ele>252.34765625</ele>
        <time>2018-03-25T07:15:55Z</time>
      </trkpt>
      <trkpt lat="43.22721" lon="5.63771">
        <ele>252.4921875</ele>
        <time>2018-03-25T07:15:56Z</time>
      </trkpt>
      <trkpt lat="43.22721" lon="5.63772">
        <ele>252.61328125</ele>
        <time>2018-03-25T07:15:57Z</time>
      </trkpt>
      <trkpt lat="43.22722" lon="5.63773">
        <ele>252.73828125</ele>
        <time>2018-03-25T07:15:58Z</time>
      </trkpt>
      <trkpt lat="43.22723" lon="5.63774">
        <ele>252.859375</ele>
        <time>2018-03-25T07:15:59Z</time>
      </trkpt>
      <trkpt lat="43.22724" lon="5.63775">
        <ele>253.06640625</ele>
        <time>2018-03-25T07:16:00Z</time>
      </trkpt>
      <trkpt lat="43.22725" lon="5.63776">
        <ele>253.296875</ele>
        <time>2018-03-25T07:16:01Z</time>
      </trkpt>
      <trkpt lat="43.22726" lon="5.63777">
        <ele>253.48046875</ele>
        <time>2018-03-25T07:16:02Z</time>
      </trkpt>
      <trkpt lat="43.22728" lon="5.63778">
        <ele>253.66796875</ele>
        <time>2018-03-25T07:16:03Z</time>
      </trkpt>
      <trkpt lat="43.22739" lon="5.63788">
        <ele>255.8046875</ele>
        <time>2018-03-25T07:16:14Z</time>
      </trkpt>
      <trkpt lat="43.22754" lon="5.63798">
        <ele>258.66015625</ele>
        <time>2018-03-25T07:16:28Z</time>
      </trkpt>
      <trkpt lat="43.22755" lon="5.63799">
        <ele>258.8203125</ele>
        <time>2018-03-25T07:16:29Z</time>
      </trkpt>
      <trkpt lat="43.22759" lon="5.63802">
        <ele>259.2734375</ele>
        <time>2018-03-25T07:16:33Z</time>
      </trkpt>
      <trkpt lat="43.2276" lon="5.63803">
        <ele>259.40234375</ele>
        <time>2018-03-25T07:16:34Z</time>
      </trkpt>
      <trkpt lat="43.22761" lon="5.63803">
        <ele>259.52734375</ele>
        <time>2018-03-25T07:16:35Z</time>
      </trkpt>
      <trkpt lat="43.22762" lon="5.63804">
        <ele>259.67578125</ele>
        <time>2018-03-25T07:16:36Z</time>
      </trkpt>
      <trkpt lat="43.22764" lon="5.63805">
        <ele>259.9765625</ele>
        <time>2018-03-25T07:16:38Z</time>
      </trkpt>
      <trkpt lat="43.22767" lon="5.63806">
        <ele>260.296875</ele>
        <time>2018-03-25T07:16:40Z</time>
      </trkpt>
      <trkpt lat="43.22768" lon="5.63807">
        <ele>260.4375</ele>
        <time>2018-03-25T07:16:41Z</time>
      </trkpt>
      <trkpt lat="43.22769" lon="5.63808">
        <ele>260.59765625</ele>
        <time>2018-03-25T07:16:42Z</time>
      </trkpt>
      <trkpt lat="43.2277" lon="5.63809">
        <ele>260.76171875</ele>
        <time>2018-03-25T07:16:43Z</time>
      </trkpt>
      <trkpt lat="43.22771" lon="5.6381">
        <ele>260.88671875</ele>
        <time>2018-03-25T07:16:44Z</time>
      </trkpt>
      <trkpt lat="43.22785" lon="5.63824">
        <ele>262.49609375</ele>
        <time>2018-03-25T07:16:58Z</time>
      </trkpt>
      <trkpt lat="43.22786" lon="5.63825">
        <ele>262.7734375</ele>
        <time>2018-03-25T07:16:59Z</time>
      </trkpt>
      <trkpt lat="43.22787" lon="5.63827">
        <ele>263.0234375</ele>
        <time>2018-03-25T07:17:00Z</time>
      </trkpt>
      <trkpt lat="43.22788" lon="5.63829">
        <ele>263.296875</ele>
        <time>2018-03-25T07:17:01Z</time>
      </trkpt>
      <trkpt lat="43.22789" lon="5.6383">
        <ele>263.56640625</ele>
        <time>2018-03-25T07:17:02Z</time>
      </trkpt>
      <trkpt lat="43.2279" lon="5.63831">
        <ele>263.76953125</ele>
        <time>2018-03-25T07:17:03Z</time>
      </trkpt>
      <trkpt lat="43.2279" lon="5.63832">
        <ele>263.99609375</ele>
        <time>2018-03-25T07:17:04Z</time>
      </trkpt>
      <trkpt lat="43.22791" lon="5.63833">
        <ele>264.296875</ele>
        <time>2018-03-25T07:17:05Z</time>
      </trkpt>
      <trkpt lat="43.22793" lon="5.63834">
        <ele>264.5859375</ele>
        <time>2018-03-25T07:17:06Z</time>
      </trkpt>
      <trkpt lat="43.228" lon="5.63841">
        <ele>266.84765625</ele>
        <time>2018-03-25T07:17:13Z</time>
      </trkpt>
      <trkpt lat="43.2281" lon="5.63855">
        <ele>270.1171875</ele>
        <time>2018-03-25T07:17:24Z</time>
      </trkpt>
      <trkpt lat="43.22811" lon="5.63857">
        <ele>270.34375</ele>
        <time>2018-03-25T07:17:25Z</time>
      </trkpt>
      <trkpt lat="43.22812" lon="5.63858">
        <ele>270.5546875</ele>
        <time>2018-03-25T07:17:26Z</time>
      </trkpt>
      <trkpt lat="43.22812" lon="5.6386">
        <ele>270.671875</ele>
        <time>2018-03-25T07:17:27Z</time>
      </trkpt>
      <trkpt lat="43.22812" lon="5.63862">
        <ele>270.78125</ele>
        <time>2018-03-25T07:17:28Z</time>
      </trkpt>
      <trkpt lat="43.22812" lon="5.63864">
        <ele>270.9375</ele>
        <time>2018-03-25T07:17:29Z</time>
      </trkpt>
      <trkpt lat="43.22813" lon="5.63865">
        <ele>271.16015625</ele>
        <time>2018-03-25T07:17:30Z</time>
      </trkpt>
      <trkpt lat="43.22814" lon="5.63869">
        <ele>271.546875</ele>
        <time>2018-03-25T07:17:32Z</time>
      </trkpt>
      <trkpt lat="43.22814" lon="5.63871">
        <ele>271.703125</ele>
        <time>2018-03-25T07:17:33Z</time>
      </trkpt>
      <trkpt lat="43.22815" lon="5.63873">
        <ele>271.92578125</ele>
        <time>2018-03-25T07:17:34Z</time>
      </trkpt>
      <trkpt lat="43.22816" lon="5.63875">
        <ele>272.1484375</ele>
        <time>2018-03-25T07:17:35Z</time>
      </trkpt>
      <trkpt lat="43.22817" lon="5.63876">
        <ele>272.3984375</ele>
        <time>2018-03-25T07:17:36Z</time>
      </trkpt>
      <trkpt lat="43.22818" lon="5.63892">
        <ele>272.08203125</ele>
        <time>2018-03-25T07:17:45Z</time>
      </trkpt>
      <trkpt lat="43.22818" lon="5.63894">
        <ele>271.87890625</ele>
        <time>2018-03-25T07:17:46Z</time>
      </trkpt>
      <trkpt lat="43.22816" lon="5.63904">
        <ele>270.8515625</ele>
        <time>2018-03-25T07:17:51Z</time>
      </trkpt>
      <trkpt lat="43.22816" lon="5.63905">
        <ele>270.671875</ele>
        <time>2018-03-25T07:17:52Z</time>
      </trkpt>
      <trkpt lat="43.22816" lon="5.63907">
        <ele>270.50390625</ele>
        <time>2018-03-25T07:17:53Z</time>
      </trkpt>
      <trkpt lat="43.22817" lon="5.63916">
        <ele>270.1484375</ele>
        <time>2018-03-25T07:17:57Z</time>
      </trkpt>
      <trkpt lat="43.22818" lon="5.63917">
        <ele>270.3125</ele>
        <time>2018-03-25T07:17:58Z</time>
      </trkpt>
      <trkpt lat="43.22818" lon="5.63919">
        <ele>270.37890625</ele>
        <time>2018-03-25T07:17:59Z</time>
      </trkpt>
      <trkpt lat="43.22819" lon="5.6392">
        <ele>270.46484375</ele>
        <time>2018-03-25T07:18:00Z</time>
      </trkpt>
      <trkpt lat="43.22819" lon="5.63922">
        <ele>270.44140625</ele>
        <time>2018-03-25T07:18:01Z</time>
      </trkpt>
      <trkpt lat="43.22819" lon="5.63924">
        <ele>270.32421875</ele>
        <time>2018-03-25T07:18:02Z</time>
      </trkpt>
      <trkpt lat="43.22821" lon="5.63936">
        <ele>270.19140625</ele>
        <time>2018-03-25T07:18:08Z</time>
      </trkpt>
      <trkpt lat="43.22825" lon="5.63944">
        <ele>271.01953125</ele>
        <time>2018-03-25T07:18:13Z</time>
      </trkpt>
      <trkpt lat="43.22832" lon="5.63949">
        <ele>272.84765625</ele>
        <time>2018-03-25T07:18:19Z</time>
      </trkpt>
      <trkpt lat="43.22833" lon="5.63951">
        <ele>272.984375</ele>
        <time>2018-03-25T07:18:20Z</time>
      </trkpt>
      <trkpt lat="43.22834" lon="5.63952">
        <ele>273.19140625</ele>
        <time>2018-03-25T07:18:21Z</time>
      </trkpt>
      <trkpt lat="43.22835" lon="5.63953">
        <ele>273.44140625</ele>
        <time>2018-03-25T07:18:22Z</time>
      </trkpt>
      <trkpt lat="43.22836" lon="5.63954">
        <ele>273.72265625</ele>
        <time>2018-03-25T07:18:23Z</time>
      </trkpt>
      <trkpt lat="43.22837" lon="5.63955">
        <ele>273.9765625</ele>
        <time>2018-03-25T07:18:24Z</time>
      </trkpt>
      <trkpt lat="43.22838" lon="5.63956">
        <ele>274.203125</ele>
        <time>2018-03-25T07:18:25Z</time>
      </trkpt>
      <trkpt lat="43.22839" lon="5.63957">
        <ele>274.3984375</ele>
        <time>2018-03-25T07:18:26Z</time>
      </trkpt>
      <trkpt lat="43.22852" lon="5.63978">
        <ele>276.91796875</ele>
        <time>2018-03-25T07:18:41Z</time>
      </trkpt>
      <trkpt lat="43.22852" lon="5.63979">
        <ele>277.01953125</ele>
        <time>2018-03-25T07:18:42Z</time>
      </trkpt>
      <trkpt lat="43.22863" lon="5.64003">
        <ele>278.890625</ele>
        <time>2018-03-25T07:18:58Z</time>
      </trkpt>
      <trkpt lat="43.22864" lon="5.64003">
        <ele>279.25390625</ele>
        <time>2018-03-25T07:18:59Z</time>
      </trkpt>
      <trkpt lat="43.22865" lon="5.64002">
        <ele>279.76171875</ele>
        <time>2018-03-25T07:19:00Z</time>
      </trkpt>
      <trkpt lat="43.2287" lon="5.63987">
        <ele>282.13671875</ele>
        <time>2018-03-25T07:19:12Z</time>
      </trkpt>
      <trkpt lat="43.22871" lon="5.63984">
        <ele>282.32421875</ele>
        <time>2018-03-25T07:19:14Z</time>
      </trkpt>
      <trkpt lat="43.22871" lon="5.63982">
        <ele>282.46484375</ele>
        <time>2018-03-25T07:19:15Z</time>
      </trkpt>
      <trkpt lat="43.22871" lon="5.6398">
        <ele>282.60546875</ele>
        <time>2018-03-25T07:19:16Z</time>
      </trkpt>
      <trkpt lat="43.22871" lon="5.63978">
        <ele>282.65625</ele>
        <time>2018-03-25T07:19:17Z</time>
      </trkpt>
      <trkpt lat="43.22871" lon="5.63976">
        <ele>282.64453125</ele>
        <time>2018-03-25T07:19:18Z</time>
      </trkpt>
      <trkpt lat="43.2287" lon="5.63975">
        <ele>282.58203125</ele>
        <time>2018-03-25T07:19:19Z</time>
      </trkpt>
      <trkpt lat="43.2287" lon="5.63973">
        <ele>282.5859375</ele>
        <time>2018-03-25T07:19:20Z</time>
      </trkpt>
      <trkpt lat="43.22873" lon="5.63945">
        <ele>284.75390625</ele>
        <time>2018-03-25T07:19:36Z</time>
      </trkpt>
      <trkpt lat="43.22873" lon="5.63937">
        <ele>285.390625</ele>
        <time>2018-03-25T07:19:41Z</time>
      </trkpt>
      <trkpt lat="43.22879" lon="5.63909">
        <ele>287.28125</ele>
        <time>2018-03-25T07:19:57Z</time>
      </trkpt>
      <trkpt lat="43.22879" lon="5.63907">
        <ele>287.37109375</ele>
        <time>2018-03-25T07:19:58Z</time>
      </trkpt>
      <trkpt lat="43.22879" lon="5.63904">
        <ele>287.38671875</ele>
        <time>2018-03-25T07:19:59Z</time>
      </trkpt>
      <trkpt lat="43.2288" lon="5.63902">
        <ele>287.4609375</ele>
        <time>2018-03-25T07:20:00Z</time>
      </trkpt>
      <trkpt lat="43.2288" lon="5.639">
        <ele>287.5</ele>
        <time>2018-03-25T07:20:01Z</time>
      </trkpt>
      <trkpt lat="43.2288" lon="5.63899">
        <ele>287.53515625</ele>
        <time>2018-03-25T07:20:02Z</time>
      </trkpt>
      <trkpt lat="43.2288" lon="5.63897">
        <ele>287.53515625</ele>
        <time>2018-03-25T07:20:03Z</time>
      </trkpt>
      <trkpt lat="43.2288" lon="5.63895">
        <ele>287.50390625</ele>
        <time>2018-03-25T07:20:04Z</time>
      </trkpt>
      <trkpt lat="43.2288" lon="5.63893">
        <ele>287.53515625</ele>
        <time>2018-03-25T07:20:05Z</time>
      </trkpt>
      <trkpt lat="43.2288" lon="5.63891">
        <ele>287.5625</ele>
        <time>2018-03-25T07:20:06Z</time>
      </trkpt>
      <trkpt lat="43.22883" lon="5.63875">
        <ele>287.73046875</ele>
        <time>2018-03-25T07:20:14Z</time>
      </trkpt>
      <trkpt lat="43.22888" lon="5.63873">
        <ele>288.48828125</ele>
        <time>2018-03-25T07:20:18Z</time>
      </trkpt>
      <trkpt lat="43.2289" lon="5.63874">
        <ele>288.921875</ele>
        <time>2018-03-25T07:20:27Z</time>
      </trkpt>
      <trkpt lat="43.2289" lon="5.63876">
        <ele>289.14453125</ele>
        <time>2018-03-25T07:20:32Z</time>
      </trkpt>
      <trkpt lat="43.22891" lon="5.63877">
        <ele>289.36328125</ele>
        <time>2018-03-25T07:20:33Z</time>
      </trkpt>
      <trkpt lat="43.22891" lon="5.63879">
        <ele>289.5703125</ele>
        <time>2018-03-25T07:20:34Z</time>
      </trkpt>
      <trkpt lat="43.22892" lon="5.63881">
        <ele>289.59765625</ele>
        <time>2018-03-25T07:20:35Z</time>
      </trkpt>
      <trkpt lat="43.22891" lon="5.63882">
        <ele>289.5703125</ele>
        <time>2018-03-25T07:20:36Z</time>
      </trkpt>
      <trkpt lat="43.22896" lon="5.63899">
        <ele>290.29296875</ele>
        <time>2018-03-25T07:20:49Z</time>
      </trkpt>
      <trkpt lat="43.22901" lon="5.63913">
        <ele>291.22265625</ele>
        <time>2018-03-25T07:21:00Z</time>
      </trkpt>
      <trkpt lat="43.22902" lon="5.63917">
        <ele>291.44921875</ele>
        <time>2018-03-25T07:21:03Z</time>
      </trkpt>
      <trkpt lat="43.22913" lon="5.6394">
        <ele>293.30859375</ele>
        <time>2018-03-25T07:21:20Z</time>
      </trkpt>
      <trkpt lat="43.22928" lon="5.63958">
        <ele>296.19921875</ele>
        <time>2018-03-25T07:21:36Z</time>
      </trkpt>
      <trkpt lat="43.22939" lon="5.63975">
        <ele>298.01953125</ele>
        <time>2018-03-25T07:21:50Z</time>
      </trkpt>
      <trkpt lat="43.22941" lon="5.63977">
        <ele>298.328125</ele>
        <time>2018-03-25T07:21:52Z</time>
      </trkpt>
      <trkpt lat="43.22942" lon="5.63978">
        <ele>298.51171875</ele>
        <time>2018-03-25T07:21:53Z</time>
      </trkpt>
      <trkpt lat="43.22943" lon="5.63979">
        <ele>298.7265625</ele>
        <time>2018-03-25T07:21:54Z</time>
      </trkpt>
      <trkpt lat="43.22944" lon="5.63981">
        <ele>298.921875</ele>
        <time>2018-03-25T07:21:55Z</time>
      </trkpt>
      <trkpt lat="43.22945" lon="5.63983">
        <ele>299.14453125</ele>
        <time>2018-03-25T07:21:56Z</time>
      </trkpt>
      <trkpt lat="43.22947" lon="5.63984">
        <ele>299.41015625</ele>
        <time>2018-03-25T07:21:57Z</time>
      </trkpt>
      <trkpt lat="43.22947" lon="5.63986">
        <ele>299.59765625</ele>
        <time>2018-03-25T07:21:58Z</time>
      </trkpt>
      <trkpt lat="43.22952" lon="5.63992">
        <ele>300.34375</ele>
        <time>2018-03-25T07:22:03Z</time>
      </trkpt>
      <trkpt lat="43.22953" lon="5.63994">
        <ele>300.49609375</ele>
        <time>2018-03-25T07:22:04Z</time>
      </trkpt>
      <trkpt lat="43.22954" lon="5.63995">
        <ele>300.62890625</ele>
        <time>2018-03-25T07:22:05Z</time>
      </trkpt>
      <trkpt lat="43.22955" lon="5.63997">
        <ele>300.75</ele>
        <time>2018-03-25T07:22:06Z</time>
      </trkpt>
      <trkpt lat="43.22955" lon="5.63998">
        <ele>300.78125</ele>
        <time>2018-03-25T07:22:07Z</time>
      </trkpt>
      <trkpt lat="43.22956" lon="5.64">
        <ele>300.82421875</ele>
        <time>2018-03-25T07:22:08Z</time>
      </trkpt>
      <trkpt lat="43.22957" lon="5.64001">
        <ele>300.9296875</ele>
        <time>2018-03-25T07:22:09Z</time>
      </trkpt>
      <trkpt lat="43.22958" lon="5.64002">
        <ele>301.046875</ele>
        <time>2018-03-25T07:22:10Z</time>
      </trkpt>
      <trkpt lat="43.22972" lon="5.64024">
        <ele>302.71875</ele>
        <time>2018-03-25T07:22:25Z</time>
      </trkpt>
      <trkpt lat="43.2298" lon="5.64035">
        <ele>303.89453125</ele>
        <time>2018-03-25T07:22:35Z</time>
      </trkpt>
      <trkpt lat="43.22981" lon="5.64037">
        <ele>304</ele>
        <time>2018-03-25T07:22:36Z</time>
      </trkpt>
      <trkpt lat="43.22993" lon="5.64062">
        <ele>306.1953125</ele>
        <time>2018-03-25T07:22:51Z</time>
      </trkpt>
      <trkpt lat="43.22994" lon="5.64063">
        <ele>306.36328125</ele>
        <time>2018-03-25T07:22:52Z</time>
      </trkpt>
      <trkpt lat="43.22994" lon="5.64065">
        <ele>306.44921875</ele>
        <time>2018-03-25T07:22:53Z</time>
      </trkpt>
      <trkpt lat="43.23004" lon="5.64088">
        <ele>308.359375</ele>
        <time>2018-03-25T07:23:08Z</time>
      </trkpt>
      <trkpt lat="43.23011" lon="5.64104">
        <ele>308.82421875</ele>
        <time>2018-03-25T07:23:18Z</time>
      </trkpt>
      <trkpt lat="43.23012" lon="5.64105">
        <ele>308.94140625</ele>
        <time>2018-03-25T07:23:19Z</time>
      </trkpt>
      <trkpt lat="43.23017" lon="5.6411">
        <ele>309.58984375</ele>
        <time>2018-03-25T07:23:23Z</time>
      </trkpt>
      <trkpt lat="43.23019" lon="5.6411">
        <ele>309.8203125</ele>
        <time>2018-03-25T07:23:24Z</time>
      </trkpt>
      <trkpt lat="43.23022" lon="5.6411">
        <ele>310.31640625</ele>
        <time>2018-03-25T07:23:26Z</time>
      </trkpt>
      <trkpt lat="43.23024" lon="5.64107">
        <ele>310.68359375</ele>
        <time>2018-03-25T07:23:28Z</time>
      </trkpt>
      <trkpt lat="43.23026" lon="5.64098">
        <ele>311.05859375</ele>
        <time>2018-03-25T07:23:33Z</time>
      </trkpt>
      <trkpt lat="43.23026" lon="5.64096">
        <ele>311.10546875</ele>
        <time>2018-03-25T07:23:34Z</time>
      </trkpt>
      <trkpt lat="43.23026" lon="5.64082">
        <ele>311.25390625</ele>
        <time>2018-03-25T07:23:41Z</time>
      </trkpt>
      <trkpt lat="43.23027" lon="5.64077">
        <ele>311.359375</ele>
        <time>2018-03-25T07:23:44Z</time>
      </trkpt>
      <trkpt lat="43.23027" lon="5.64076">
        <ele>311.34765625</ele>
        <time>2018-03-25T07:23:45Z</time>
      </trkpt>
      <trkpt lat="43.23027" lon="5.64074">
        <ele>311.34765625</ele>
        <time>2018-03-25T07:23:46Z</time>
      </trkpt>
      <trkpt lat="43.23027" lon="5.64072">
        <ele>311.3125</ele>
        <time>2018-03-25T07:23:47Z</time>
      </trkpt>
      <trkpt lat="43.23027" lon="5.6407">
        <ele>311.2109375</ele>
        <time>2018-03-25T07:23:48Z</time>
      </trkpt>
      <trkpt lat="43.23041" lon="5.64053">
        <ele>310.6328125</ele>
        <time>2018-03-25T07:24:03Z</time>
      </trkpt>
      <trkpt lat="43.23052" lon="5.64065">
        <ele>311.93359375</ele>
        <time>2018-03-25T07:24:15Z</time>
      </trkpt>
      <trkpt lat="43.23053" lon="5.64067">
        <ele>312.0859375</ele>
        <time>2018-03-25T07:24:16Z</time>
      </trkpt>
      <trkpt lat="43.23059" lon="5.64078">
        <ele>313.28515625</ele>
        <time>2018-03-25T07:24:24Z</time>
      </trkpt>
      <trkpt lat="43.2306" lon="5.64079">
        <ele>313.421875</ele>
        <time>2018-03-25T07:24:25Z</time>
      </trkpt>
      <trkpt lat="43.23061" lon="5.64081">
        <ele>313.484375</ele>
        <time>2018-03-25T07:24:26Z</time>
      </trkpt>
      <trkpt lat="43.23062" lon="5.64082">
        <ele>313.42578125</ele>
        <time>2018-03-25T07:24:27Z</time>
      </trkpt>
      <trkpt lat="43.23063" lon="5.64084">
        <ele>313.390625</ele>
        <time>2018-03-25T07:24:28Z</time>
      </trkpt>
      <trkpt lat="43.23064" lon="5.64086">
        <ele>313.4296875</ele>
        <time>2018-03-25T07:24:29Z</time>
      </trkpt>
      <trkpt lat="43.23065" lon="5.64089">
        <ele>313.484375</ele>
        <time>2018-03-25T07:24:30Z</time>
      </trkpt>
      <trkpt lat="43.23065" lon="5.64091">
        <ele>313.58984375</ele>
        <time>2018-03-25T07:24:31Z</time>
      </trkpt>
      <trkpt lat="43.23077" lon="5.64121">
        <ele>314.85546875</ele>
        <time>2018-03-25T07:24:46Z</time>
      </trkpt>
      <trkpt lat="43.23084" lon="5.64143">
        <ele>316.60546875</ele>
        <time>2018-03-25T07:25:00Z</time>
      </trkpt>
      <trkpt lat="43.23086" lon="5.64146">
        <ele>316.9453125</ele>
        <time>2018-03-25T07:25:03Z</time>
      </trkpt>
      <trkpt lat="43.2309" lon="5.64152">
        <ele>317.4921875</ele>
        <time>2018-03-25T07:25:07Z</time>
      </trkpt>
      <trkpt lat="43.23095" lon="5.64167">
        <ele>318.59375</ele>
        <time>2018-03-25T07:25:18Z</time>
      </trkpt>
      <trkpt lat="43.23101" lon="5.64181">
        <ele>319.74609375</ele>
        <time>2018-03-25T07:25:26Z</time>
      </trkpt>
      <trkpt lat="43.23102" lon="5.64183">
        <ele>319.890625</ele>
        <time>2018-03-25T07:25:27Z</time>
      </trkpt>
      <trkpt lat="43.23103" lon="5.64185">
        <ele>320.03125</ele>
        <time>2018-03-25T07:25:28Z</time>
      </trkpt>
      <trkpt lat="43.23105" lon="5.64189">
        <ele>320.2734375</ele>
        <time>2018-03-25T07:25:31Z</time>
      </trkpt>
      <trkpt lat="43.23107" lon="5.64191">
        <ele>320.44140625</ele>
        <time>2018-03-25T07:25:33Z</time>
      </trkpt>
      <trkpt lat="43.23108" lon="5.64193">
        <ele>320.55078125</ele>
        <time>2018-03-25T07:25:34Z</time>
      </trkpt>
      <trkpt lat="43.23109" lon="5.64194">
        <ele>320.6484375</ele>
        <time>2018-03-25T07:25:35Z</time>
      </trkpt>
      <trkpt lat="43.2311" lon="5.64196">
        <ele>320.75</ele>
        <time>2018-03-25T07:25:36Z</time>
      </trkpt>
      <trkpt lat="43.23111" lon="5.64197">
        <ele>320.86328125</ele>
        <time>2018-03-25T07:25:37Z</time>
      </trkpt>
      <trkpt lat="43.23111" lon="5.64199">
        <ele>320.98046875</ele>
        <time>2018-03-25T07:25:38Z</time>
      </trkpt>
      <trkpt lat="43.23112" lon="5.642">
        <ele>321.09765625</ele>
        <time>2018-03-25T07:25:39Z</time>
      </trkpt>
      <trkpt lat="43.23113" lon="5.64202">
        <ele>321.23046875</ele>
        <time>2018-03-25T07:25:40Z</time>
      </trkpt>
      <trkpt lat="43.23114" lon="5.64204">
        <ele>321.37890625</ele>
        <time>2018-03-25T07:25:41Z</time>
      </trkpt>
      <trkpt lat="43.23121" lon="5.64217">
        <ele>321.9375</ele>
        <time>2018-03-25T07:25:50Z</time>
      </trkpt>
      <trkpt lat="43.23131" lon="5.64235">
        <ele>322.9765625</ele>
        <time>2018-03-25T07:26:03Z</time>
      </trkpt>
      <trkpt lat="43.23134" lon="5.6424">
        <ele>323.421875</ele>
        <time>2018-03-25T07:26:07Z</time>
      </trkpt>
      <trkpt lat="43.23135" lon="5.64241">
        <ele>323.55078125</ele>
        <time>2018-03-25T07:26:08Z</time>
      </trkpt>
      <trkpt lat="43.23135" lon="5.64243">
        <ele>323.68359375</ele>
        <time>2018-03-25T07:26:09Z</time>
      </trkpt>
      <trkpt lat="43.23143" lon="5.64264">
        <ele>326.4375</ele>
        <time>2018-03-25T07:26:22Z</time>
      </trkpt>
      <trkpt lat="43.23144" lon="5.64267">
        <ele>326.9296875</ele>
        <time>2018-03-25T07:26:24Z</time>
      </trkpt>
      <trkpt lat="43.23144" lon="5.64269">
        <ele>327.125</ele>
        <time>2018-03-25T07:26:25Z</time>
      </trkpt>
      <trkpt lat="43.23145" lon="5.64274">
        <ele>327.62890625</ele>
        <time>2018-03-25T07:26:28Z</time>
      </trkpt>
      <trkpt lat="43.23146" lon="5.64276">
        <ele>327.75390625</ele>
        <time>2018-03-25T07:26:29Z</time>
      </trkpt>
      <trkpt lat="43.23147" lon="5.64277">
        <ele>327.88671875</ele>
        <time>2018-03-25T07:26:30Z</time>
      </trkpt>
      <trkpt lat="43.23147" lon="5.64279">
        <ele>328.046875</ele>
        <time>2018-03-25T07:26:31Z</time>
      </trkpt>
      <trkpt lat="43.23147" lon="5.64281">
        <ele>328.234375</ele>
        <time>2018-03-25T07:26:32Z</time>
      </trkpt>
      <trkpt lat="43.23148" lon="5.64282">
        <ele>328.40625</ele>
        <time>2018-03-25T07:26:33Z</time>
      </trkpt>
      <trkpt lat="43.23149" lon="5.64284">
        <ele>328.55859375</ele>
        <time>2018-03-25T07:26:34Z</time>
      </trkpt>
      <trkpt lat="43.23149" lon="5.64286">
        <ele>328.69140625</ele>
        <time>2018-03-25T07:26:35Z</time>
      </trkpt>
      <trkpt lat="43.2315" lon="5.64287">
        <ele>328.8515625</ele>
        <time>2018-03-25T07:26:36Z</time>
      </trkpt>
      <trkpt lat="43.2315" lon="5.64289">
        <ele>329.07421875</ele>
        <time>2018-03-25T07:26:37Z</time>
      </trkpt>
      <trkpt lat="43.2315" lon="5.64291">
        <ele>329.26171875</ele>
        <time>2018-03-25T07:26:38Z</time>
      </trkpt>
      <trkpt lat="43.23151" lon="5.64292">
        <ele>329.41796875</ele>
        <time>2018-03-25T07:26:39Z</time>
      </trkpt>
      <trkpt lat="43.23155" lon="5.6431">
        <ele>330.328125</ele>
        <time>2018-03-25T07:26:49Z</time>
      </trkpt>
      <trkpt lat="43.23155" lon="5.64312">
        <ele>330.421875</ele>
        <time>2018-03-25T07:26:50Z</time>
      </trkpt>
      <trkpt lat="43.23156" lon="5.64313">
        <ele>330.515625</ele>
        <time>2018-03-25T07:26:51Z</time>
      </trkpt>
      <trkpt lat="43.23156" lon="5.64317">
        <ele>330.7109375</ele>
        <time>2018-03-25T07:26:53Z</time>
      </trkpt>
      <trkpt lat="43.23157" lon="5.64319">
        <ele>330.79296875</ele>
        <time>2018-03-25T07:26:54Z</time>
      </trkpt>
      <trkpt lat="43.23157" lon="5.64321">
        <ele>330.8828125</ele>
        <time>2018-03-25T07:26:55Z</time>
      </trkpt>
      <trkpt lat="43.23158" lon="5.64323">
        <ele>331</ele>
        <time>2018-03-25T07:26:56Z</time>
      </trkpt>
      <trkpt lat="43.23159" lon="5.64325">
        <ele>331.046875</ele>
        <time>2018-03-25T07:26:57Z</time>
      </trkpt>
      <trkpt lat="43.2316" lon="5.64327">
        <ele>331.09375</ele>
        <time>2018-03-25T07:26:58Z</time>
      </trkpt>
      <trkpt lat="43.23161" lon="5.64329">
        <ele>331.14453125</ele>
        <time>2018-03-25T07:26:59Z</time>
      </trkpt>
      <trkpt lat="43.23161" lon="5.64331">
        <ele>331.1953125</ele>
        <time>2018-03-25T07:27:00Z</time>
      </trkpt>
      <trkpt lat="43.23162" lon="5.64333">
        <ele>331.25390625</ele>
        <time>2018-03-25T07:27:01Z</time>
      </trkpt>
      <trkpt lat="43.23176" lon="5.6436">
        <ele>331.6015625</ele>
        <time>2018-03-25T07:27:16Z</time>
      </trkpt>
      <trkpt lat="43.23176" lon="5.64362">
        <ele>331.5625</ele>
        <time>2018-03-25T07:27:17Z</time>
      </trkpt>
      <trkpt lat="43.23177" lon="5.64363">
        <ele>331.52734375</ele>
        <time>2018-03-25T07:27:18Z</time>
      </trkpt>
      <trkpt lat="43.23178" lon="5.64365">
        <ele>331.48828125</ele>
        <time>2018-03-25T07:27:19Z</time>
      </trkpt>
      <trkpt lat="43.23179" lon="5.64367">
        <ele>331.453125</ele>
        <time>2018-03-25T07:27:20Z</time>
      </trkpt>
      <trkpt lat="43.2319" lon="5.64395">
        <ele>331.90625</ele>
        <time>2018-03-25T07:27:33Z</time>
      </trkpt>
      <trkpt lat="43.232" lon="5.64418">
        <ele>333.90625</ele>
        <time>2018-03-25T07:27:43Z</time>
      </trkpt>
      <trkpt lat="43.23215" lon="5.64449">
        <ele>337.55078125</ele>
        <time>2018-03-25T07:27:58Z</time>
      </trkpt>
      <trkpt lat="43.23229" lon="5.64466">
        <ele>340.5859375</ele>
        <time>2018-03-25T07:28:11Z</time>
      </trkpt>
      <trkpt lat="43.23231" lon="5.64468">
        <ele>341.08203125</ele>
        <time>2018-03-25T07:28:14Z</time>
      </trkpt>
      <trkpt lat="43.23232" lon="5.64469">
        <ele>341.32421875</ele>
        <time>2018-03-25T07:28:15Z</time>
      </trkpt>
      <trkpt lat="43.23236" lon="5.64476">
        <ele>342.3671875</ele>
        <time>2018-03-25T07:28:20Z</time>
      </trkpt>
      <trkpt lat="43.23238" lon="5.64481">
        <ele>342.96484375</ele>
        <time>2018-03-25T07:28:23Z</time>
      </trkpt>
      <trkpt lat="43.23239" lon="5.64483">
        <ele>343.19921875</ele>
        <time>2018-03-25T07:28:24Z</time>
      </trkpt>
      <trkpt lat="43.23239" lon="5.64484">
        <ele>343.359375</ele>
        <time>2018-03-25T07:28:25Z</time>
      </trkpt>
      <trkpt lat="43.2324" lon="5.64486">
        <ele>343.5703125</ele>
        <time>2018-03-25T07:28:26Z</time>
      </trkpt>
      <trkpt lat="43.2324" lon="5.64488">
        <ele>343.78125</ele>
        <time>2018-03-25T07:28:27Z</time>
      </trkpt>
      <trkpt lat="43.23241" lon="5.64489">
        <ele>343.97265625</ele>
        <time>2018-03-25T07:28:28Z</time>
      </trkpt>
      <trkpt lat="43.23241" lon="5.64491">
        <ele>344.171875</ele>
        <time>2018-03-25T07:28:29Z</time>
      </trkpt>
      <trkpt lat="43.23241" lon="5.64493">
        <ele>344.390625</ele>
        <time>2018-03-25T07:28:30Z</time>
      </trkpt>
      <trkpt lat="43.23242" lon="5.64494">
        <ele>344.5546875</ele>
        <time>2018-03-25T07:28:31Z</time>
      </trkpt>
      <trkpt lat="43.23242" lon="5.64496">
        <ele>344.703125</ele>
        <time>2018-03-25T07:28:32Z</time>
      </trkpt>
      <trkpt lat="43.23241" lon="5.64497">
        <ele>344.75390625</ele>
        <time>2018-03-25T07:28:33Z</time>
      </trkpt>
      <trkpt lat="43.23241" lon="5.64499">
        <ele>344.8203125</ele>
        <time>2018-03-25T07:28:34Z</time>
      </trkpt>
      <trkpt lat="43.2324" lon="5.64501">
        <ele>344.92578125</ele>
        <time>2018-03-25T07:28:35Z</time>
      </trkpt>
      <trkpt lat="43.2324" lon="5.64502">
        <ele>345.03125</ele>
        <time>2018-03-25T07:28:36Z</time>
      </trkpt>
      <trkpt lat="43.2324" lon="5.64504">
        <ele>345.125</ele>
        <time>2018-03-25T07:28:37Z</time>
      </trkpt>
      <trkpt lat="43.2324" lon="5.64505">
        <ele>345.2421875</ele>
        <time>2018-03-25T07:28:38Z</time>
      </trkpt>
      <trkpt lat="43.23241" lon="5.64526">
        <ele>347.26171875</ele>
        <time>2018-03-25T07:28:53Z</time>
      </trkpt>
      <trkpt lat="43.23242" lon="5.64534">
        <ele>347.90234375</ele>
        <time>2018-03-25T07:28:58Z</time>
      </trkpt>
      <trkpt lat="43.23242" lon="5.64536">
        <ele>348.05859375</ele>
        <time>2018-03-25T07:28:59Z</time>
      </trkpt>
      <trkpt lat="43.23242" lon="5.64538">
        <ele>348.1640625</ele>
        <time>2018-03-25T07:29:00Z</time>
      </trkpt>
      <trkpt lat="43.23242" lon="5.6454">
        <ele>348.32421875</ele>
        <time>2018-03-25T07:29:01Z</time>
      </trkpt>
      <trkpt lat="43.23242" lon="5.64541">
        <ele>348.44140625</ele>
        <time>2018-03-25T07:29:02Z</time>
      </trkpt>
      <trkpt lat="43.23242" lon="5.64543">
        <ele>348.625</ele>
        <time>2018-03-25T07:29:03Z</time>
      </trkpt>
      <trkpt lat="43.23243" lon="5.64545">
        <ele>348.87109375</ele>
        <time>2018-03-25T07:29:04Z</time>
      </trkpt>
      <trkpt lat="43.23249" lon="5.64558">
        <ele>350.02734375</ele>
        <time>2018-03-25T07:29:14Z</time>
      </trkpt>
      <trkpt lat="43.2325" lon="5.64558">
        <ele>350.33203125</ele>
        <time>2018-03-25T07:29:15Z</time>
      </trkpt>
      <trkpt lat="43.23264" lon="5.64559">
        <ele>352.34375</ele>
        <time>2018-03-25T07:29:28Z</time>
      </trkpt>
      <trkpt lat="43.23269" lon="5.64562">
        <ele>353.0625</ele>
        <time>2018-03-25T07:29:33Z</time>
      </trkpt>
      <trkpt lat="43.23277" lon="5.64576">
        <ele>355.30859375</ele>
        <time>2018-03-25T07:29:46Z</time>
      </trkpt>
      <trkpt lat="43.23279" lon="5.64592">
        <ele>356.55078125</ele>
        <time>2018-03-25T07:29:59Z</time>
      </trkpt>
      <trkpt lat="43.23282" lon="5.64605">
        <ele>357.9765625</ele>
        <time>2018-03-25T07:30:08Z</time>
      </trkpt>
      <trkpt lat="43.23286" lon="5.64612">
        <ele>358.77734375</ele>
        <time>2018-03-25T07:30:13Z</time>
      </trkpt>
      <trkpt lat="43.23288" lon="5.64612">
        <ele>359.05859375</ele>
        <time>2018-03-25T07:30:14Z</time>
      </trkpt>
      <trkpt lat="43.23289" lon="5.64613">
        <ele>359.34375</ele>
        <time>2018-03-25T07:30:15Z</time>
      </trkpt>
      <trkpt lat="43.2329" lon="5.64617">
        <ele>359.66796875</ele>
        <time>2018-03-25T07:30:18Z</time>
      </trkpt>
      <trkpt lat="43.23296" lon="5.64634">
        <ele>361.30078125</ele>
        <time>2018-03-25T07:30:30Z</time>
      </trkpt>
      <trkpt lat="43.23297" lon="5.64636">
        <ele>361.47265625</ele>
        <time>2018-03-25T07:30:31Z</time>
      </trkpt>
      <trkpt lat="43.23304" lon="5.64654">
        <ele>363.75</ele>
        <time>2018-03-25T07:30:42Z</time>
      </trkpt>
      <trkpt lat="43.23305" lon="5.64656">
        <ele>363.94140625</ele>
        <time>2018-03-25T07:30:43Z</time>
      </trkpt>
      <trkpt lat="43.23305" lon="5.64657">
        <ele>364.1953125</ele>
        <time>2018-03-25T07:30:44Z</time>
      </trkpt>
      <trkpt lat="43.23306" lon="5.64658">
        <ele>364.52734375</ele>
        <time>2018-03-25T07:30:45Z</time>
      </trkpt>
      <trkpt lat="43.23309" lon="5.64662">
        <ele>365.48828125</ele>
        <time>2018-03-25T07:30:48Z</time>
      </trkpt>
      <trkpt lat="43.23312" lon="5.6467">
        <ele>366.59375</ele>
        <time>2018-03-25T07:30:55Z</time>
      </trkpt>
      <trkpt lat="43.23313" lon="5.64674">
        <ele>366.8046875</ele>
        <time>2018-03-25T07:30:57Z</time>
      </trkpt>
      <trkpt lat="43.23313" lon="5.64675">
        <ele>366.92578125</ele>
        <time>2018-03-25T07:30:58Z</time>
      </trkpt>
      <trkpt lat="43.23319" lon="5.6469">
        <ele>368.6015625</ele>
        <time>2018-03-25T07:31:07Z</time>
      </trkpt>
      <trkpt lat="43.2332" lon="5.64692">
        <ele>368.7109375</ele>
        <time>2018-03-25T07:31:08Z</time>
      </trkpt>
      <trkpt lat="43.23321" lon="5.64695">
        <ele>369.1015625</ele>
        <time>2018-03-25T07:31:11Z</time>
      </trkpt>
      <trkpt lat="43.23323" lon="5.64698">
        <ele>369.37890625</ele>
        <time>2018-03-25T07:31:13Z</time>
      </trkpt>
      <trkpt lat="43.23323" lon="5.64699">
        <ele>369.44921875</ele>
        <time>2018-03-25T07:31:14Z</time>
      </trkpt>
      <trkpt lat="43.23325" lon="5.64703">
        <ele>370.08984375</ele>
        <time>2018-03-25T07:31:17Z</time>
      </trkpt>
      <trkpt lat="43.23326" lon="5.64704">
        <ele>370.29296875</ele>
        <time>2018-03-25T07:31:18Z</time>
      </trkpt>
      <trkpt lat="43.23327" lon="5.64706">
        <ele>370.5234375</ele>
        <time>2018-03-25T07:31:19Z</time>
      </trkpt>
      <trkpt lat="43.23332" lon="5.64715">
        <ele>371.953125</ele>
        <time>2018-03-25T07:31:25Z</time>
      </trkpt>
      <trkpt lat="43.23333" lon="5.64717">
        <ele>372.203125</ele>
        <time>2018-03-25T07:31:26Z</time>
      </trkpt>
      <trkpt lat="43.23333" lon="5.64719">
        <ele>372.3046875</ele>
        <time>2018-03-25T07:31:27Z</time>
      </trkpt>
      <trkpt lat="43.23341" lon="5.64735">
        <ele>374.3359375</ele>
        <time>2018-03-25T07:31:37Z</time>
      </trkpt>
      <trkpt lat="43.23342" lon="5.64736">
        <ele>374.58203125</ele>
        <time>2018-03-25T07:31:38Z</time>
      </trkpt>
      <trkpt lat="43.23353" lon="5.64755">
        <ele>376.5703125</ele>
        <time>2018-03-25T07:31:52Z</time>
      </trkpt>
      <trkpt lat="43.23355" lon="5.64759">
        <ele>376.94921875</ele>
        <time>2018-03-25T07:31:55Z</time>
      </trkpt>
      <trkpt lat="43.23355" lon="5.64761">
        <ele>376.9453125</ele>
        <time>2018-03-25T07:31:56Z</time>
      </trkpt>
      <trkpt lat="43.23356" lon="5.64763">
        <ele>377.0390625</ele>
        <time>2018-03-25T07:31:57Z</time>
      </trkpt>
      <trkpt lat="43.23356" lon="5.64764">
        <ele>377.19140625</ele>
        <time>2018-03-25T07:31:58Z</time>
      </trkpt>
      <trkpt lat="43.23362" lon="5.64774">
        <ele>378.91796875</ele>
        <time>2018-03-25T07:32:06Z</time>
      </trkpt>
      <trkpt lat="43.23365" lon="5.64782">
        <ele>379.6796875</ele>
        <time>2018-03-25T07:32:11Z</time>
      </trkpt>
      <trkpt lat="43.23366" lon="5.64784">
        <ele>379.92578125</ele>
        <time>2018-03-25T07:32:12Z</time>
      </trkpt>
      <trkpt lat="43.23372" lon="5.648">
        <ele>380.57421875</ele>
        <time>2018-03-25T07:32:22Z</time>
      </trkpt>
      <trkpt lat="43.23373" lon="5.64802">
        <ele>380.6953125</ele>
        <time>2018-03-25T07:32:23Z</time>
      </trkpt>
      <trkpt lat="43.23374" lon="5.64805">
        <ele>380.67578125</ele>
        <time>2018-03-25T07:32:25Z</time>
      </trkpt>
      <trkpt lat="43.23374" lon="5.64807">
        <ele>380.546875</ele>
        <time>2018-03-25T07:32:26Z</time>
      </trkpt>
      <trkpt lat="43.23374" lon="5.64809">
        <ele>380.5</ele>
        <time>2018-03-25T07:32:27Z</time>
      </trkpt>
      <trkpt lat="43.23375" lon="5.64811">
        <ele>380.54296875</ele>
        <time>2018-03-25T07:32:28Z</time>
      </trkpt>
      <trkpt lat="43.23376" lon="5.64813">
        <ele>380.6015625</ele>
        <time>2018-03-25T07:32:29Z</time>
      </trkpt>
      <trkpt lat="43.2338" lon="5.64826">
        <ele>380.83203125</ele>
        <time>2018-03-25T07:32:38Z</time>
      </trkpt>
      <trkpt lat="43.23381" lon="5.64829">
        <ele>380.90625</ele>
        <time>2018-03-25T07:32:40Z</time>
      </trkpt>
      <trkpt lat="43.23381" lon="5.64831">
        <ele>380.875</ele>
        <time>2018-03-25T07:32:41Z</time>
      </trkpt>
      <trkpt lat="43.23382" lon="5.64832">
        <ele>381.01953125</ele>
        <time>2018-03-25T07:32:42Z</time>
      </trkpt>
      <trkpt lat="43.23382" lon="5.64833">
        <ele>381.16796875</ele>
        <time>2018-03-25T07:32:43Z</time>
      </trkpt>
      <trkpt lat="43.23385" lon="5.64839">
        <ele>381.59765625</ele>
        <time>2018-03-25T07:32:48Z</time>
      </trkpt>
      <trkpt lat="43.23392" lon="5.64855">
        <ele>382.9140625</ele>
        <time>2018-03-25T07:33:01Z</time>
      </trkpt>
      <trkpt lat="43.23393" lon="5.64858">
        <ele>382.953125</ele>
        <time>2018-03-25T07:33:03Z</time>
      </trkpt>
      <trkpt lat="43.23394" lon="5.6486">
        <ele>383.0390625</ele>
        <time>2018-03-25T07:33:05Z</time>
      </trkpt>
      <trkpt lat="43.23397" lon="5.64864">
        <ele>383.33203125</ele>
        <time>2018-03-25T07:33:08Z</time>
      </trkpt>
      <trkpt lat="43.23398" lon="5.64865">
        <ele>383.40234375</ele>
        <time>2018-03-25T07:33:09Z</time>
      </trkpt>
      <trkpt lat="43.2341" lon="5.64879">
        <ele>385.02734375</ele>
        <time>2018-03-25T07:33:22Z</time>
      </trkpt>
      <trkpt lat="43.23418" lon="5.64885">
        <ele>386.9140625</ele>
        <time>2018-03-25T07:33:31Z</time>
      </trkpt>
      <trkpt lat="43.23419" lon="5.64885">
        <ele>387.1875</ele>
        <time>2018-03-25T07:33:32Z</time>
      </trkpt>
      <trkpt lat="43.23434" lon="5.64899">
        <ele>391.0078125</ele>
        <time>2018-03-25T07:33:46Z</time>
      </trkpt>
      <trkpt lat="43.23453" lon="5.64919">
        <ele>395.90234375</ele>
        <time>2018-03-25T07:34:04Z</time>
      </trkpt>
      <trkpt lat="43.23452" lon="5.64926">
        <ele>395.8515625</ele>
        <time>2018-03-25T07:34:08Z</time>
      </trkpt>
      <trkpt lat="43.23448" lon="5.64935">
        <ele>394.7578125</ele>
        <time>2018-03-25T07:34:14Z</time>
      </trkpt>
      <trkpt lat="43.23447" lon="5.64936">
        <ele>394.44140625</ele>
        <time>2018-03-25T07:34:15Z</time>
      </trkpt>
      <trkpt lat="43.23446" lon="5.64937">
        <ele>394.1796875</ele>
        <time>2018-03-25T07:34:16Z</time>
      </trkpt>
      <trkpt lat="43.23439" lon="5.64963">
        <ele>392.6484375</ele>
        <time>2018-03-25T07:34:32Z</time>
      </trkpt>
      <trkpt lat="43.23442" lon="5.64962">
        <ele>393.703125</ele>
        <time>2018-03-25T07:34:51Z</time>
      </trkpt>
      <trkpt lat="43.23442" lon="5.64964">
        <ele>393.51171875</ele>
        <time>2018-03-25T07:35:22Z</time>
      </trkpt>
      <trkpt lat="43.23443" lon="5.64964">
        <ele>393.83203125</ele>
        <time>2018-03-25T07:35:47Z</time>
      </trkpt>
      <trkpt lat="43.23445" lon="5.64962">
        <ele>394.71484375</ele>
        <time>2018-03-25T07:36:12Z</time>
      </trkpt>
      <trkpt lat="43.23442" lon="5.64958">
        <ele>393.64453125</ele>
        <time>2018-03-25T07:36:37Z</time>
      </trkpt>
      <trkpt lat="43.23443" lon="5.64964">
        <ele>394.06640625</ele>
        <time>2018-03-25T07:37:05Z</time>
      </trkpt>
      <trkpt lat="43.23442" lon="5.64967">
        <ele>393.5390625</ele>
        <time>2018-03-25T07:37:35Z</time>
      </trkpt>
      <trkpt lat="43.23445" lon="5.64966">
        <ele>394.375</ele>
        <time>2018-03-25T07:37:51Z</time>
      </trkpt>
      <trkpt lat="43.23443" lon="5.64967">
        <ele>393.70703125</ele>
        <time>2018-03-25T07:38:09Z</time>
      </trkpt>
      <trkpt lat="43.23447" lon="5.64961">
        <ele>395.359375</ele>
        <time>2018-03-25T07:38:34Z</time>
      </trkpt>
      <trkpt lat="43.23446" lon="5.64961">
        <ele>395.0390625</ele>
        <time>2018-03-25T07:38:59Z</time>
      </trkpt>
      <trkpt lat="43.23447" lon="5.64964">
        <ele>395.1953125</ele>
        <time>2018-03-25T07:39:32Z</time>
      </trkpt>
      <trkpt lat="43.23447" lon="5.64966">
        <ele>395.09765625</ele>
        <time>2018-03-25T07:39:34Z</time>
      </trkpt>
      <trkpt lat="43.23447" lon="5.64968">
        <ele>395.1015625</ele>
        <time>2018-03-25T07:39:35Z</time>
      </trkpt>
      <trkpt lat="43.23447" lon="5.64969">
        <ele>395.0859375</ele>
        <time>2018-03-25T07:39:36Z</time>
      </trkpt>
      <trkpt lat="43.23448" lon="5.64971">
        <ele>395.17578125</ele>
        <time>2018-03-25T07:39:37Z</time>
      </trkpt>
      <trkpt lat="43.23447" lon="5.64973">
        <ele>395.0625</ele>
        <time>2018-03-25T07:39:38Z</time>
      </trkpt>
      <trkpt lat="43.23447" lon="5.64975">
        <ele>394.96875</ele>
        <time>2018-03-25T07:39:39Z</time>
      </trkpt>
      <trkpt lat="43.23448" lon="5.64977">
        <ele>395.07421875</ele>
        <time>2018-03-25T07:39:40Z</time>
      </trkpt>
      <trkpt lat="43.23449" lon="5.64978">
        <ele>395.203125</ele>
        <time>2018-03-25T07:39:41Z</time>
      </trkpt>
      <trkpt lat="43.23449" lon="5.6498">
        <ele>395.21875</ele>
        <time>2018-03-25T07:39:42Z</time>
      </trkpt>
      <trkpt lat="43.23449" lon="5.64982">
        <ele>395.21875</ele>
        <time>2018-03-25T07:39:43Z</time>
      </trkpt>
      <trkpt lat="43.23449" lon="5.64983">
        <ele>395.23046875</ele>
        <time>2018-03-25T07:39:44Z</time>
      </trkpt>
      <trkpt lat="43.23449" lon="5.64984">
        <ele>395.2578125</ele>
        <time>2018-03-25T07:39:45Z</time>
      </trkpt>
      <trkpt lat="43.23451" lon="5.64991">
        <ele>395.41015625</ele>
        <time>2018-03-25T07:39:49Z</time>
      </trkpt>
      <trkpt lat="43.23453" lon="5.64994">
        <ele>395.78515625</ele>
        <time>2018-03-25T07:39:51Z</time>
      </trkpt>
      <trkpt lat="43.23463" lon="5.65018">
        <ele>397.328125</ele>
        <time>2018-03-25T07:40:06Z</time>
      </trkpt>
      <trkpt lat="43.23472" lon="5.6504">
        <ele>398.08203125</ele>
        <time>2018-03-25T07:40:21Z</time>
      </trkpt>
      <trkpt lat="43.23475" lon="5.65046">
        <ele>398.41015625</ele>
        <time>2018-03-25T07:40:25Z</time>
      </trkpt>
      <trkpt lat="43.23476" lon="5.65047">
        <ele>398.52734375</ele>
        <time>2018-03-25T07:40:26Z</time>
      </trkpt>
      <trkpt lat="43.23489" lon="5.65067">
        <ele>400.80078125</ele>
        <time>2018-03-25T07:40:41Z</time>
      </trkpt>
      <trkpt lat="43.23503" lon="5.65088">
        <ele>402.2109375</ele>
        <time>2018-03-25T07:40:56Z</time>
      </trkpt>
      <trkpt lat="43.2352" lon="5.65112">
        <ele>404.2734375</ele>
        <time>2018-03-25T07:41:15Z</time>
      </trkpt>
      <trkpt lat="43.23534" lon="5.65135">
        <ele>405.28515625</ele>
        <time>2018-03-25T07:41:32Z</time>
      </trkpt>
      <trkpt lat="43.23541" lon="5.65141">
        <ele>405.5859375</ele>
        <time>2018-03-25T07:41:38Z</time>
      </trkpt>
      <trkpt lat="43.23559" lon="5.65144">
        <ele>408.55859375</ele>
        <time>2018-03-25T07:41:52Z</time>
      </trkpt>
      <trkpt lat="43.23565" lon="5.65143">
        <ele>410.13671875</ele>
        <time>2018-03-25T07:41:57Z</time>
      </trkpt>
      <trkpt lat="43.23566" lon="5.65142">
        <ele>410.421875</ele>
        <time>2018-03-25T07:41:58Z</time>
      </trkpt>
      <trkpt lat="43.23581" lon="5.65136">
        <ele>414.1328125</ele>
        <time>2018-03-25T07:42:10Z</time>
      </trkpt>
      <trkpt lat="43.23584" lon="5.65133">
        <ele>415.0546875</ele>
        <time>2018-03-25T07:42:13Z</time>
      </trkpt>
      <trkpt lat="43.23586" lon="5.65132">
        <ele>415.34765625</ele>
        <time>2018-03-25T07:42:14Z</time>
      </trkpt>
      <trkpt lat="43.23587" lon="5.65131">
        <ele>415.63671875</ele>
        <time>2018-03-25T07:42:15Z</time>
      </trkpt>
      <trkpt lat="43.23588" lon="5.65131">
        <ele>415.92578125</ele>
        <time>2018-03-25T07:42:16Z</time>
      </trkpt>
      <trkpt lat="43.23589" lon="5.6513">
        <ele>416.28125</ele>
        <time>2018-03-25T07:42:17Z</time>
      </trkpt>
      <trkpt lat="43.2359" lon="5.65129">
        <ele>416.6171875</ele>
        <time>2018-03-25T07:42:18Z</time>
      </trkpt>
      <trkpt lat="43.23592" lon="5.65128">
        <ele>416.99609375</ele>
        <time>2018-03-25T07:42:19Z</time>
      </trkpt>
      <trkpt lat="43.23593" lon="5.65127">
        <ele>417.32421875</ele>
        <time>2018-03-25T07:42:20Z</time>
      </trkpt>
      <trkpt lat="43.23594" lon="5.65127">
        <ele>417.640625</ele>
        <time>2018-03-25T07:42:21Z</time>
      </trkpt>
      <trkpt lat="43.23596" lon="5.65126">
        <ele>417.97265625</ele>
        <time>2018-03-25T07:42:22Z</time>
      </trkpt>
      <trkpt lat="43.23597" lon="5.65126">
        <ele>418.30078125</ele>
        <time>2018-03-25T07:42:23Z</time>
      </trkpt>
      <trkpt lat="43.23598" lon="5.65126">
        <ele>418.6796875</ele>
        <time>2018-03-25T07:42:24Z</time>
      </trkpt>
      <trkpt lat="43.23608" lon="5.65136">
        <ele>420.9765625</ele>
        <time>2018-03-25T07:42:34Z</time>
      </trkpt>
      <trkpt lat="43.23608" lon="5.65138">
        <ele>421</ele>
        <time>2018-03-25T07:42:35Z</time>
      </trkpt>
      <trkpt lat="43.23608" lon="5.65139">
        <ele>421.06640625</ele>
        <time>2018-03-25T07:42:36Z</time>
      </trkpt>
      <trkpt lat="43.23609" lon="5.65141">
        <ele>421.19140625</ele>
        <time>2018-03-25T07:42:37Z</time>
      </trkpt>
      <trkpt lat="43.23609" lon="5.65143">
        <ele>421.296875</ele>
        <time>2018-03-25T07:42:38Z</time>
      </trkpt>
      <trkpt lat="43.2361" lon="5.65144">
        <ele>421.45703125</ele>
        <time>2018-03-25T07:42:39Z</time>
      </trkpt>
      <trkpt lat="43.2361" lon="5.65146">
        <ele>421.515625</ele>
        <time>2018-03-25T07:42:40Z</time>
      </trkpt>
      <trkpt lat="43.23613" lon="5.6517">
        <ele>422.390625</ele>
        <time>2018-03-25T07:42:54Z</time>
      </trkpt>
      <trkpt lat="43.23614" lon="5.65171">
        <ele>422.51171875</ele>
        <time>2018-03-25T07:42:55Z</time>
      </trkpt>
      <trkpt lat="43.23614" lon="5.65173">
        <ele>422.53515625</ele>
        <time>2018-03-25T07:42:56Z</time>
      </trkpt>
      <trkpt lat="43.23613" lon="5.65182">
        <ele>422.44921875</ele>
        <time>2018-03-25T07:43:01Z</time>
      </trkpt>
      <trkpt lat="43.23614" lon="5.65184">
        <ele>422.48046875</ele>
        <time>2018-03-25T07:43:02Z</time>
      </trkpt>
      <trkpt lat="43.23614" lon="5.65186">
        <ele>422.55078125</ele>
        <time>2018-03-25T07:43:03Z</time>
      </trkpt>
      <trkpt lat="43.23614" lon="5.65187">
        <ele>422.6328125</ele>
        <time>2018-03-25T07:43:04Z</time>
      </trkpt>
      <trkpt lat="43.23614" lon="5.65189">
        <ele>422.68359375</ele>
        <time>2018-03-25T07:43:05Z</time>
      </trkpt>
      <trkpt lat="43.23614" lon="5.65191">
        <ele>422.71875</ele>
        <time>2018-03-25T07:43:06Z</time>
      </trkpt>
      <trkpt lat="43.23616" lon="5.65201">
        <ele>423.07421875</ele>
        <time>2018-03-25T07:43:12Z</time>
      </trkpt>
      <trkpt lat="43.23616" lon="5.65203">
        <ele>423.140625</ele>
        <time>2018-03-25T07:43:13Z</time>
      </trkpt>
      <trkpt lat="43.23617" lon="5.65205">
        <ele>423.2109375</ele>
        <time>2018-03-25T07:43:14Z</time>
      </trkpt>
      <trkpt lat="43.23617" lon="5.65207">
        <ele>423.2890625</ele>
        <time>2018-03-25T07:43:15Z</time>
      </trkpt>
      <trkpt lat="43.23617" lon="5.65209">
        <ele>423.34375</ele>
        <time>2018-03-25T07:43:16Z</time>
      </trkpt>
      <trkpt lat="43.23618" lon="5.65211">
        <ele>423.42578125</ele>
        <time>2018-03-25T07:43:17Z</time>
      </trkpt>
      <trkpt lat="43.2362" lon="5.65237">
        <ele>424.67578125</ele>
        <time>2018-03-25T07:43:31Z</time>
      </trkpt>
      <trkpt lat="43.2362" lon="5.65239">
        <ele>424.80078125</ele>
        <time>2018-03-25T07:43:32Z</time>
      </trkpt>
      <trkpt lat="43.23621" lon="5.65242">
        <ele>425.01171875</ele>
        <time>2018-03-25T07:43:34Z</time>
      </trkpt>
      <trkpt lat="43.23621" lon="5.65244">
        <ele>425.078125</ele>
        <time>2018-03-25T07:43:35Z</time>
      </trkpt>
      <trkpt lat="43.23622" lon="5.65271">
        <ele>426.28515625</ele>
        <time>2018-03-25T07:43:49Z</time>
      </trkpt>
      <trkpt lat="43.23622" lon="5.65273">
        <ele>426.2578125</ele>
        <time>2018-03-25T07:43:50Z</time>
      </trkpt>
      <trkpt lat="43.23622" lon="5.65275">
        <ele>426.3671875</ele>
        <time>2018-03-25T07:43:51Z</time>
      </trkpt>
      <trkpt lat="43.23622" lon="5.65276">
        <ele>426.484375</ele>
        <time>2018-03-25T07:43:52Z</time>
      </trkpt>
      <trkpt lat="43.23622" lon="5.65278">
        <ele>426.53125</ele>
        <time>2018-03-25T07:43:53Z</time>
      </trkpt>
      <trkpt lat="43.23623" lon="5.65293">
        <ele>427.0625</ele>
        <time>2018-03-25T07:44:00Z</time>
      </trkpt>
      <trkpt lat="43.23623" lon="5.65294">
        <ele>427.12109375</ele>
        <time>2018-03-25T07:44:01Z</time>
      </trkpt>
      <trkpt lat="43.23624" lon="5.65296">
        <ele>427.1796875</ele>
        <time>2018-03-25T07:44:02Z</time>
      </trkpt>
      <trkpt lat="43.23624" lon="5.65298">
        <ele>427.25390625</ele>
        <time>2018-03-25T07:44:03Z</time>
      </trkpt>
      <trkpt lat="43.23624" lon="5.65301">
        <ele>427.328125</ele>
        <time>2018-03-25T07:44:04Z</time>
      </trkpt>
      <trkpt lat="43.23624" lon="5.65303">
        <ele>427.40625</ele>
        <time>2018-03-25T07:44:05Z</time>
      </trkpt>
      <trkpt lat="43.23624" lon="5.65307">
        <ele>427.58203125</ele>
        <time>2018-03-25T07:44:07Z</time>
      </trkpt>
      <trkpt lat="43.23624" lon="5.65309">
        <ele>427.61328125</ele>
        <time>2018-03-25T07:44:08Z</time>
      </trkpt>
      <trkpt lat="43.23624" lon="5.65312">
        <ele>427.6640625</ele>
        <time>2018-03-25T07:44:09Z</time>
      </trkpt>
      <trkpt lat="43.23624" lon="5.65314">
        <ele>427.72265625</ele>
        <time>2018-03-25T07:44:10Z</time>
      </trkpt>
      <trkpt lat="43.23624" lon="5.65316">
        <ele>427.7890625</ele>
        <time>2018-03-25T07:44:11Z</time>
      </trkpt>
      <trkpt lat="43.23624" lon="5.65318">
        <ele>427.84765625</ele>
        <time>2018-03-25T07:44:12Z</time>
      </trkpt>
      <trkpt lat="43.23625" lon="5.65326">
        <ele>428.0625</ele>
        <time>2018-03-25T07:44:16Z</time>
      </trkpt>
      <trkpt lat="43.23626" lon="5.65329">
        <ele>428.09375</ele>
        <time>2018-03-25T07:44:17Z</time>
      </trkpt>
      <trkpt lat="43.23629" lon="5.65362">
        <ele>428.0546875</ele>
        <time>2018-03-25T07:44:31Z</time>
      </trkpt>
      <trkpt lat="43.23647" lon="5.65387">
        <ele>428.5</ele>
        <time>2018-03-25T07:44:44Z</time>
      </trkpt>
      <trkpt lat="43.23666" lon="5.65395">
        <ele>429.09765625</ele>
        <time>2018-03-25T07:44:57Z</time>
      </trkpt>
      <trkpt lat="43.23684" lon="5.65397">
        <ele>429.30078125</ele>
        <time>2018-03-25T07:45:08Z</time>
      </trkpt>
      <trkpt lat="43.23692" lon="5.65395">
        <ele>429.37890625</ele>
        <time>2018-03-25T07:45:13Z</time>
      </trkpt>
      <trkpt lat="43.23693" lon="5.65394">
        <ele>429.4140625</ele>
        <time>2018-03-25T07:45:14Z</time>
      </trkpt>
      <trkpt lat="43.23695" lon="5.65393">
        <ele>429.4609375</ele>
        <time>2018-03-25T07:45:15Z</time>
      </trkpt>
      <trkpt lat="43.23696" lon="5.65391">
        <ele>429.5234375</ele>
        <time>2018-03-25T07:45:16Z</time>
      </trkpt>
      <trkpt lat="43.23696" lon="5.65389">
        <ele>429.59375</ele>
        <time>2018-03-25T07:45:17Z</time>
      </trkpt>
      <trkpt lat="43.23697" lon="5.65387">
        <ele>429.6640625</ele>
        <time>2018-03-25T07:45:18Z</time>
      </trkpt>
      <trkpt lat="43.23698" lon="5.65385">
        <ele>429.73828125</ele>
        <time>2018-03-25T07:45:19Z</time>
      </trkpt>
      <trkpt lat="43.23699" lon="5.65383">
        <ele>429.828125</ele>
        <time>2018-03-25T07:45:20Z</time>
      </trkpt>
      <trkpt lat="43.23699" lon="5.6538">
        <ele>429.91796875</ele>
        <time>2018-03-25T07:45:21Z</time>
      </trkpt>
      <trkpt lat="43.237" lon="5.65377">
        <ele>429.99609375</ele>
        <time>2018-03-25T07:45:22Z</time>
      </trkpt>
      <trkpt lat="43.237" lon="5.65375">
        <ele>430.14453125</ele>
        <time>2018-03-25T07:45:23Z</time>
      </trkpt>
      <trkpt lat="43.237" lon="5.65373">
        <ele>430.30078125</ele>
        <time>2018-03-25T07:45:24Z</time>
      </trkpt>
      <trkpt lat="43.23701" lon="5.65371">
        <ele>430.4453125</ele>
        <time>2018-03-25T07:45:25Z</time>
      </trkpt>
      <trkpt lat="43.23708" lon="5.65341">
        <ele>432.08203125</ele>
        <time>2018-03-25T07:45:38Z</time>
      </trkpt>
      <trkpt lat="43.23711" lon="5.65325">
        <ele>432.8359375</ele>
        <time>2018-03-25T07:45:45Z</time>
      </trkpt>
      <trkpt lat="43.23712" lon="5.65321">
        <ele>433.02734375</ele>
        <time>2018-03-25T07:45:47Z</time>
      </trkpt>
      <trkpt lat="43.23712" lon="5.6532">
        <ele>433.09765625</ele>
        <time>2018-03-25T07:45:48Z</time>
      </trkpt>
      <trkpt lat="43.23712" lon="5.65317">
        <ele>433.17578125</ele>
        <time>2018-03-25T07:45:49Z</time>
      </trkpt>
      <trkpt lat="43.23713" lon="5.65315">
        <ele>433.25390625</ele>
        <time>2018-03-25T07:45:50Z</time>
      </trkpt>
      <trkpt lat="43.23713" lon="5.65313">
        <ele>433.32421875</ele>
        <time>2018-03-25T07:45:51Z</time>
      </trkpt>
      <trkpt lat="43.23714" lon="5.65311">
        <ele>433.40234375</ele>
        <time>2018-03-25T07:45:52Z</time>
      </trkpt>
      <trkpt lat="43.23723" lon="5.65282">
        <ele>434.45703125</ele>
        <time>2018-03-25T07:46:06Z</time>
      </trkpt>
      <trkpt lat="43.23729" lon="5.65247">
        <ele>435.55078125</ele>
        <time>2018-03-25T07:46:22Z</time>
      </trkpt>
      <trkpt lat="43.23737" lon="5.65224">
        <ele>435.7734375</ele>
        <time>2018-03-25T07:46:33Z</time>
      </trkpt>
      <trkpt lat="43.23738" lon="5.65222">
        <ele>435.80078125</ele>
        <time>2018-03-25T07:46:34Z</time>
      </trkpt>
      <trkpt lat="43.23739" lon="5.65219">
        <ele>435.83203125</ele>
        <time>2018-03-25T07:46:35Z</time>
      </trkpt>
      <trkpt lat="43.23739" lon="5.65217">
        <ele>435.87109375</ele>
        <time>2018-03-25T07:46:36Z</time>
      </trkpt>
      <trkpt lat="43.2374" lon="5.65215">
        <ele>435.88671875</ele>
        <time>2018-03-25T07:46:37Z</time>
      </trkpt>
      <trkpt lat="43.23754" lon="5.65184">
        <ele>437.00390625</ele>
        <time>2018-03-25T07:46:52Z</time>
      </trkpt>
      <trkpt lat="43.23765" lon="5.65146">
        <ele>439.359375</ele>
        <time>2018-03-25T07:47:07Z</time>
      </trkpt>
      <trkpt lat="43.23775" lon="5.65109">
        <ele>440.69921875</ele>
        <time>2018-03-25T07:47:20Z</time>
      </trkpt>
      <trkpt lat="43.23786" lon="5.65078">
        <ele>441.95703125</ele>
        <time>2018-03-25T07:47:31Z</time>
      </trkpt>
      <trkpt lat="43.23797" lon="5.65048">
        <ele>443.85546875</ele>
        <time>2018-03-25T07:47:42Z</time>
      </trkpt>
      <trkpt lat="43.23794" lon="5.65013">
        <ele>445.4921875</ele>
        <time>2018-03-25T07:47:54Z</time>
      </trkpt>
      <trkpt lat="43.23794" lon="5.6501">
        <ele>445.7421875</ele>
        <time>2018-03-25T07:47:55Z</time>
      </trkpt>
      <trkpt lat="43.23794" lon="5.65007">
        <ele>445.9453125</ele>
        <time>2018-03-25T07:47:56Z</time>
      </trkpt>
      <trkpt lat="43.23796" lon="5.64987">
        <ele>447.69140625</ele>
        <time>2018-03-25T07:48:04Z</time>
      </trkpt>
      <trkpt lat="43.23796" lon="5.64984">
        <ele>447.98046875</ele>
        <time>2018-03-25T07:48:05Z</time>
      </trkpt>
      <trkpt lat="43.23796" lon="5.64981">
        <ele>448.2421875</ele>
        <time>2018-03-25T07:48:06Z</time>
      </trkpt>
      <trkpt lat="43.238" lon="5.64948">
        <ele>450.90234375</ele>
        <time>2018-03-25T07:48:19Z</time>
      </trkpt>
      <trkpt lat="43.23807" lon="5.64917">
        <ele>453.05078125</ele>
        <time>2018-03-25T07:48:35Z</time>
      </trkpt>
      <trkpt lat="43.2382" lon="5.64888">
        <ele>455.6796875</ele>
        <time>2018-03-25T07:48:50Z</time>
      </trkpt>
      <trkpt lat="43.23825" lon="5.64854">
        <ele>457.875</ele>
        <time>2018-03-25T07:49:04Z</time>
      </trkpt>
      <trkpt lat="43.2383" lon="5.64819">
        <ele>459.5625</ele>
        <time>2018-03-25T07:49:16Z</time>
      </trkpt>
      <trkpt lat="43.2384" lon="5.64781">
        <ele>461.83984375</ele>
        <time>2018-03-25T07:49:30Z</time>
      </trkpt>
      <trkpt lat="43.23855" lon="5.64755">
        <ele>464.74609375</ele>
        <time>2018-03-25T07:49:44Z</time>
      </trkpt>
      <trkpt lat="43.23864" lon="5.64735">
        <ele>466.73046875</ele>
        <time>2018-03-25T07:49:56Z</time>
      </trkpt>
      <trkpt lat="43.23882" lon="5.64712">
        <ele>469.88671875</ele>
        <time>2018-03-25T07:50:11Z</time>
      </trkpt>
      <trkpt lat="43.23894" lon="5.64697">
        <ele>471.64453125</ele>
        <time>2018-03-25T07:50:23Z</time>
      </trkpt>
      <trkpt lat="43.23911" lon="5.6468">
        <ele>473.76171875</ele>
        <time>2018-03-25T07:50:36Z</time>
      </trkpt>
      <trkpt lat="43.2393" lon="5.64656">
        <ele>476.2109375</ele>
        <time>2018-03-25T07:50:50Z</time>
      </trkpt>
      <trkpt lat="43.23931" lon="5.64654">
        <ele>476.2890625</ele>
        <time>2018-03-25T07:50:51Z</time>
      </trkpt>
      <trkpt lat="43.23947" lon="5.64635">
        <ele>478.95703125</ele>
        <time>2018-03-25T07:51:03Z</time>
      </trkpt>
      <trkpt lat="43.23967" lon="5.64613">
        <ele>480.76953125</ele>
        <time>2018-03-25T07:51:18Z</time>
      </trkpt>
      <trkpt lat="43.23982" lon="5.64594">
        <ele>483.20703125</ele>
        <time>2018-03-25T07:51:32Z</time>
      </trkpt>
      <trkpt lat="43.23996" lon="5.64577">
        <ele>486.1484375</ele>
        <time>2018-03-25T07:51:46Z</time>
      </trkpt>
      <trkpt lat="43.23997" lon="5.64576">
        <ele>486.265625</ele>
        <time>2018-03-25T07:51:47Z</time>
      </trkpt>
      <trkpt lat="43.23998" lon="5.64575">
        <ele>486.375</ele>
        <time>2018-03-25T07:51:48Z</time>
      </trkpt>
      <trkpt lat="43.24006" lon="5.6456">
        <ele>487.609375</ele>
        <time>2018-03-25T07:52:00Z</time>
      </trkpt>
      <trkpt lat="43.24013" lon="5.6454">
        <ele>488.5234375</ele>
        <time>2018-03-25T07:52:13Z</time>
      </trkpt>
      <trkpt lat="43.24016" lon="5.64529">
        <ele>489.1875</ele>
        <time>2018-03-25T07:52:20Z</time>
      </trkpt>
      <trkpt lat="43.24006" lon="5.64499">
        <ele>486.46484375</ele>
        <time>2018-03-25T07:52:35Z</time>
      </trkpt>
      <trkpt lat="43.23995" lon="5.64484">
        <ele>484.05859375</ele>
        <time>2018-03-25T07:52:44Z</time>
      </trkpt>
      <trkpt lat="43.23994" lon="5.64483">
        <ele>484.015625</ele>
        <time>2018-03-25T07:52:45Z</time>
      </trkpt>
      <trkpt lat="43.23983" lon="5.64451">
        <ele>484.66015625</ele>
        <time>2018-03-25T07:53:00Z</time>
      </trkpt>
      <trkpt lat="43.2398" lon="5.64423">
        <ele>486.7265625</ele>
        <time>2018-03-25T07:53:13Z</time>
      </trkpt>
      <trkpt lat="43.23979" lon="5.64406">
        <ele>488.296875</ele>
        <time>2018-03-25T07:53:24Z</time>
      </trkpt>
      <trkpt lat="43.23981" lon="5.644">
        <ele>488.25</ele>
        <time>2018-03-25T07:53:28Z</time>
      </trkpt>
      <trkpt lat="43.23982" lon="5.64397">
        <ele>488.2578125</ele>
        <time>2018-03-25T07:53:41Z</time>
      </trkpt>
      <trkpt lat="43.23979" lon="5.64396">
        <ele>487.90625</ele>
        <time>2018-03-25T07:54:07Z</time>
      </trkpt>
      <trkpt lat="43.23979" lon="5.64397">
        <ele>487.9453125</ele>
        <time>2018-03-25T07:54:12Z</time>
      </trkpt>
      <trkpt lat="43.23978" lon="5.644">
        <ele>487.91015625</ele>
        <time>2018-03-25T07:54:42Z</time>
      </trkpt>
      <trkpt lat="43.23981" lon="5.64398">
        <ele>488.16015625</ele>
        <time>2018-03-25T07:54:57Z</time>
      </trkpt>
      <trkpt lat="43.2398" lon="5.64392">
        <ele>487.8671875</ele>
        <time>2018-03-25T07:55:03Z</time>
      </trkpt>
      <trkpt lat="43.2398" lon="5.64391">
        <ele>487.79296875</ele>
        <time>2018-03-25T07:55:04Z</time>
      </trkpt>
      <trkpt lat="43.2398" lon="5.64389">
        <ele>487.7109375</ele>
        <time>2018-03-25T07:55:05Z</time>
      </trkpt>
      <trkpt lat="43.2398" lon="5.64387">
        <ele>487.625</ele>
        <time>2018-03-25T07:55:06Z</time>
      </trkpt>
      <trkpt lat="43.23979" lon="5.64385">
        <ele>487.52734375</ele>
        <time>2018-03-25T07:55:07Z</time>
      </trkpt>
      <trkpt lat="43.23979" lon="5.64382">
        <ele>487.3984375</ele>
        <time>2018-03-25T07:55:08Z</time>
      </trkpt>
      <trkpt lat="43.23979" lon="5.6438">
        <ele>487.26953125</ele>
        <time>2018-03-25T07:55:09Z</time>
      </trkpt>
      <trkpt lat="43.23978" lon="5.64378">
        <ele>487.1875</ele>
        <time>2018-03-25T07:55:10Z</time>
      </trkpt>
      <trkpt lat="43.23978" lon="5.64375">
        <ele>487.171875</ele>
        <time>2018-03-25T07:55:11Z</time>
      </trkpt>
      <trkpt lat="43.23982" lon="5.64334">
        <ele>485.74609375</ele>
        <time>2018-03-25T07:55:22Z</time>
      </trkpt>
      <trkpt lat="43.23975" lon="5.64275">
        <ele>480.76171875</ele>
        <time>2018-03-25T07:55:30Z</time>
      </trkpt>
      <trkpt lat="43.23961" lon="5.64185">
        <ele>477.35546875</ele>
        <time>2018-03-25T07:55:40Z</time>
      </trkpt>
      <trkpt lat="43.23962" lon="5.64176">
        <ele>477.23046875</ele>
        <time>2018-03-25T07:55:41Z</time>
      </trkpt>
      <trkpt lat="43.23989" lon="5.64107">
        <ele>477.9765625</ele>
        <time>2018-03-25T07:55:53Z</time>
      </trkpt>
      <trkpt lat="43.24001" lon="5.64071">
        <ele>481.5390625</ele>
        <time>2018-03-25T07:56:04Z</time>
      </trkpt>
      <trkpt lat="43.24014" lon="5.64044">
        <ele>484.0859375</ele>
        <time>2018-03-25T07:56:17Z</time>
      </trkpt>
      <trkpt lat="43.24014" lon="5.64042">
        <ele>484.2734375</ele>
        <time>2018-03-25T07:56:18Z</time>
      </trkpt>
      <trkpt lat="43.24015" lon="5.6404">
        <ele>484.46875</ele>
        <time>2018-03-25T07:56:19Z</time>
      </trkpt>
      <trkpt lat="43.24016" lon="5.64038">
        <ele>484.65234375</ele>
        <time>2018-03-25T07:56:20Z</time>
      </trkpt>
      <trkpt lat="43.24016" lon="5.64036">
        <ele>484.828125</ele>
        <time>2018-03-25T07:56:21Z</time>
      </trkpt>
      <trkpt lat="43.24017" lon="5.64034">
        <ele>485.015625</ele>
        <time>2018-03-25T07:56:22Z</time>
      </trkpt>
      <trkpt lat="43.24021" lon="5.64026">
        <ele>485.77734375</ele>
        <time>2018-03-25T07:56:26Z</time>
      </trkpt>
      <trkpt lat="43.24021" lon="5.64023">
        <ele>486.0859375</ele>
        <time>2018-03-25T07:56:27Z</time>
      </trkpt>
      <trkpt lat="43.24021" lon="5.64014">
        <ele>487.0703125</ele>
        <time>2018-03-25T07:56:31Z</time>
      </trkpt>
      <trkpt lat="43.24022" lon="5.64012">
        <ele>487.16796875</ele>
        <time>2018-03-25T07:56:32Z</time>
      </trkpt>
      <trkpt lat="43.24022" lon="5.6401">
        <ele>487.3203125</ele>
        <time>2018-03-25T07:56:33Z</time>
      </trkpt>
      <trkpt lat="43.24022" lon="5.64009">
        <ele>487.46484375</ele>
        <time>2018-03-25T07:56:34Z</time>
      </trkpt>
      <trkpt lat="43.24022" lon="5.64006">
        <ele>487.64453125</ele>
        <time>2018-03-25T07:56:35Z</time>
      </trkpt>
      <trkpt lat="43.24023" lon="5.63998">
        <ele>488.26953125</ele>
        <time>2018-03-25T07:56:39Z</time>
      </trkpt>
      <trkpt lat="43.24023" lon="5.63997">
        <ele>488.38671875</ele>
        <time>2018-03-25T07:56:40Z</time>
      </trkpt>
      <trkpt lat="43.24025" lon="5.63988">
        <ele>488.90625</ele>
        <time>2018-03-25T07:56:44Z</time>
      </trkpt>
      <trkpt lat="43.24026" lon="5.63967">
        <ele>490.95703125</ele>
        <time>2018-03-25T07:56:56Z</time>
      </trkpt>
      <trkpt lat="43.24027" lon="5.63965">
        <ele>491.05859375</ele>
        <time>2018-03-25T07:56:57Z</time>
      </trkpt>
      <trkpt lat="43.24027" lon="5.63964">
        <ele>491.1875</ele>
        <time>2018-03-25T07:56:58Z</time>
      </trkpt>
      <trkpt lat="43.24032" lon="5.63949">
        <ele>491.93359375</ele>
        <time>2018-03-25T07:57:07Z</time>
      </trkpt>
      <trkpt lat="43.24032" lon="5.63947">
        <ele>492.03125</ele>
        <time>2018-03-25T07:57:08Z</time>
      </trkpt>
      <trkpt lat="43.24033" lon="5.63946">
        <ele>492.1328125</ele>
        <time>2018-03-25T07:57:09Z</time>
      </trkpt>
      <trkpt lat="43.24034" lon="5.63942">
        <ele>492.32421875</ele>
        <time>2018-03-25T07:57:11Z</time>
      </trkpt>
      <trkpt lat="43.24034" lon="5.6394">
        <ele>492.46875</ele>
        <time>2018-03-25T07:57:12Z</time>
      </trkpt>
      <trkpt lat="43.24034" lon="5.63938">
        <ele>492.5859375</ele>
        <time>2018-03-25T07:57:13Z</time>
      </trkpt>
      <trkpt lat="43.24035" lon="5.63936">
        <ele>492.68359375</ele>
        <time>2018-03-25T07:57:14Z</time>
      </trkpt>
      <trkpt lat="43.24035" lon="5.63934">
        <ele>492.796875</ele>
        <time>2018-03-25T07:57:15Z</time>
      </trkpt>
      <trkpt lat="43.24035" lon="5.63932">
        <ele>493.01171875</ele>
        <time>2018-03-25T07:57:16Z</time>
      </trkpt>
      <trkpt lat="43.24035" lon="5.6393">
        <ele>493.26171875</ele>
        <time>2018-03-25T07:57:17Z</time>
      </trkpt>
      <trkpt lat="43.24035" lon="5.63928">
        <ele>493.52734375</ele>
        <time>2018-03-25T07:57:18Z</time>
      </trkpt>
      <trkpt lat="43.24035" lon="5.63926">
        <ele>493.71484375</ele>
        <time>2018-03-25T07:57:19Z</time>
      </trkpt>
      <trkpt lat="43.24037" lon="5.63895">
        <ele>496.5390625</ele>
        <time>2018-03-25T07:57:36Z</time>
      </trkpt>
      <trkpt lat="43.24039" lon="5.63869">
        <ele>498.5546875</ele>
        <time>2018-03-25T07:57:51Z</time>
      </trkpt>
      <trkpt lat="43.2404" lon="5.63855">
        <ele>499.6953125</ele>
        <time>2018-03-25T07:57:59Z</time>
      </trkpt>
      <trkpt lat="43.2404" lon="5.63853">
        <ele>499.83984375</ele>
        <time>2018-03-25T07:58:00Z</time>
      </trkpt>
      <trkpt lat="43.2404" lon="5.63851">
        <ele>499.99609375</ele>
        <time>2018-03-25T07:58:01Z</time>
      </trkpt>
      <trkpt lat="43.24047" lon="5.63821">
        <ele>502.2265625</ele>
        <time>2018-03-25T07:58:18Z</time>
      </trkpt>
      <trkpt lat="43.2405" lon="5.6381">
        <ele>503.234375</ele>
        <time>2018-03-25T07:58:25Z</time>
      </trkpt>
      <trkpt lat="43.24062" lon="5.63781">
        <ele>506.0625</ele>
        <time>2018-03-25T07:58:43Z</time>
      </trkpt>
      <trkpt lat="43.24073" lon="5.63759">
        <ele>507.4453125</ele>
        <time>2018-03-25T07:58:57Z</time>
      </trkpt>
      <trkpt lat="43.24086" lon="5.63742">
        <ele>508.77734375</ele>
        <time>2018-03-25T07:59:10Z</time>
      </trkpt>
      <trkpt lat="43.2409" lon="5.63739">
        <ele>509.09765625</ele>
        <time>2018-03-25T07:59:13Z</time>
      </trkpt>
      <trkpt lat="43.24091" lon="5.63739">
        <ele>509.17578125</ele>
        <time>2018-03-25T07:59:14Z</time>
      </trkpt>
      <trkpt lat="43.24093" lon="5.63738">
        <ele>509.25390625</ele>
        <time>2018-03-25T07:59:15Z</time>
      </trkpt>
      <trkpt lat="43.24111" lon="5.63726">
        <ele>510.30859375</ele>
        <time>2018-03-25T07:59:30Z</time>
      </trkpt>
      <trkpt lat="43.24124" lon="5.63718">
        <ele>510.71484375</ele>
        <time>2018-03-25T07:59:42Z</time>
      </trkpt>
      <trkpt lat="43.24125" lon="5.63717">
        <ele>510.75390625</ele>
        <time>2018-03-25T07:59:43Z</time>
      </trkpt>
      <trkpt lat="43.24126" lon="5.63716">
        <ele>510.80859375</ele>
        <time>2018-03-25T07:59:44Z</time>
      </trkpt>
      <trkpt lat="43.24127" lon="5.63715">
        <ele>510.85546875</ele>
        <time>2018-03-25T07:59:45Z</time>
      </trkpt>
      <trkpt lat="43.24148" lon="5.63698">
        <ele>511.3359375</ele>
        <time>2018-03-25T08:00:01Z</time>
      </trkpt>
      <trkpt lat="43.2415" lon="5.63696">
        <ele>511.359375</ele>
        <time>2018-03-25T08:00:02Z</time>
      </trkpt>
      <trkpt lat="43.24151" lon="5.63695">
        <ele>511.4140625</ele>
        <time>2018-03-25T08:00:03Z</time>
      </trkpt>
      <trkpt lat="43.24153" lon="5.63693">
        <ele>511.4765625</ele>
        <time>2018-03-25T08:00:04Z</time>
      </trkpt>
      <trkpt lat="43.24154" lon="5.63691">
        <ele>511.5390625</ele>
        <time>2018-03-25T08:00:05Z</time>
      </trkpt>
      <trkpt lat="43.24156" lon="5.6369">
        <ele>511.63671875</ele>
        <time>2018-03-25T08:00:06Z</time>
      </trkpt>
      <trkpt lat="43.24158" lon="5.63688">
        <ele>511.7578125</ele>
        <time>2018-03-25T08:00:07Z</time>
      </trkpt>
      <trkpt lat="43.24159" lon="5.63686">
        <ele>511.87890625</ele>
        <time>2018-03-25T08:00:08Z</time>
      </trkpt>
      <trkpt lat="43.24183" lon="5.63656">
        <ele>513.02734375</ele>
        <time>2018-03-25T08:00:22Z</time>
      </trkpt>
      <trkpt lat="43.24213" lon="5.63638">
        <ele>514.171875</ele>
        <time>2018-03-25T08:00:34Z</time>
      </trkpt>
      <trkpt lat="43.24247" lon="5.63614">
        <ele>516.46484375</ele>
        <time>2018-03-25T08:00:48Z</time>
      </trkpt>
      <trkpt lat="43.24274" lon="5.6359">
        <ele>517.96484375</ele>
        <time>2018-03-25T08:01:00Z</time>
      </trkpt>
      <trkpt lat="43.24294" lon="5.63571">
        <ele>517.8203125</ele>
        <time>2018-03-25T08:01:11Z</time>
      </trkpt>
      <trkpt lat="43.24304" lon="5.63559">
        <ele>517.1875</ele>
        <time>2018-03-25T08:01:22Z</time>
      </trkpt>
      <trkpt lat="43.24306" lon="5.63558">
        <ele>516.99609375</ele>
        <time>2018-03-25T08:01:38Z</time>
      </trkpt>
      <trkpt lat="43.24317" lon="5.63544">
        <ele>515.24609375</ele>
        <time>2018-03-25T08:01:54Z</time>
      </trkpt>
      <trkpt lat="43.2433" lon="5.63524">
        <ele>512.1171875</ele>
        <time>2018-03-25T08:01:58Z</time>
      </trkpt>
      <trkpt lat="43.24333" lon="5.63518">
        <ele>511.60546875</ele>
        <time>2018-03-25T08:01:59Z</time>
      </trkpt>
      <trkpt lat="43.24335" lon="5.63512">
        <ele>510.9765625</ele>
        <time>2018-03-25T08:02:00Z</time>
      </trkpt>
      <trkpt lat="43.24335" lon="5.63506">
        <ele>510.51953125</ele>
        <time>2018-03-25T08:02:01Z</time>
      </trkpt>
      <trkpt lat="43.24335" lon="5.635">
        <ele>510.06640625</ele>
        <time>2018-03-25T08:02:02Z</time>
      </trkpt>
      <trkpt lat="43.24335" lon="5.63494">
        <ele>509.55078125</ele>
        <time>2018-03-25T08:02:03Z</time>
      </trkpt>
      <trkpt lat="43.24335" lon="5.63488">
        <ele>508.95703125</ele>
        <time>2018-03-25T08:02:04Z</time>
      </trkpt>
      <trkpt lat="43.24335" lon="5.63482">
        <ele>508.1953125</ele>
        <time>2018-03-25T08:02:05Z</time>
      </trkpt>
      <trkpt lat="43.24333" lon="5.63475">
        <ele>507.26953125</ele>
        <time>2018-03-25T08:02:06Z</time>
      </trkpt>
      <trkpt lat="43.24332" lon="5.63466">
        <ele>506.10546875</ele>
        <time>2018-03-25T08:02:07Z</time>
      </trkpt>
      <trkpt lat="43.24329" lon="5.63456">
        <ele>504.8359375</ele>
        <time>2018-03-25T08:02:08Z</time>
      </trkpt>
      <trkpt lat="43.24325" lon="5.63448">
        <ele>503.75</ele>
        <time>2018-03-25T08:02:09Z</time>
      </trkpt>
      <trkpt lat="43.2432" lon="5.6344">
        <ele>502.77734375</ele>
        <time>2018-03-25T08:02:10Z</time>
      </trkpt>
      <trkpt lat="43.24317" lon="5.63431">
        <ele>501.6015625</ele>
        <time>2018-03-25T08:02:11Z</time>
      </trkpt>
      <trkpt lat="43.24314" lon="5.63422">
        <ele>500.16015625</ele>
        <time>2018-03-25T08:02:12Z</time>
      </trkpt>
      <trkpt lat="43.24312" lon="5.63411">
        <ele>498.51953125</ele>
        <time>2018-03-25T08:02:13Z</time>
      </trkpt>
      <trkpt lat="43.2431" lon="5.63401">
        <ele>496.8203125</ele>
        <time>2018-03-25T08:02:14Z</time>
      </trkpt>
      <trkpt lat="43.24302" lon="5.63364">
        <ele>491.92578125</ele>
        <time>2018-03-25T08:02:17Z</time>
      </trkpt>
      <trkpt lat="43.24301" lon="5.63351">
        <ele>490.12890625</ele>
        <time>2018-03-25T08:02:18Z</time>
      </trkpt>
      <trkpt lat="43.24299" lon="5.6331">
        <ele>486.84765625</ele>
        <time>2018-03-25T08:02:21Z</time>
      </trkpt>
      <trkpt lat="43.24298" lon="5.63297">
        <ele>486.24609375</ele>
        <time>2018-03-25T08:02:22Z</time>
      </trkpt>
      <trkpt lat="43.24295" lon="5.63284">
        <ele>486.4140625</ele>
        <time>2018-03-25T08:02:23Z</time>
      </trkpt>
      <trkpt lat="43.24284" lon="5.63247">
        <ele>487.03515625</ele>
        <time>2018-03-25T08:02:26Z</time>
      </trkpt>
      <trkpt lat="43.24268" lon="5.63209">
        <ele>485.35546875</ele>
        <time>2018-03-25T08:02:29Z</time>
      </trkpt>
      <trkpt lat="43.24254" lon="5.63158">
        <ele>482.05859375</ele>
        <time>2018-03-25T08:02:33Z</time>
      </trkpt>
      <trkpt lat="43.24243" lon="5.63107">
        <ele>477.12890625</ele>
        <time>2018-03-25T08:02:37Z</time>
      </trkpt>
      <trkpt lat="43.24236" lon="5.63067">
        <ele>472.546875</ele>
        <time>2018-03-25T08:02:40Z</time>
      </trkpt>
      <trkpt lat="43.24235" lon="5.63045">
        <ele>470.30078125</ele>
        <time>2018-03-25T08:02:42Z</time>
      </trkpt>
      <trkpt lat="43.24235" lon="5.63036">
        <ele>469.58203125</ele>
        <time>2018-03-25T08:02:43Z</time>
      </trkpt>
      <trkpt lat="43.24236" lon="5.63019">
        <ele>467.98046875</ele>
        <time>2018-03-25T08:02:45Z</time>
      </trkpt>
      <trkpt lat="43.24244" lon="5.62983">
        <ele>464.46875</ele>
        <time>2018-03-25T08:02:49Z</time>
      </trkpt>
      <trkpt lat="43.24248" lon="5.62974">
        <ele>463.4140625</ele>
        <time>2018-03-25T08:02:50Z</time>
      </trkpt>
      <trkpt lat="43.24256" lon="5.62957">
        <ele>461.08984375</ele>
        <time>2018-03-25T08:02:52Z</time>
      </trkpt>
      <trkpt lat="43.24259" lon="5.62946">
        <ele>459.44921875</ele>
        <time>2018-03-25T08:02:53Z</time>
      </trkpt>
      <trkpt lat="43.24261" lon="5.62934">
        <ele>457.99609375</ele>
        <time>2018-03-25T08:02:54Z</time>
      </trkpt>
      <trkpt lat="43.24263" lon="5.62909">
        <ele>457.08984375</ele>
        <time>2018-03-25T08:02:56Z</time>
      </trkpt>
      <trkpt lat="43.24265" lon="5.62896">
        <ele>456.796875</ele>
        <time>2018-03-25T08:02:57Z</time>
      </trkpt>
      <trkpt lat="43.24268" lon="5.62884">
        <ele>456.44921875</ele>
        <time>2018-03-25T08:02:58Z</time>
      </trkpt>
      <trkpt lat="43.24278" lon="5.62849">
        <ele>456.23828125</ele>
        <time>2018-03-25T08:03:01Z</time>
      </trkpt>
      <trkpt lat="43.24281" lon="5.62838">
        <ele>456.5078125</ele>
        <time>2018-03-25T08:03:02Z</time>
      </trkpt>
      <trkpt lat="43.24283" lon="5.62828">
        <ele>456.65625</ele>
        <time>2018-03-25T08:03:03Z</time>
      </trkpt>
      <trkpt lat="43.24282" lon="5.62818">
        <ele>456.98046875</ele>
        <time>2018-03-25T08:03:04Z</time>
      </trkpt>
      <trkpt lat="43.2428" lon="5.62809">
        <ele>457.05078125</ele>
        <time>2018-03-25T08:03:05Z</time>
      </trkpt>
      <trkpt lat="43.24277" lon="5.62801">
        <ele>457.16015625</ele>
        <time>2018-03-25T08:03:06Z</time>
      </trkpt>
      <trkpt lat="43.24274" lon="5.62796">
        <ele>457.2890625</ele>
        <time>2018-03-25T08:03:07Z</time>
      </trkpt>
      <trkpt lat="43.2427" lon="5.62791">
        <ele>457.41796875</ele>
        <time>2018-03-25T08:03:08Z</time>
      </trkpt>
      <trkpt lat="43.24267" lon="5.62788">
        <ele>457.52734375</ele>
        <time>2018-03-25T08:03:09Z</time>
      </trkpt>
      <trkpt lat="43.24265" lon="5.62785">
        <ele>457.60546875</ele>
        <time>2018-03-25T08:03:10Z</time>
      </trkpt>
      <trkpt lat="43.24263" lon="5.62783">
        <ele>457.69921875</ele>
        <time>2018-03-25T08:03:11Z</time>
      </trkpt>
      <trkpt lat="43.24241" lon="5.62748">
        <ele>458.140625</ele>
        <time>2018-03-25T08:03:22Z</time>
      </trkpt>
      <trkpt lat="43.24222" lon="5.62713">
        <ele>458.5078125</ele>
        <time>2018-03-25T08:03:31Z</time>
      </trkpt>
      <trkpt lat="43.24199" lon="5.62679">
        <ele>456.01171875</ele>
        <time>2018-03-25T08:03:37Z</time>
      </trkpt>
      <trkpt lat="43.24179" lon="5.62641">
        <ele>454.69140625</ele>
        <time>2018-03-25T08:03:42Z</time>
      </trkpt>
      <trkpt lat="43.24168" lon="5.62612">
        <ele>452.59375</ele>
        <time>2018-03-25T08:03:45Z</time>
      </trkpt>
      <trkpt lat="43.24167" lon="5.626">
        <ele>451.71484375</ele>
        <time>2018-03-25T08:03:46Z</time>
      </trkpt>
      <trkpt lat="43.24166" lon="5.62589">
        <ele>450.43359375</ele>
        <time>2018-03-25T08:03:47Z</time>
      </trkpt>
      <trkpt lat="43.24164" lon="5.62516">
        <ele>442.796875</ele>
        <time>2018-03-25T08:03:53Z</time>
      </trkpt>
      <trkpt lat="43.24164" lon="5.62505">
        <ele>441.7578125</ele>
        <time>2018-03-25T08:03:54Z</time>
      </trkpt>
      <trkpt lat="43.24165" lon="5.62494">
        <ele>440.67578125</ele>
        <time>2018-03-25T08:03:55Z</time>
      </trkpt>
      <trkpt lat="43.24167" lon="5.62483">
        <ele>439.8046875</ele>
        <time>2018-03-25T08:03:56Z</time>
      </trkpt>
      <trkpt lat="43.24169" lon="5.62474">
        <ele>439.046875</ele>
        <time>2018-03-25T08:03:57Z</time>
      </trkpt>
      <trkpt lat="43.2417" lon="5.62466">
        <ele>438.390625</ele>
        <time>2018-03-25T08:03:58Z</time>
      </trkpt>
      <trkpt lat="43.2417" lon="5.62455">
        <ele>438.14453125</ele>
        <time>2018-03-25T08:04:00Z</time>
      </trkpt>
      <trkpt lat="43.24168" lon="5.62451">
        <ele>438.41796875</ele>
        <time>2018-03-25T08:04:01Z</time>
      </trkpt>
      <trkpt lat="43.24165" lon="5.62449">
        <ele>438.8203125</ele>
        <time>2018-03-25T08:04:02Z</time>
      </trkpt>
      <trkpt lat="43.24163" lon="5.62447">
        <ele>439.1640625</ele>
        <time>2018-03-25T08:04:03Z</time>
      </trkpt>
      <trkpt lat="43.24161" lon="5.62445">
        <ele>439.45703125</ele>
        <time>2018-03-25T08:04:04Z</time>
      </trkpt>
      <trkpt lat="43.24159" lon="5.62444">
        <ele>439.73828125</ele>
        <time>2018-03-25T08:04:05Z</time>
      </trkpt>
      <trkpt lat="43.24157" lon="5.62442">
        <ele>440.0234375</ele>
        <time>2018-03-25T08:04:06Z</time>
      </trkpt>
      <trkpt lat="43.24155" lon="5.62442">
        <ele>440.359375</ele>
        <time>2018-03-25T08:04:07Z</time>
      </trkpt>
      <trkpt lat="43.24152" lon="5.62441">
        <ele>440.68359375</ele>
        <time>2018-03-25T08:04:08Z</time>
      </trkpt>
      <trkpt lat="43.2415" lon="5.62441">
        <ele>440.953125</ele>
        <time>2018-03-25T08:04:09Z</time>
      </trkpt>
      <trkpt lat="43.24149" lon="5.6244">
        <ele>441.1796875</ele>
        <time>2018-03-25T08:04:10Z</time>
      </trkpt>
      <trkpt lat="43.24148" lon="5.6244">
        <ele>441.35546875</ele>
        <time>2018-03-25T08:04:11Z</time>
      </trkpt>
      <trkpt lat="43.24146" lon="5.6244">
        <ele>441.51171875</ele>
        <time>2018-03-25T08:04:12Z</time>
      </trkpt>
      <trkpt lat="43.24145" lon="5.62439">
        <ele>441.67578125</ele>
        <time>2018-03-25T08:04:13Z</time>
      </trkpt>
      <trkpt lat="43.24126" lon="5.62444">
        <ele>441.37109375</ele>
        <time>2018-03-25T08:04:22Z</time>
      </trkpt>
      <trkpt lat="43.24121" lon="5.62447">
        <ele>441.19921875</ele>
        <time>2018-03-25T08:04:23Z</time>
      </trkpt>
      <trkpt lat="43.24112" lon="5.62453">
        <ele>440.8203125</ele>
        <time>2018-03-25T08:04:25Z</time>
      </trkpt>
      <trkpt lat="43.24107" lon="5.62458">
        <ele>440.6484375</ele>
        <time>2018-03-25T08:04:26Z</time>
      </trkpt>
      <trkpt lat="43.24103" lon="5.62463">
        <ele>440.5625</ele>
        <time>2018-03-25T08:04:27Z</time>
      </trkpt>
      <trkpt lat="43.24092" lon="5.62481">
        <ele>440.80859375</ele>
        <time>2018-03-25T08:04:32Z</time>
      </trkpt>
      <trkpt lat="43.24087" lon="5.62484">
        <ele>440.71875</ele>
        <time>2018-03-25T08:04:34Z</time>
      </trkpt>
      <trkpt lat="43.24084" lon="5.62482">
        <ele>440.4765625</ele>
        <time>2018-03-25T08:04:35Z</time>
      </trkpt>
      <trkpt lat="43.24083" lon="5.62479">
        <ele>440.21484375</ele>
        <time>2018-03-25T08:04:36Z</time>
      </trkpt>
      <trkpt lat="43.24081" lon="5.62475">
        <ele>439.97265625</ele>
        <time>2018-03-25T08:04:37Z</time>
      </trkpt>
      <trkpt lat="43.2408" lon="5.62472">
        <ele>439.796875</ele>
        <time>2018-03-25T08:04:38Z</time>
      </trkpt>
      <trkpt lat="43.24079" lon="5.62469">
        <ele>439.59765625</ele>
        <time>2018-03-25T08:04:39Z</time>
      </trkpt>
      <trkpt lat="43.24077" lon="5.62466">
        <ele>439.3359375</ele>
        <time>2018-03-25T08:04:40Z</time>
      </trkpt>
      <trkpt lat="43.24069" lon="5.62457">
        <ele>438.3359375</ele>
        <time>2018-03-25T08:04:43Z</time>
      </trkpt>
      <trkpt lat="43.24061" lon="5.62435">
        <ele>436.140625</ele>
        <time>2018-03-25T08:04:50Z</time>
      </trkpt>
      <trkpt lat="43.24061" lon="5.62432">
        <ele>435.97265625</ele>
        <time>2018-03-25T08:04:51Z</time>
      </trkpt>
      <trkpt lat="43.24048" lon="5.62403">
        <ele>433.54296875</ele>
        <time>2018-03-25T08:04:57Z</time>
      </trkpt>
      <trkpt lat="43.24041" lon="5.62394">
        <ele>432.47265625</ele>
        <time>2018-03-25T08:04:59Z</time>
      </trkpt>
      <trkpt lat="43.24038" lon="5.62388">
        <ele>431.94921875</ele>
        <time>2018-03-25T08:05:00Z</time>
      </trkpt>
      <trkpt lat="43.24035" lon="5.62382">
        <ele>431.4296875</ele>
        <time>2018-03-25T08:05:01Z</time>
      </trkpt>
      <trkpt lat="43.24032" lon="5.62379">
        <ele>430.9609375</ele>
        <time>2018-03-25T08:05:02Z</time>
      </trkpt>
      <trkpt lat="43.24028" lon="5.62378">
        <ele>430.52734375</ele>
        <time>2018-03-25T08:05:03Z</time>
      </trkpt>
      <trkpt lat="43.24024" lon="5.62378">
        <ele>430.08984375</ele>
        <time>2018-03-25T08:05:04Z</time>
      </trkpt>
      <trkpt lat="43.24019" lon="5.62379">
        <ele>429.6328125</ele>
        <time>2018-03-25T08:05:05Z</time>
      </trkpt>
      <trkpt lat="43.24015" lon="5.6238">
        <ele>429.19140625</ele>
        <time>2018-03-25T08:05:06Z</time>
      </trkpt>
      <trkpt lat="43.24011" lon="5.62383">
        <ele>428.89453125</ele>
        <time>2018-03-25T08:05:07Z</time>
      </trkpt>
      <trkpt lat="43.2399" lon="5.62394">
        <ele>427.51953125</ele>
        <time>2018-03-25T08:05:12Z</time>
      </trkpt>
      <trkpt lat="43.23986" lon="5.62396">
        <ele>427.1875</ele>
        <time>2018-03-25T08:05:13Z</time>
      </trkpt>
      <trkpt lat="43.23964" lon="5.62403">
        <ele>425.828125</ele>
        <time>2018-03-25T08:05:17Z</time>
      </trkpt>
      <trkpt lat="43.23953" lon="5.62409">
        <ele>425.4375</ele>
        <time>2018-03-25T08:05:19Z</time>
      </trkpt>
      <trkpt lat="43.23928" lon="5.62419">
        <ele>423.609375</ele>
        <time>2018-03-25T08:05:24Z</time>
      </trkpt>
      <trkpt lat="43.23923" lon="5.62423">
        <ele>423.3515625</ele>
        <time>2018-03-25T08:05:25Z</time>
      </trkpt>
      <trkpt lat="43.23919" lon="5.62426">
        <ele>423.015625</ele>
        <time>2018-03-25T08:05:26Z</time>
      </trkpt>
      <trkpt lat="43.239" lon="5.62433">
        <ele>420.1328125</ele>
        <time>2018-03-25T08:05:34Z</time>
      </trkpt>
      <trkpt lat="43.23886" lon="5.62439">
        <ele>417.92578125</ele>
        <time>2018-03-25T08:05:38Z</time>
      </trkpt>
      <trkpt lat="43.23883" lon="5.62441">
        <ele>417.66015625</ele>
        <time>2018-03-25T08:05:39Z</time>
      </trkpt>
      <trkpt lat="43.23869" lon="5.6246">
        <ele>417.18359375</ele>
        <time>2018-03-25T08:05:45Z</time>
      </trkpt>
      <trkpt lat="43.23849" lon="5.62468">
        <ele>414.83203125</ele>
        <time>2018-03-25T08:05:51Z</time>
      </trkpt>
      <trkpt lat="43.2384" lon="5.6247">
        <ele>413.578125</ele>
        <time>2018-03-25T08:05:54Z</time>
      </trkpt>
      <trkpt lat="43.23831" lon="5.62473">
        <ele>412.1953125</ele>
        <time>2018-03-25T08:05:57Z</time>
      </trkpt>
      <trkpt lat="43.23827" lon="5.62473">
        <ele>411.546875</ele>
        <time>2018-03-25T08:05:58Z</time>
      </trkpt>
      <trkpt lat="43.23823" lon="5.62472">
        <ele>410.8046875</ele>
        <time>2018-03-25T08:05:59Z</time>
      </trkpt>
      <trkpt lat="43.23817" lon="5.62472">
        <ele>409.890625</ele>
        <time>2018-03-25T08:06:00Z</time>
      </trkpt>
      <trkpt lat="43.23812" lon="5.62471">
        <ele>408.96484375</ele>
        <time>2018-03-25T08:06:01Z</time>
      </trkpt>
      <trkpt lat="43.23808" lon="5.6247">
        <ele>408.30859375</ele>
        <time>2018-03-25T08:06:02Z</time>
      </trkpt>
      <trkpt lat="43.23804" lon="5.62468">
        <ele>407.82421875</ele>
        <time>2018-03-25T08:06:03Z</time>
      </trkpt>
      <trkpt lat="43.23802" lon="5.62466">
        <ele>407.375</ele>
        <time>2018-03-25T08:06:04Z</time>
      </trkpt>
      <trkpt lat="43.23799" lon="5.62464">
        <ele>406.953125</ele>
        <time>2018-03-25T08:06:05Z</time>
      </trkpt>
      <trkpt lat="43.23795" lon="5.62458">
        <ele>405.859375</ele>
        <time>2018-03-25T08:06:07Z</time>
      </trkpt>
      <trkpt lat="43.23782" lon="5.62452">
        <ele>403.4609375</ele>
        <time>2018-03-25T08:06:11Z</time>
      </trkpt>
      <trkpt lat="43.23781" lon="5.62451">
        <ele>403.25390625</ele>
        <time>2018-03-25T08:06:12Z</time>
      </trkpt>
      <trkpt lat="43.2378" lon="5.62451">
        <ele>403.1328125</ele>
        <time>2018-03-25T08:06:13Z</time>
      </trkpt>
      <trkpt lat="43.23778" lon="5.62451">
        <ele>403.02734375</ele>
        <time>2018-03-25T08:06:14Z</time>
      </trkpt>
      <trkpt lat="43.23777" lon="5.6245">
        <ele>402.8125</ele>
        <time>2018-03-25T08:06:15Z</time>
      </trkpt>
      <trkpt lat="43.23776" lon="5.62448">
        <ele>402.43359375</ele>
        <time>2018-03-25T08:06:16Z</time>
      </trkpt>
      <trkpt lat="43.23775" lon="5.62446">
        <ele>401.9609375</ele>
        <time>2018-03-25T08:06:17Z</time>
      </trkpt>
      <trkpt lat="43.23759" lon="5.62431">
        <ele>397.09765625</ele>
        <time>2018-03-25T08:06:23Z</time>
      </trkpt>
      <trkpt lat="43.23758" lon="5.6243">
        <ele>396.78515625</ele>
        <time>2018-03-25T08:06:24Z</time>
      </trkpt>
      <trkpt lat="43.23752" lon="5.62428">
        <ele>395.5625</ele>
        <time>2018-03-25T08:06:25Z</time>
      </trkpt>
      <trkpt lat="43.2375" lon="5.62425">
        <ele>394.89453125</ele>
        <time>2018-03-25T08:06:26Z</time>
      </trkpt>
      <trkpt lat="43.23745" lon="5.62423">
        <ele>393.69140625</ele>
        <time>2018-03-25T08:06:27Z</time>
      </trkpt>
      <trkpt lat="43.2374" lon="5.62421">
        <ele>392.6171875</ele>
        <time>2018-03-25T08:06:28Z</time>
      </trkpt>
      <trkpt lat="43.23736" lon="5.6242">
        <ele>391.67578125</ele>
        <time>2018-03-25T08:06:29Z</time>
      </trkpt>
      <trkpt lat="43.23719" lon="5.62411">
        <ele>387.5234375</ele>
        <time>2018-03-25T08:06:34Z</time>
      </trkpt>
      <trkpt lat="43.23707" lon="5.62402">
        <ele>385.65234375</ele>
        <time>2018-03-25T08:06:38Z</time>
      </trkpt>
      <trkpt lat="43.23696" lon="5.62393">
        <ele>384.1796875</ele>
        <time>2018-03-25T08:06:42Z</time>
      </trkpt>
      <trkpt lat="43.23693" lon="5.62393">
        <ele>383.9296875</ele>
        <time>2018-03-25T08:06:43Z</time>
      </trkpt>
      <trkpt lat="43.23691" lon="5.62391">
        <ele>383.63671875</ele>
        <time>2018-03-25T08:06:44Z</time>
      </trkpt>
      <trkpt lat="43.23678" lon="5.62383">
        <ele>380.78515625</ele>
        <time>2018-03-25T08:06:49Z</time>
      </trkpt>
      <trkpt lat="43.23675" lon="5.6238">
        <ele>379.9375</ele>
        <time>2018-03-25T08:06:50Z</time>
      </trkpt>
      <trkpt lat="43.23668" lon="5.6237">
        <ele>378.671875</ele>
        <time>2018-03-25T08:06:54Z</time>
      </trkpt>
      <trkpt lat="43.23666" lon="5.62368">
        <ele>378.5625</ele>
        <time>2018-03-25T08:06:55Z</time>
      </trkpt>
      <trkpt lat="43.23659" lon="5.62362">
        <ele>377.8125</ele>
        <time>2018-03-25T08:06:58Z</time>
      </trkpt>
      <trkpt lat="43.23647" lon="5.62357">
        <ele>376.44140625</ele>
        <time>2018-03-25T08:07:02Z</time>
      </trkpt>
      <trkpt lat="43.23645" lon="5.62356">
        <ele>375.95703125</ele>
        <time>2018-03-25T08:07:03Z</time>
      </trkpt>
      <trkpt lat="43.23643" lon="5.62353">
        <ele>375.2421875</ele>
        <time>2018-03-25T08:07:04Z</time>
      </trkpt>
      <trkpt lat="43.23642" lon="5.6235">
        <ele>374.80078125</ele>
        <time>2018-03-25T08:07:05Z</time>
      </trkpt>
      <trkpt lat="43.2364" lon="5.62348">
        <ele>374.48046875</ele>
        <time>2018-03-25T08:07:06Z</time>
      </trkpt>
      <trkpt lat="43.23639" lon="5.62345">
        <ele>374.13671875</ele>
        <time>2018-03-25T08:07:07Z</time>
      </trkpt>
      <trkpt lat="43.23637" lon="5.62344">
        <ele>373.875</ele>
        <time>2018-03-25T08:07:08Z</time>
      </trkpt>
      <trkpt lat="43.23627" lon="5.62329">
        <ele>370.6796875</ele>
        <time>2018-03-25T08:07:12Z</time>
      </trkpt>
      <trkpt lat="43.2361" lon="5.62321">
        <ele>367.62890625</ele>
        <time>2018-03-25T08:07:17Z</time>
      </trkpt>
      <trkpt lat="43.23608" lon="5.62319">
        <ele>367.3984375</ele>
        <time>2018-03-25T08:07:18Z</time>
      </trkpt>
      <trkpt lat="43.23607" lon="5.62317">
        <ele>367.046875</ele>
        <time>2018-03-25T08:07:19Z</time>
      </trkpt>
      <trkpt lat="43.23607" lon="5.62313">
        <ele>366.63671875</ele>
        <time>2018-03-25T08:07:20Z</time>
      </trkpt>
      <trkpt lat="43.23604" lon="5.62297">
        <ele>364.125</ele>
        <time>2018-03-25T08:07:24Z</time>
      </trkpt>
      <trkpt lat="43.23592" lon="5.62275">
        <ele>358.51953125</ele>
        <time>2018-03-25T08:07:29Z</time>
      </trkpt>
      <trkpt lat="43.23584" lon="5.6226">
        <ele>355.4921875</ele>
        <time>2018-03-25T08:07:33Z</time>
      </trkpt>
      <trkpt lat="43.23576" lon="5.62251">
        <ele>354.23046875</ele>
        <time>2018-03-25T08:07:36Z</time>
      </trkpt>
      <trkpt lat="43.23571" lon="5.62246">
        <ele>353.26171875</ele>
        <time>2018-03-25T08:07:43Z</time>
      </trkpt>
      <trkpt lat="43.23569" lon="5.62246">
        <ele>352.9765625</ele>
        <time>2018-03-25T08:07:47Z</time>
      </trkpt>
      <trkpt lat="43.23567" lon="5.62245">
        <ele>352.65234375</ele>
        <time>2018-03-25T08:07:48Z</time>
      </trkpt>
      <trkpt lat="43.23565" lon="5.62244">
        <ele>352.18359375</ele>
        <time>2018-03-25T08:07:49Z</time>
      </trkpt>
      <trkpt lat="43.23564" lon="5.62241">
        <ele>351.5703125</ele>
        <time>2018-03-25T08:07:50Z</time>
      </trkpt>
      <trkpt lat="43.23562" lon="5.62239">
        <ele>351.15625</ele>
        <time>2018-03-25T08:07:51Z</time>
      </trkpt>
      <trkpt lat="43.23561" lon="5.62238">
        <ele>350.80078125</ele>
        <time>2018-03-25T08:07:52Z</time>
      </trkpt>
      <trkpt lat="43.23559" lon="5.62237">
        <ele>350.53515625</ele>
        <time>2018-03-25T08:07:53Z</time>
      </trkpt>
      <trkpt lat="43.23558" lon="5.62235">
        <ele>350.29296875</ele>
        <time>2018-03-25T08:07:54Z</time>
      </trkpt>
      <trkpt lat="43.23553" lon="5.62218">
        <ele>347.36328125</ele>
        <time>2018-03-25T08:07:59Z</time>
      </trkpt>
      <trkpt lat="43.23545" lon="5.62197">
        <ele>343.96484375</ele>
        <time>2018-03-25T08:08:04Z</time>
      </trkpt>
      <trkpt lat="43.23543" lon="5.62194">
        <ele>343.453125</ele>
        <time>2018-03-25T08:08:05Z</time>
      </trkpt>
      <trkpt lat="43.2354" lon="5.62193">
        <ele>342.72265625</ele>
        <time>2018-03-25T08:08:06Z</time>
      </trkpt>
      <trkpt lat="43.23537" lon="5.62192">
        <ele>341.83203125</ele>
        <time>2018-03-25T08:08:07Z</time>
      </trkpt>
      <trkpt lat="43.23534" lon="5.62189">
        <ele>340.7265625</ele>
        <time>2018-03-25T08:08:08Z</time>
      </trkpt>
      <trkpt lat="43.23531" lon="5.62186">
        <ele>340.140625</ele>
        <time>2018-03-25T08:08:09Z</time>
      </trkpt>
      <trkpt lat="43.23527" lon="5.62184">
        <ele>340.19921875</ele>
        <time>2018-03-25T08:08:10Z</time>
      </trkpt>
      <trkpt lat="43.23524" lon="5.62182">
        <ele>340.3203125</ele>
        <time>2018-03-25T08:08:11Z</time>
      </trkpt>
      <trkpt lat="43.2352" lon="5.6218">
        <ele>340.390625</ele>
        <time>2018-03-25T08:08:12Z</time>
      </trkpt>
      <trkpt lat="43.23517" lon="5.62178">
        <ele>340.39453125</ele>
        <time>2018-03-25T08:08:13Z</time>
      </trkpt>
      <trkpt lat="43.23514" lon="5.62175">
        <ele>340.30859375</ele>
        <time>2018-03-25T08:08:14Z</time>
      </trkpt>
      <trkpt lat="43.23511" lon="5.62172">
        <ele>340.1328125</ele>
        <time>2018-03-25T08:08:15Z</time>
      </trkpt>
      <trkpt lat="43.23508" lon="5.62168">
        <ele>339.8671875</ele>
        <time>2018-03-25T08:08:16Z</time>
      </trkpt>
      <trkpt lat="43.23504" lon="5.62165">
        <ele>339.5703125</ele>
        <time>2018-03-25T08:08:17Z</time>
      </trkpt>
      <trkpt lat="43.23501" lon="5.62163">
        <ele>339.2265625</ele>
        <time>2018-03-25T08:08:18Z</time>
      </trkpt>
      <trkpt lat="43.23497" lon="5.62159">
        <ele>338.5859375</ele>
        <time>2018-03-25T08:08:19Z</time>
      </trkpt>
      <trkpt lat="43.23493" lon="5.62156">
        <ele>338.05078125</ele>
        <time>2018-03-25T08:08:20Z</time>
      </trkpt>
      <trkpt lat="43.2349" lon="5.62155">
        <ele>337.71875</ele>
        <time>2018-03-25T08:08:21Z</time>
      </trkpt>
      <trkpt lat="43.23487" lon="5.62154">
        <ele>337.421875</ele>
        <time>2018-03-25T08:08:22Z</time>
      </trkpt>
      <trkpt lat="43.23465" lon="5.62152">
        <ele>336.1015625</ele>
        <time>2018-03-25T08:08:27Z</time>
      </trkpt>
      <trkpt lat="43.2346" lon="5.62153">
        <ele>336.19921875</ele>
        <time>2018-03-25T08:08:28Z</time>
      </trkpt>
      <trkpt lat="43.23455" lon="5.62153">
        <ele>336.203125</ele>
        <time>2018-03-25T08:08:29Z</time>
      </trkpt>
      <trkpt lat="43.23442" lon="5.62151">
        <ele>335.046875</ele>
        <time>2018-03-25T08:08:32Z</time>
      </trkpt>
      <trkpt lat="43.23413" lon="5.62147">
        <ele>331.4609375</ele>
        <time>2018-03-25T08:08:40Z</time>
      </trkpt>
      <trkpt lat="43.23406" lon="5.62148">
        <ele>330.9765625</ele>
        <time>2018-03-25T08:08:41Z</time>
      </trkpt>
      <trkpt lat="43.23402" lon="5.62147">
        <ele>330.1796875</ele>
        <time>2018-03-25T08:08:42Z</time>
      </trkpt>
      <trkpt lat="43.23396" lon="5.62147">
        <ele>329.48828125</ele>
        <time>2018-03-25T08:08:43Z</time>
      </trkpt>
      <trkpt lat="43.23391" lon="5.62146">
        <ele>328.6953125</ele>
        <time>2018-03-25T08:08:44Z</time>
      </trkpt>
      <trkpt lat="43.23386" lon="5.62145">
        <ele>327.7890625</ele>
        <time>2018-03-25T08:08:45Z</time>
      </trkpt>
      <trkpt lat="43.23375" lon="5.62137">
        <ele>324.03125</ele>
        <time>2018-03-25T08:08:48Z</time>
      </trkpt>
      <trkpt lat="43.23372" lon="5.62132">
        <ele>322.55078125</ele>
        <time>2018-03-25T08:08:49Z</time>
      </trkpt>
      <trkpt lat="43.23367" lon="5.62123">
        <ele>321.90625</ele>
        <time>2018-03-25T08:08:51Z</time>
      </trkpt>
      <trkpt lat="43.2336" lon="5.62109">
        <ele>322.40234375</ele>
        <time>2018-03-25T08:08:54Z</time>
      </trkpt>
      <trkpt lat="43.23358" lon="5.62105">
        <ele>322.35546875</ele>
        <time>2018-03-25T08:08:55Z</time>
      </trkpt>
      <trkpt lat="43.23354" lon="5.62103">
        <ele>321.859375</ele>
        <time>2018-03-25T08:08:56Z</time>
      </trkpt>
      <trkpt lat="43.23352" lon="5.621">
        <ele>321.64453125</ele>
        <time>2018-03-25T08:08:57Z</time>
      </trkpt>
      <trkpt lat="43.23344" lon="5.62092">
        <ele>320.73828125</ele>
        <time>2018-03-25T08:09:00Z</time>
      </trkpt>
      <trkpt lat="43.23344" lon="5.62087">
        <ele>320.84375</ele>
        <time>2018-03-25T08:09:01Z</time>
      </trkpt>
      <trkpt lat="43.23342" lon="5.62081">
        <ele>320.875</ele>
        <time>2018-03-25T08:09:02Z</time>
      </trkpt>
      <trkpt lat="43.2334" lon="5.62075">
        <ele>320.48828125</ele>
        <time>2018-03-25T08:09:03Z</time>
      </trkpt>
      <trkpt lat="43.23336" lon="5.6207">
        <ele>320.421875</ele>
        <time>2018-03-25T08:09:04Z</time>
      </trkpt>
      <trkpt lat="43.23331" lon="5.62065">
        <ele>320.375</ele>
        <time>2018-03-25T08:09:05Z</time>
      </trkpt>
      <trkpt lat="43.23326" lon="5.62061">
        <ele>320.01171875</ele>
        <time>2018-03-25T08:09:06Z</time>
      </trkpt>
      <trkpt lat="43.23322" lon="5.62057">
        <ele>319.5234375</ele>
        <time>2018-03-25T08:09:07Z</time>
      </trkpt>
      <trkpt lat="43.23318" lon="5.62052">
        <ele>318.80859375</ele>
        <time>2018-03-25T08:09:08Z</time>
      </trkpt>
      <trkpt lat="43.23314" lon="5.62048">
        <ele>317.96484375</ele>
        <time>2018-03-25T08:09:09Z</time>
      </trkpt>
      <trkpt lat="43.2331" lon="5.62047">
        <ele>316.94921875</ele>
        <time>2018-03-25T08:09:10Z</time>
      </trkpt>
      <trkpt lat="43.23305" lon="5.62048">
        <ele>316.39453125</ele>
        <time>2018-03-25T08:09:11Z</time>
      </trkpt>
      <trkpt lat="43.23302" lon="5.62048">
        <ele>315.91796875</ele>
        <time>2018-03-25T08:09:12Z</time>
      </trkpt>
      <trkpt lat="43.23298" lon="5.62048">
        <ele>315.3671875</ele>
        <time>2018-03-25T08:09:13Z</time>
      </trkpt>
      <trkpt lat="43.23295" lon="5.62046">
        <ele>314.8359375</ele>
        <time>2018-03-25T08:09:14Z</time>
      </trkpt>
      <trkpt lat="43.23294" lon="5.62045">
        <ele>314.55859375</ele>
        <time>2018-03-25T08:09:15Z</time>
      </trkpt>
      <trkpt lat="43.23273" lon="5.62034">
        <ele>311.94921875</ele>
        <time>2018-03-25T08:09:21Z</time>
      </trkpt>
      <trkpt lat="43.2327" lon="5.62033">
        <ele>311.8359375</ele>
        <time>2018-03-25T08:09:22Z</time>
      </trkpt>
      <trkpt lat="43.23258" lon="5.62033">
        <ele>311.65625</ele>
        <time>2018-03-25T08:09:25Z</time>
      </trkpt>
      <trkpt lat="43.23247" lon="5.62036">
        <ele>310.8984375</ele>
        <time>2018-03-25T08:09:27Z</time>
      </trkpt>
      <trkpt lat="43.2323" lon="5.62038">
        <ele>309.1015625</ele>
        <time>2018-03-25T08:09:30Z</time>
      </trkpt>
      <trkpt lat="43.23214" lon="5.62032">
        <ele>306.59375</ele>
        <time>2018-03-25T08:09:33Z</time>
      </trkpt>
      <trkpt lat="43.2321" lon="5.62029">
        <ele>305.5859375</ele>
        <time>2018-03-25T08:09:34Z</time>
      </trkpt>
      <trkpt lat="43.23203" lon="5.62025">
        <ele>304.40234375</ele>
        <time>2018-03-25T08:09:35Z</time>
      </trkpt>
      <trkpt lat="43.23198" lon="5.62021">
        <ele>303.171875</ele>
        <time>2018-03-25T08:09:36Z</time>
      </trkpt>
      <trkpt lat="43.23194" lon="5.62016">
        <ele>302.20703125</ele>
        <time>2018-03-25T08:09:37Z</time>
      </trkpt>
      <trkpt lat="43.23192" lon="5.6201">
        <ele>301.4765625</ele>
        <time>2018-03-25T08:09:38Z</time>
      </trkpt>
      <trkpt lat="43.23192" lon="5.62004">
        <ele>300.96875</ele>
        <time>2018-03-25T08:09:39Z</time>
      </trkpt>
      <trkpt lat="43.23192" lon="5.62">
        <ele>300.60546875</ele>
        <time>2018-03-25T08:09:40Z</time>
      </trkpt>
      <trkpt lat="43.23192" lon="5.61997">
        <ele>300.4765625</ele>
        <time>2018-03-25T08:09:41Z</time>
      </trkpt>
      <trkpt lat="43.23194" lon="5.61995">
        <ele>300.55078125</ele>
        <time>2018-03-25T08:09:42Z</time>
      </trkpt>
      <trkpt lat="43.23196" lon="5.61993">
        <ele>300.6484375</ele>
        <time>2018-03-25T08:09:43Z</time>
      </trkpt>
      <trkpt lat="43.23198" lon="5.61989">
        <ele>300.9609375</ele>
        <time>2018-03-25T08:09:44Z</time>
      </trkpt>
      <trkpt lat="43.23201" lon="5.61986">
        <ele>301.55859375</ele>
        <time>2018-03-25T08:09:45Z</time>
      </trkpt>
      <trkpt lat="43.23203" lon="5.61983">
        <ele>302.203125</ele>
        <time>2018-03-25T08:09:46Z</time>
      </trkpt>
      <trkpt lat="43.23206" lon="5.61974">
        <ele>303.61328125</ele>
        <time>2018-03-25T08:09:51Z</time>
      </trkpt>
      <trkpt lat="43.23207" lon="5.6197">
        <ele>304.08203125</ele>
        <time>2018-03-25T08:09:52Z</time>
      </trkpt>
      <trkpt lat="43.23208" lon="5.61967">
        <ele>304.51953125</ele>
        <time>2018-03-25T08:09:53Z</time>
      </trkpt>
      <trkpt lat="43.2321" lon="5.61953">
        <ele>306.24609375</ele>
        <time>2018-03-25T08:09:57Z</time>
      </trkpt>
      <trkpt lat="43.23208" lon="5.61951">
        <ele>306.14453125</ele>
        <time>2018-03-25T08:09:58Z</time>
      </trkpt>
      <trkpt lat="43.23206" lon="5.61948">
        <ele>305.76171875</ele>
        <time>2018-03-25T08:09:59Z</time>
      </trkpt>
      <trkpt lat="43.23203" lon="5.61943">
        <ele>305.36328125</ele>
        <time>2018-03-25T08:10:00Z</time>
      </trkpt>
      <trkpt lat="43.23199" lon="5.61939">
        <ele>304.8359375</ele>
        <time>2018-03-25T08:10:01Z</time>
      </trkpt>
      <trkpt lat="43.23196" lon="5.61935">
        <ele>303.828125</ele>
        <time>2018-03-25T08:10:02Z</time>
      </trkpt>
      <trkpt lat="43.23191" lon="5.61932">
        <ele>302.41015625</ele>
        <time>2018-03-25T08:10:03Z</time>
      </trkpt>
      <trkpt lat="43.23187" lon="5.61928">
        <ele>300.91796875</ele>
        <time>2018-03-25T08:10:04Z</time>
      </trkpt>
      <trkpt lat="43.23178" lon="5.61924">
        <ele>297.87109375</ele>
        <time>2018-03-25T08:10:06Z</time>
      </trkpt>
      <trkpt lat="43.23163" lon="5.61923">
        <ele>293.5234375</ele>
        <time>2018-03-25T08:10:09Z</time>
      </trkpt>
      <trkpt lat="43.23159" lon="5.61923">
        <ele>292.51953125</ele>
        <time>2018-03-25T08:10:10Z</time>
      </trkpt>
      <trkpt lat="43.23157" lon="5.61923">
        <ele>291.98046875</ele>
        <time>2018-03-25T08:10:11Z</time>
      </trkpt>
      <trkpt lat="43.23149" lon="5.61921">
        <ele>289.8125</ele>
        <time>2018-03-25T08:10:23Z</time>
      </trkpt>
      <trkpt lat="43.23146" lon="5.61922">
        <ele>289.0625</ele>
        <time>2018-03-25T08:10:38Z</time>
      </trkpt>
      <trkpt lat="43.23145" lon="5.61922">
        <ele>288.93359375</ele>
        <time>2018-03-25T08:10:52Z</time>
      </trkpt>
      <trkpt lat="43.23144" lon="5.61922">
        <ele>288.5625</ele>
        <time>2018-03-25T08:11:12Z</time>
      </trkpt>
      <trkpt lat="43.23143" lon="5.61922">
        <ele>288.54296875</ele>
        <time>2018-03-25T08:11:25Z</time>
      </trkpt>
      <trkpt lat="43.23141" lon="5.61918">
        <ele>287.99609375</ele>
        <time>2018-03-25T08:11:28Z</time>
      </trkpt>
      <trkpt lat="43.2314" lon="5.61916">
        <ele>287.765625</ele>
        <time>2018-03-25T08:11:29Z</time>
      </trkpt>
      <trkpt lat="43.2314" lon="5.61911">
        <ele>287.14453125</ele>
        <time>2018-03-25T08:11:31Z</time>
      </trkpt>
      <trkpt lat="43.23139" lon="5.61908">
        <ele>286.64453125</ele>
        <time>2018-03-25T08:11:32Z</time>
      </trkpt>
      <trkpt lat="43.23138" lon="5.61904">
        <ele>286.54296875</ele>
        <time>2018-03-25T08:11:33Z</time>
      </trkpt>
      <trkpt lat="43.23137" lon="5.61901">
        <ele>286.37890625</ele>
        <time>2018-03-25T08:11:34Z</time>
      </trkpt>
      <trkpt lat="43.23136" lon="5.61898">
        <ele>286.125</ele>
        <time>2018-03-25T08:11:35Z</time>
      </trkpt>
      <trkpt lat="43.23134" lon="5.61894">
        <ele>285.8359375</ele>
        <time>2018-03-25T08:11:36Z</time>
      </trkpt>
      <trkpt lat="43.23134" lon="5.6189">
        <ele>285.60546875</ele>
        <time>2018-03-25T08:11:37Z</time>
      </trkpt>
      <trkpt lat="43.23134" lon="5.61886">
        <ele>285.50390625</ele>
        <time>2018-03-25T08:11:38Z</time>
      </trkpt>
      <trkpt lat="43.23134" lon="5.61881">
        <ele>285.37109375</ele>
        <time>2018-03-25T08:11:39Z</time>
      </trkpt>
      <trkpt lat="43.23135" lon="5.61876">
        <ele>285.41796875</ele>
        <time>2018-03-25T08:11:40Z</time>
      </trkpt>
      <trkpt lat="43.23136" lon="5.61871">
        <ele>285.71484375</ele>
        <time>2018-03-25T08:11:41Z</time>
      </trkpt>
      <trkpt lat="43.23138" lon="5.61866">
        <ele>286.22265625</ele>
        <time>2018-03-25T08:11:42Z</time>
      </trkpt>
      <trkpt lat="43.2314" lon="5.61863">
        <ele>286.81640625</ele>
        <time>2018-03-25T08:11:43Z</time>
      </trkpt>
      <trkpt lat="43.23142" lon="5.61859">
        <ele>287.4453125</ele>
        <time>2018-03-25T08:11:44Z</time>
      </trkpt>
      <trkpt lat="43.23145" lon="5.61855">
        <ele>288.51171875</ele>
        <time>2018-03-25T08:11:45Z</time>
      </trkpt>
      <trkpt lat="43.23148" lon="5.6185">
        <ele>289.9765625</ele>
        <time>2018-03-25T08:11:46Z</time>
      </trkpt>
      <trkpt lat="43.2315" lon="5.61846">
        <ele>290.9140625</ele>
        <time>2018-03-25T08:11:47Z</time>
      </trkpt>
      <trkpt lat="43.23151" lon="5.61842">
        <ele>291.3984375</ele>
        <time>2018-03-25T08:11:48Z</time>
      </trkpt>
      <trkpt lat="43.23152" lon="5.61838">
        <ele>292.1484375</ele>
        <time>2018-03-25T08:11:49Z</time>
      </trkpt>
      <trkpt lat="43.23154" lon="5.61831">
        <ele>293.0859375</ele>
        <time>2018-03-25T08:11:51Z</time>
      </trkpt>
      <trkpt lat="43.23153" lon="5.61828">
        <ele>292.7265625</ele>
        <time>2018-03-25T08:11:52Z</time>
      </trkpt>
      <trkpt lat="43.23152" lon="5.61826">
        <ele>292.3359375</ele>
        <time>2018-03-25T08:11:53Z</time>
      </trkpt>
      <trkpt lat="43.2315" lon="5.61825">
        <ele>291.578125</ele>
        <time>2018-03-25T08:11:54Z</time>
      </trkpt>
      <trkpt lat="43.23147" lon="5.61823">
        <ele>290.37890625</ele>
        <time>2018-03-25T08:11:55Z</time>
      </trkpt>
      <trkpt lat="43.23143" lon="5.61823">
        <ele>288.90234375</ele>
        <time>2018-03-25T08:11:56Z</time>
      </trkpt>
      <trkpt lat="43.23136" lon="5.61821">
        <ele>286.9453125</ele>
        <time>2018-03-25T08:11:58Z</time>
      </trkpt>
      <trkpt lat="43.23127" lon="5.61817">
        <ele>284.6640625</ele>
        <time>2018-03-25T08:12:00Z</time>
      </trkpt>
      <trkpt lat="43.2311" lon="5.61805">
        <ele>280.9296875</ele>
        <time>2018-03-25T08:12:05Z</time>
      </trkpt>
      <trkpt lat="43.23108" lon="5.618">
        <ele>280.73046875</ele>
        <time>2018-03-25T08:12:06Z</time>
      </trkpt>
      <trkpt lat="43.23092" lon="5.61767">
        <ele>279.22265625</ele>
        <time>2018-03-25T08:12:15Z</time>
      </trkpt>
      <trkpt lat="43.23082" lon="5.61764">
        <ele>277.546875</ele>
        <time>2018-03-25T08:12:18Z</time>
      </trkpt>
      <trkpt lat="43.23079" lon="5.61766">
        <ele>276.65625</ele>
        <time>2018-03-25T08:12:19Z</time>
      </trkpt>
      <trkpt lat="43.23065" lon="5.61777">
        <ele>274.61328125</ele>
        <time>2018-03-25T08:12:23Z</time>
      </trkpt>
      <trkpt lat="43.23062" lon="5.61779">
        <ele>274.3046875</ele>
        <time>2018-03-25T08:12:24Z</time>
      </trkpt>
      <trkpt lat="43.23055" lon="5.61783">
        <ele>273.92578125</ele>
        <time>2018-03-25T08:12:26Z</time>
      </trkpt>
      <trkpt lat="43.23028" lon="5.61768">
        <ele>270.5703125</ele>
        <time>2018-03-25T08:12:34Z</time>
      </trkpt>
      <trkpt lat="43.23025" lon="5.61764">
        <ele>270.30859375</ele>
        <time>2018-03-25T08:12:35Z</time>
      </trkpt>
      <trkpt lat="43.23018" lon="5.61756">
        <ele>269.85546875</ele>
        <time>2018-03-25T08:12:37Z</time>
      </trkpt>
      <trkpt lat="43.23015" lon="5.61752">
        <ele>269.7265625</ele>
        <time>2018-03-25T08:12:38Z</time>
      </trkpt>
      <trkpt lat="43.23014" lon="5.61748">
        <ele>269.69921875</ele>
        <time>2018-03-25T08:12:39Z</time>
      </trkpt>
      <trkpt lat="43.23012" lon="5.61744">
        <ele>269.703125</ele>
        <time>2018-03-25T08:12:40Z</time>
      </trkpt>
      <trkpt lat="43.23011" lon="5.6174">
        <ele>269.73046875</ele>
        <time>2018-03-25T08:12:41Z</time>
      </trkpt>
      <trkpt lat="43.23011" lon="5.61736">
        <ele>269.83984375</ele>
        <time>2018-03-25T08:12:42Z</time>
      </trkpt>
      <trkpt lat="43.23012" lon="5.61731">
        <ele>270.04296875</ele>
        <time>2018-03-25T08:12:43Z</time>
      </trkpt>
      <trkpt lat="43.23014" lon="5.61711">
        <ele>271.0390625</ele>
        <time>2018-03-25T08:12:47Z</time>
      </trkpt>
      <trkpt lat="43.23013" lon="5.61709">
        <ele>270.8984375</ele>
        <time>2018-03-25T08:12:48Z</time>
      </trkpt>
      <trkpt lat="43.23011" lon="5.61707">
        <ele>270.625</ele>
        <time>2018-03-25T08:13:00Z</time>
      </trkpt>
      <trkpt lat="43.2301" lon="5.61703">
        <ele>270.38671875</ele>
        <time>2018-03-25T08:13:30Z</time>
      </trkpt>
      <trkpt lat="43.23008" lon="5.61707">
        <ele>269.8984375</ele>
        <time>2018-03-25T08:13:56Z</time>
      </trkpt>
      <trkpt lat="43.2301" lon="5.61706">
        <ele>270.27734375</ele>
        <time>2018-03-25T08:14:27Z</time>
      </trkpt>
      <trkpt lat="43.23009" lon="5.61707">
        <ele>270.16796875</ele>
        <time>2018-03-25T08:14:54Z</time>
      </trkpt>
      <trkpt lat="43.23009" lon="5.61704">
        <ele>270.171875</ele>
        <time>2018-03-25T08:15:17Z</time>
      </trkpt>
      <trkpt lat="43.23008" lon="5.61702">
        <ele>270.08984375</ele>
        <time>2018-03-25T08:15:44Z</time>
      </trkpt>
      <trkpt lat="43.23005" lon="5.61702">
        <ele>269.484375</ele>
        <time>2018-03-25T08:16:14Z</time>
      </trkpt>
      <trkpt lat="43.23008" lon="5.61703">
        <ele>270.046875</ele>
        <time>2018-03-25T08:16:41Z</time>
      </trkpt>
      <trkpt lat="43.23006" lon="5.61705">
        <ele>269.50390625</ele>
        <time>2018-03-25T08:17:08Z</time>
      </trkpt>
      <trkpt lat="43.23007" lon="5.61702">
        <ele>269.89453125</ele>
        <time>2018-03-25T08:17:33Z</time>
      </trkpt>
      <trkpt lat="43.23007" lon="5.61704">
        <ele>269.90234375</ele>
        <time>2018-03-25T08:17:59Z</time>
      </trkpt>
      <trkpt lat="43.23008" lon="5.61704">
        <ele>270.05859375</ele>
        <time>2018-03-25T08:18:31Z</time>
      </trkpt>
      <trkpt lat="43.23008" lon="5.61704">
        <ele>269.98046875</ele>
        <time>2018-03-25T08:18:59Z</time>
      </trkpt>
      <trkpt lat="43.23006" lon="5.61704">
        <ele>269.6328125</ele>
        <time>2018-03-25T08:19:27Z</time>
      </trkpt>
      <trkpt lat="43.23006" lon="5.61703">
        <ele>269.6796875</ele>
        <time>2018-03-25T08:19:55Z</time>
      </trkpt>
      <trkpt lat="43.23007" lon="5.61703">
        <ele>269.7578125</ele>
        <time>2018-03-25T08:20:20Z</time>
      </trkpt>
      <trkpt lat="43.23009" lon="5.61705">
        <ele>270.11328125</ele>
        <time>2018-03-25T08:20:45Z</time>
      </trkpt>
      <trkpt lat="43.23008" lon="5.61701">
        <ele>270.03515625</ele>
        <time>2018-03-25T08:21:14Z</time>
      </trkpt>
      <trkpt lat="43.2301" lon="5.61702">
        <ele>270.41796875</ele>
        <time>2018-03-25T08:21:41Z</time>
      </trkpt>
      <trkpt lat="43.23009" lon="5.61703">
        <ele>270.34765625</ele>
        <time>2018-03-25T08:22:05Z</time>
      </trkpt>
      <trkpt lat="43.2301" lon="5.61704">
        <ele>270.4375</ele>
        <time>2018-03-25T08:22:35Z</time>
      </trkpt>
      <trkpt lat="43.23011" lon="5.61705">
        <ele>270.57421875</ele>
        <time>2018-03-25T08:22:56Z</time>
      </trkpt>
      <trkpt lat="43.2301" lon="5.61703">
        <ele>270.50390625</ele>
        <time>2018-03-25T08:23:22Z</time>
      </trkpt>
      <trkpt lat="43.23008" lon="5.61702">
        <ele>270.17578125</ele>
        <time>2018-03-25T08:23:51Z</time>
      </trkpt>
      <trkpt lat="43.23008" lon="5.61703">
        <ele>269.9609375</ele>
        <time>2018-03-25T08:24:09Z</time>
      </trkpt>
      <trkpt lat="43.23005" lon="5.61702">
        <ele>269.47265625</ele>
        <time>2018-03-25T08:24:20Z</time>
      </trkpt>
      <trkpt lat="43.23003" lon="5.61703">
        <ele>269.19921875</ele>
        <time>2018-03-25T08:24:45Z</time>
      </trkpt>
      <trkpt lat="43.23005" lon="5.61702">
        <ele>269.3671875</ele>
        <time>2018-03-25T08:25:15Z</time>
      </trkpt>
      <trkpt lat="43.23004" lon="5.617">
        <ele>269.328125</ele>
        <time>2018-03-25T08:25:39Z</time>
      </trkpt>
      <trkpt lat="43.23006" lon="5.617">
        <ele>269.703125</ele>
        <time>2018-03-25T08:26:05Z</time>
      </trkpt>
      <trkpt lat="43.23005" lon="5.61699">
        <ele>269.5703125</ele>
        <time>2018-03-25T08:26:26Z</time>
      </trkpt>
      <trkpt lat="43.23002" lon="5.61699">
        <ele>269.22265625</ele>
        <time>2018-03-25T08:26:54Z</time>
      </trkpt>
      <trkpt lat="43.23003" lon="5.617">
        <ele>269.3125</ele>
        <time>2018-03-25T08:27:18Z</time>
      </trkpt>
      <trkpt lat="43.23006" lon="5.617">
        <ele>269.68359375</ele>
        <time>2018-03-25T08:27:41Z</time>
      </trkpt>
      <trkpt lat="43.23007" lon="5.61699">
        <ele>269.984375</ele>
        <time>2018-03-25T08:28:01Z</time>
      </trkpt>
      <trkpt lat="43.23011" lon="5.61701">
        <ele>270.765625</ele>
        <time>2018-03-25T08:28:21Z</time>
      </trkpt>
      <trkpt lat="43.23008" lon="5.61697">
        <ele>270.34375</ele>
        <time>2018-03-25T08:28:38Z</time>
      </trkpt>
      <trkpt lat="43.23007" lon="5.61696">
        <ele>270.1640625</ele>
        <time>2018-03-25T08:28:39Z</time>
      </trkpt>
      <trkpt lat="43.23006" lon="5.61695">
        <ele>269.859375</ele>
        <time>2018-03-25T08:28:40Z</time>
      </trkpt>
      <trkpt lat="43.22983" lon="5.61688">
        <ele>267.51953125</ele>
        <time>2018-03-25T08:28:48Z</time>
      </trkpt>
      <trkpt lat="43.22972" lon="5.6169">
        <ele>266.5234375</ele>
        <time>2018-03-25T08:28:51Z</time>
      </trkpt>
      <trkpt lat="43.2297" lon="5.61688">
        <ele>266.42578125</ele>
        <time>2018-03-25T08:28:52Z</time>
      </trkpt>
      <trkpt lat="43.22968" lon="5.61685">
        <ele>266.37109375</ele>
        <time>2018-03-25T08:28:53Z</time>
      </trkpt>
      <trkpt lat="43.22967" lon="5.61681">
        <ele>266.29296875</ele>
        <time>2018-03-25T08:28:54Z</time>
      </trkpt>
      <trkpt lat="43.22964" lon="5.61678">
        <ele>266.18359375</ele>
        <time>2018-03-25T08:28:55Z</time>
      </trkpt>
      <trkpt lat="43.22961" lon="5.61675">
        <ele>266.04296875</ele>
        <time>2018-03-25T08:28:56Z</time>
      </trkpt>
      <trkpt lat="43.22957" lon="5.61672">
        <ele>265.9296875</ele>
        <time>2018-03-25T08:28:57Z</time>
      </trkpt>
      <trkpt lat="43.22955" lon="5.61668">
        <ele>265.91796875</ele>
        <time>2018-03-25T08:28:58Z</time>
      </trkpt>
      <trkpt lat="43.22954" lon="5.61664">
        <ele>265.9921875</ele>
        <time>2018-03-25T08:28:59Z</time>
      </trkpt>
      <trkpt lat="43.22953" lon="5.6166">
        <ele>266.05859375</ele>
        <time>2018-03-25T08:29:00Z</time>
      </trkpt>
      <trkpt lat="43.22951" lon="5.61655">
        <ele>266.0625</ele>
        <time>2018-03-25T08:29:01Z</time>
      </trkpt>
      <trkpt lat="43.2295" lon="5.61649">
        <ele>266.02734375</ele>
        <time>2018-03-25T08:29:02Z</time>
      </trkpt>
      <trkpt lat="43.22949" lon="5.61643">
        <ele>265.98046875</ele>
        <time>2018-03-25T08:29:03Z</time>
      </trkpt>
      <trkpt lat="43.22949" lon="5.61636">
        <ele>265.9296875</ele>
        <time>2018-03-25T08:29:04Z</time>
      </trkpt>
      <trkpt lat="43.22949" lon="5.61629">
        <ele>265.99609375</ele>
        <time>2018-03-25T08:29:05Z</time>
      </trkpt>
      <trkpt lat="43.22951" lon="5.61615">
        <ele>266.828125</ele>
        <time>2018-03-25T08:29:07Z</time>
      </trkpt>
      <trkpt lat="43.22952" lon="5.6161">
        <ele>267.23828125</ele>
        <time>2018-03-25T08:29:08Z</time>
      </trkpt>
      <trkpt lat="43.22951" lon="5.61605">
        <ele>267.3984375</ele>
        <time>2018-03-25T08:29:09Z</time>
      </trkpt>
      <trkpt lat="43.2295" lon="5.61601">
        <ele>267.25390625</ele>
        <time>2018-03-25T08:29:10Z</time>
      </trkpt>
      <trkpt lat="43.22949" lon="5.61597">
        <ele>266.94140625</ele>
        <time>2018-03-25T08:29:11Z</time>
      </trkpt>
      <trkpt lat="43.22947" lon="5.61593">
        <ele>266.65625</ele>
        <time>2018-03-25T08:29:12Z</time>
      </trkpt>
      <trkpt lat="43.22945" lon="5.61589">
        <ele>266.046875</ele>
        <time>2018-03-25T08:29:13Z</time>
      </trkpt>
      <trkpt lat="43.22942" lon="5.61586">
        <ele>264.86328125</ele>
        <time>2018-03-25T08:29:14Z</time>
      </trkpt>
      <trkpt lat="43.22938" lon="5.61582">
        <ele>263.29296875</ele>
        <time>2018-03-25T08:29:15Z</time>
      </trkpt>
      <trkpt lat="43.22926" lon="5.61572">
        <ele>258.25390625</ele>
        <time>2018-03-25T08:29:19Z</time>
      </trkpt>
      <trkpt lat="43.22924" lon="5.61572">
        <ele>257.3125</ele>
        <time>2018-03-25T08:29:20Z</time>
      </trkpt>
      <trkpt lat="43.22922" lon="5.61574">
        <ele>256.19921875</ele>
        <time>2018-03-25T08:29:21Z</time>
      </trkpt>
      <trkpt lat="43.22919" lon="5.61577">
        <ele>255.73046875</ele>
        <time>2018-03-25T08:29:22Z</time>
      </trkpt>
      <trkpt lat="43.22916" lon="5.61582">
        <ele>255.77734375</ele>
        <time>2018-03-25T08:29:23Z</time>
      </trkpt>
      <trkpt lat="43.22913" lon="5.61588">
        <ele>256.03125</ele>
        <time>2018-03-25T08:29:24Z</time>
      </trkpt>
      <trkpt lat="43.22911" lon="5.61594">
        <ele>256.2265625</ele>
        <time>2018-03-25T08:29:25Z</time>
      </trkpt>
      <trkpt lat="43.22908" lon="5.616">
        <ele>256.25</ele>
        <time>2018-03-25T08:29:26Z</time>
      </trkpt>
      <trkpt lat="43.22905" lon="5.61605">
        <ele>256.359375</ele>
        <time>2018-03-25T08:29:27Z</time>
      </trkpt>
      <trkpt lat="43.22904" lon="5.6161">
        <ele>256.66015625</ele>
        <time>2018-03-25T08:29:28Z</time>
      </trkpt>
      <trkpt lat="43.22903" lon="5.61615">
        <ele>256.89453125</ele>
        <time>2018-03-25T08:29:29Z</time>
      </trkpt>
      <trkpt lat="43.229" lon="5.61618">
        <ele>256.8125</ele>
        <time>2018-03-25T08:29:30Z</time>
      </trkpt>
      <trkpt lat="43.22897" lon="5.6162">
        <ele>256.55078125</ele>
        <time>2018-03-25T08:29:31Z</time>
      </trkpt>
      <trkpt lat="43.22891" lon="5.61625">
        <ele>255.90234375</ele>
        <time>2018-03-25T08:29:33Z</time>
      </trkpt>
      <trkpt lat="43.22888" lon="5.61625">
        <ele>255.32421875</ele>
        <time>2018-03-25T08:29:34Z</time>
      </trkpt>
      <trkpt lat="43.22884" lon="5.61624">
        <ele>254.5546875</ele>
        <time>2018-03-25T08:29:35Z</time>
      </trkpt>
      <trkpt lat="43.22881" lon="5.61623">
        <ele>253.828125</ele>
        <time>2018-03-25T08:29:36Z</time>
      </trkpt>
      <trkpt lat="43.22877" lon="5.61622">
        <ele>253.1171875</ele>
        <time>2018-03-25T08:29:37Z</time>
      </trkpt>
      <trkpt lat="43.22873" lon="5.61623">
        <ele>252.4140625</ele>
        <time>2018-03-25T08:29:38Z</time>
      </trkpt>
      <trkpt lat="43.22868" lon="5.61625">
        <ele>251.8515625</ele>
        <time>2018-03-25T08:29:39Z</time>
      </trkpt>
      <trkpt lat="43.22864" lon="5.61628">
        <ele>251.296875</ele>
        <time>2018-03-25T08:29:40Z</time>
      </trkpt>
      <trkpt lat="43.22861" lon="5.61632">
        <ele>250.7578125</ele>
        <time>2018-03-25T08:29:41Z</time>
      </trkpt>
      <trkpt lat="43.22858" lon="5.61635">
        <ele>250.328125</ele>
        <time>2018-03-25T08:29:42Z</time>
      </trkpt>
      <trkpt lat="43.22854" lon="5.61637">
        <ele>249.546875</ele>
        <time>2018-03-25T08:29:43Z</time>
      </trkpt>
      <trkpt lat="43.22851" lon="5.61637">
        <ele>248.4453125</ele>
        <time>2018-03-25T08:29:44Z</time>
      </trkpt>
      <trkpt lat="43.22847" lon="5.61636">
        <ele>247.19140625</ele>
        <time>2018-03-25T08:29:45Z</time>
      </trkpt>
      <trkpt lat="43.22844" lon="5.61633">
        <ele>245.84375</ele>
        <time>2018-03-25T08:29:46Z</time>
      </trkpt>
      <trkpt lat="43.22842" lon="5.61628">
        <ele>244.921875</ele>
        <time>2018-03-25T08:29:47Z</time>
      </trkpt>
      <trkpt lat="43.22842" lon="5.61622">
        <ele>244.703125</ele>
        <time>2018-03-25T08:29:48Z</time>
      </trkpt>
      <trkpt lat="43.22843" lon="5.61617">
        <ele>244.74609375</ele>
        <time>2018-03-25T08:29:49Z</time>
      </trkpt>
      <trkpt lat="43.22844" lon="5.61612">
        <ele>244.69921875</ele>
        <time>2018-03-25T08:29:50Z</time>
      </trkpt>
      <trkpt lat="43.22844" lon="5.61607">
        <ele>244.48046875</ele>
        <time>2018-03-25T08:29:51Z</time>
      </trkpt>
      <trkpt lat="43.22844" lon="5.61602">
        <ele>244.10546875</ele>
        <time>2018-03-25T08:29:52Z</time>
      </trkpt>
      <trkpt lat="43.22842" lon="5.61598">
        <ele>243.546875</ele>
        <time>2018-03-25T08:29:53Z</time>
      </trkpt>
      <trkpt lat="43.22839" lon="5.61595">
        <ele>242.875</ele>
        <time>2018-03-25T08:29:54Z</time>
      </trkpt>
      <trkpt lat="43.22835" lon="5.61595">
        <ele>242.234375</ele>
        <time>2018-03-25T08:29:55Z</time>
      </trkpt>
      <trkpt lat="43.22832" lon="5.61596">
        <ele>241.6015625</ele>
        <time>2018-03-25T08:29:56Z</time>
      </trkpt>
      <trkpt lat="43.22828" lon="5.61597">
        <ele>240.9921875</ele>
        <time>2018-03-25T08:29:57Z</time>
      </trkpt>
      <trkpt lat="43.22825" lon="5.61597">
        <ele>240.43359375</ele>
        <time>2018-03-25T08:29:58Z</time>
      </trkpt>
      <trkpt lat="43.22822" lon="5.61596">
        <ele>239.875</ele>
        <time>2018-03-25T08:29:59Z</time>
      </trkpt>
      <trkpt lat="43.22818" lon="5.61594">
        <ele>239.16796875</ele>
        <time>2018-03-25T08:30:00Z</time>
      </trkpt>
      <trkpt lat="43.22803" lon="5.61595">
        <ele>237.33984375</ele>
        <time>2018-03-25T08:30:04Z</time>
      </trkpt>
      <trkpt lat="43.22799" lon="5.61596">
        <ele>236.94921875</ele>
        <time>2018-03-25T08:30:05Z</time>
      </trkpt>
      <trkpt lat="43.22789" lon="5.61597">
        <ele>236.16015625</ele>
        <time>2018-03-25T08:30:07Z</time>
      </trkpt>
      <trkpt lat="43.22784" lon="5.61597">
        <ele>235.7109375</ele>
        <time>2018-03-25T08:30:08Z</time>
      </trkpt>
      <trkpt lat="43.22778" lon="5.61597">
        <ele>235.30078125</ele>
        <time>2018-03-25T08:30:09Z</time>
      </trkpt>
      <trkpt lat="43.22773" lon="5.61597">
        <ele>234.84765625</ele>
        <time>2018-03-25T08:30:10Z</time>
      </trkpt>
      <trkpt lat="43.22767" lon="5.61596">
        <ele>234.3125</ele>
        <time>2018-03-25T08:30:11Z</time>
      </trkpt>
      <trkpt lat="43.22758" lon="5.61594">
        <ele>233.30078125</ele>
        <time>2018-03-25T08:30:13Z</time>
      </trkpt>
      <trkpt lat="43.22753" lon="5.61594">
        <ele>232.85546875</ele>
        <time>2018-03-25T08:30:14Z</time>
      </trkpt>
      <trkpt lat="43.22748" lon="5.61593">
        <ele>232.37890625</ele>
        <time>2018-03-25T08:30:15Z</time>
      </trkpt>
      <trkpt lat="43.22743" lon="5.61591">
        <ele>231.66796875</ele>
        <time>2018-03-25T08:30:16Z</time>
      </trkpt>
      <trkpt lat="43.22739" lon="5.61586">
        <ele>230.79296875</ele>
        <time>2018-03-25T08:30:17Z</time>
      </trkpt>
      <trkpt lat="43.22737" lon="5.61581">
        <ele>229.953125</ele>
        <time>2018-03-25T08:30:18Z</time>
      </trkpt>
      <trkpt lat="43.22735" lon="5.61572">
        <ele>228.515625</ele>
        <time>2018-03-25T08:30:20Z</time>
      </trkpt>
      <trkpt lat="43.22737" lon="5.61567">
        <ele>228.16015625</ele>
        <time>2018-03-25T08:30:21Z</time>
      </trkpt>
      <trkpt lat="43.2274" lon="5.61563">
        <ele>228.109375</ele>
        <time>2018-03-25T08:30:22Z</time>
      </trkpt>
      <trkpt lat="43.22743" lon="5.6156">
        <ele>228.1015625</ele>
        <time>2018-03-25T08:30:23Z</time>
      </trkpt>
      <trkpt lat="43.22748" lon="5.61546">
        <ele>227.6640625</ele>
        <time>2018-03-25T08:30:26Z</time>
      </trkpt>
      <trkpt lat="43.22749" lon="5.6154">
        <ele>227.66796875</ele>
        <time>2018-03-25T08:30:27Z</time>
      </trkpt>
      <trkpt lat="43.22749" lon="5.61534">
        <ele>227.609375</ele>
        <time>2018-03-25T08:30:28Z</time>
      </trkpt>
      <trkpt lat="43.2275" lon="5.61521">
        <ele>227.40234375</ele>
        <time>2018-03-25T08:30:30Z</time>
      </trkpt>
      <trkpt lat="43.2275" lon="5.61516">
        <ele>227.6015625</ele>
        <time>2018-03-25T08:30:31Z</time>
      </trkpt>
      <trkpt lat="43.22752" lon="5.6151">
        <ele>228.5625</ele>
        <time>2018-03-25T08:30:32Z</time>
      </trkpt>
      <trkpt lat="43.22756" lon="5.615">
        <ele>230.64453125</ele>
        <time>2018-03-25T08:30:34Z</time>
      </trkpt>
      <trkpt lat="43.22754" lon="5.61496">
        <ele>230.44921875</ele>
        <time>2018-03-25T08:30:35Z</time>
      </trkpt>
      <trkpt lat="43.22752" lon="5.61492">
        <ele>229.640625</ele>
        <time>2018-03-25T08:30:36Z</time>
      </trkpt>
      <trkpt lat="43.22748" lon="5.61489">
        <ele>228.49609375</ele>
        <time>2018-03-25T08:30:37Z</time>
      </trkpt>
      <trkpt lat="43.22744" lon="5.61486">
        <ele>227.20703125</ele>
        <time>2018-03-25T08:30:38Z</time>
      </trkpt>
      <trkpt lat="43.22729" lon="5.61478">
        <ele>222.2109375</ele>
        <time>2018-03-25T08:30:41Z</time>
      </trkpt>
      <trkpt lat="43.22724" lon="5.61476">
        <ele>221.91015625</ele>
        <time>2018-03-25T08:30:42Z</time>
      </trkpt>
      <trkpt lat="43.22702" lon="5.61476">
        <ele>223.2890625</ele>
        <time>2018-03-25T08:30:48Z</time>
      </trkpt>
      <trkpt lat="43.22689" lon="5.61479">
        <ele>223.20703125</ele>
        <time>2018-03-25T08:30:57Z</time>
      </trkpt>
      <trkpt lat="43.22687" lon="5.6148">
        <ele>223.1953125</ele>
        <time>2018-03-25T08:30:59Z</time>
      </trkpt>
      <trkpt lat="43.22684" lon="5.61481">
        <ele>223.25390625</ele>
        <time>2018-03-25T08:31:00Z</time>
      </trkpt>
      <trkpt lat="43.22678" lon="5.61487">
        <ele>223.64453125</ele>
        <time>2018-03-25T08:31:02Z</time>
      </trkpt>
      <trkpt lat="43.22674" lon="5.6149">
        <ele>223.84765625</ele>
        <time>2018-03-25T08:31:03Z</time>
      </trkpt>
      <trkpt lat="43.22664" lon="5.61498">
        <ele>223.39453125</ele>
        <time>2018-03-25T08:31:06Z</time>
      </trkpt>
      <trkpt lat="43.2266" lon="5.61504">
        <ele>223.28515625</ele>
        <time>2018-03-25T08:31:08Z</time>
      </trkpt>
      <trkpt lat="43.22655" lon="5.61507">
        <ele>222.53125</ele>
        <time>2018-03-25T08:31:09Z</time>
      </trkpt>
      <trkpt lat="43.2265" lon="5.61511">
        <ele>221.74609375</ele>
        <time>2018-03-25T08:31:10Z</time>
      </trkpt>
      <trkpt lat="43.22645" lon="5.61516">
        <ele>220.99609375</ele>
        <time>2018-03-25T08:31:11Z</time>
      </trkpt>
      <trkpt lat="43.22641" lon="5.61519">
        <ele>220.1171875</ele>
        <time>2018-03-25T08:31:12Z</time>
      </trkpt>
      <trkpt lat="43.22637" lon="5.61522">
        <ele>219.265625</ele>
        <time>2018-03-25T08:31:13Z</time>
      </trkpt>
      <trkpt lat="43.22634" lon="5.61525">
        <ele>218.37890625</ele>
        <time>2018-03-25T08:31:14Z</time>
      </trkpt>
      <trkpt lat="43.2263" lon="5.6153">
        <ele>217.53125</ele>
        <time>2018-03-25T08:31:15Z</time>
      </trkpt>
      <trkpt lat="43.22627" lon="5.61536">
        <ele>216.9609375</ele>
        <time>2018-03-25T08:31:16Z</time>
      </trkpt>
      <trkpt lat="43.2262" lon="5.61553">
        <ele>214.359375</ele>
        <time>2018-03-25T08:31:19Z</time>
      </trkpt>
      <trkpt lat="43.22616" lon="5.61555">
        <ele>212.4765625</ele>
        <time>2018-03-25T08:31:20Z</time>
      </trkpt>
      <trkpt lat="43.22611" lon="5.61558">
        <ele>209.85546875</ele>
        <time>2018-03-25T08:31:21Z</time>
      </trkpt>
      <trkpt lat="43.22607" lon="5.61561">
        <ele>207.12109375</ele>
        <time>2018-03-25T08:31:22Z</time>
      </trkpt>
      <trkpt lat="43.22603" lon="5.61564">
        <ele>204.671875</ele>
        <time>2018-03-25T08:31:23Z</time>
      </trkpt>
      <trkpt lat="43.226" lon="5.61567">
        <ele>202.55078125</ele>
        <time>2018-03-25T08:31:24Z</time>
      </trkpt>
      <trkpt lat="43.22597" lon="5.61571">
        <ele>200.19921875</ele>
        <time>2018-03-25T08:31:25Z</time>
      </trkpt>
      <trkpt lat="43.22593" lon="5.61576">
        <ele>197.65625</ele>
        <time>2018-03-25T08:31:26Z</time>
      </trkpt>
      <trkpt lat="43.22589" lon="5.6158">
        <ele>194.88671875</ele>
        <time>2018-03-25T08:31:27Z</time>
      </trkpt>
      <trkpt lat="43.22584" lon="5.61584">
        <ele>194.1953125</ele>
        <time>2018-03-25T08:31:28Z</time>
      </trkpt>
      <trkpt lat="43.22559" lon="5.61603">
        <ele>193.03515625</ele>
        <time>2018-03-25T08:31:33Z</time>
      </trkpt>
      <trkpt lat="43.22554" lon="5.61607">
        <ele>193.09765625</ele>
        <time>2018-03-25T08:31:34Z</time>
      </trkpt>
      <trkpt lat="43.2255" lon="5.61612">
        <ele>193.06640625</ele>
        <time>2018-03-25T08:31:35Z</time>
      </trkpt>
      <trkpt lat="43.22546" lon="5.61617">
        <ele>192.94921875</ele>
        <time>2018-03-25T08:31:36Z</time>
      </trkpt>
      <trkpt lat="43.22542" lon="5.61623">
        <ele>192.74609375</ele>
        <time>2018-03-25T08:31:37Z</time>
      </trkpt>
      <trkpt lat="43.2254" lon="5.61631">
        <ele>192.50390625</ele>
        <time>2018-03-25T08:31:38Z</time>
      </trkpt>
      <trkpt lat="43.22538" lon="5.61639">
        <ele>192.49609375</ele>
        <time>2018-03-25T08:31:39Z</time>
      </trkpt>
      <trkpt lat="43.22538" lon="5.61647">
        <ele>192.54296875</ele>
        <time>2018-03-25T08:31:40Z</time>
      </trkpt>
      <trkpt lat="43.22538" lon="5.61662">
        <ele>193.171875</ele>
        <time>2018-03-25T08:31:42Z</time>
      </trkpt>
      <trkpt lat="43.22539" lon="5.61671">
        <ele>194.328125</ele>
        <time>2018-03-25T08:31:43Z</time>
      </trkpt>
      <trkpt lat="43.22542" lon="5.61697">
        <ele>198.2265625</ele>
        <time>2018-03-25T08:31:46Z</time>
      </trkpt>
      <trkpt lat="43.22542" lon="5.61712">
        <ele>200.8125</ele>
        <time>2018-03-25T08:31:48Z</time>
      </trkpt>
      <trkpt lat="43.22542" lon="5.6172">
        <ele>202.8046875</ele>
        <time>2018-03-25T08:31:49Z</time>
      </trkpt>
      <trkpt lat="43.2254" lon="5.61728">
        <ele>204.10546875</ele>
        <time>2018-03-25T08:31:50Z</time>
      </trkpt>
      <trkpt lat="43.22537" lon="5.61734">
        <ele>204.87890625</ele>
        <time>2018-03-25T08:31:51Z</time>
      </trkpt>
      <trkpt lat="43.22535" lon="5.61739">
        <ele>205.1640625</ele>
        <time>2018-03-25T08:31:52Z</time>
      </trkpt>
      <trkpt lat="43.22531" lon="5.61743">
        <ele>204.9453125</ele>
        <time>2018-03-25T08:31:53Z</time>
      </trkpt>
      <trkpt lat="43.22526" lon="5.61746">
        <ele>204.515625</ele>
        <time>2018-03-25T08:31:54Z</time>
      </trkpt>
      <trkpt lat="43.22521" lon="5.61748">
        <ele>203.5859375</ele>
        <time>2018-03-25T08:31:55Z</time>
      </trkpt>
      <trkpt lat="43.22515" lon="5.61748">
        <ele>201.7734375</ele>
        <time>2018-03-25T08:31:56Z</time>
      </trkpt>
      <trkpt lat="43.22511" lon="5.61745">
        <ele>199.36328125</ele>
        <time>2018-03-25T08:31:57Z</time>
      </trkpt>
      <trkpt lat="43.22507" lon="5.61741">
        <ele>196.51171875</ele>
        <time>2018-03-25T08:31:58Z</time>
      </trkpt>
      <trkpt lat="43.22503" lon="5.61737">
        <ele>194.69921875</ele>
        <time>2018-03-25T08:31:59Z</time>
      </trkpt>
      <trkpt lat="43.22501" lon="5.61734">
        <ele>193.35546875</ele>
        <time>2018-03-25T08:32:00Z</time>
      </trkpt>
      <trkpt lat="43.22497" lon="5.61731">
        <ele>192.08984375</ele>
        <time>2018-03-25T08:32:01Z</time>
      </trkpt>
      <trkpt lat="43.22492" lon="5.61729">
        <ele>191.03515625</ele>
        <time>2018-03-25T08:32:02Z</time>
      </trkpt>
      <trkpt lat="43.22487" lon="5.61727">
        <ele>190</ele>
        <time>2018-03-25T08:32:03Z</time>
      </trkpt>
      <trkpt lat="43.22483" lon="5.61724">
        <ele>188.69140625</ele>
        <time>2018-03-25T08:32:04Z</time>
      </trkpt>
      <trkpt lat="43.22478" lon="5.61721">
        <ele>187.26953125</ele>
        <time>2018-03-25T08:32:05Z</time>
      </trkpt>
      <trkpt lat="43.22473" lon="5.61718">
        <ele>186.52734375</ele>
        <time>2018-03-25T08:32:06Z</time>
      </trkpt>
      <trkpt lat="43.22462" lon="5.61713">
        <ele>185.5625</ele>
        <time>2018-03-25T08:32:08Z</time>
      </trkpt>
      <trkpt lat="43.22439" lon="5.61714">
        <ele>185.9296875</ele>
        <time>2018-03-25T08:32:13Z</time>
      </trkpt>
      <trkpt lat="43.22434" lon="5.61718">
        <ele>186.6015625</ele>
        <time>2018-03-25T08:32:14Z</time>
      </trkpt>
      <trkpt lat="43.22429" lon="5.61721">
        <ele>187.1328125</ele>
        <time>2018-03-25T08:32:15Z</time>
      </trkpt>
      <trkpt lat="43.22415" lon="5.61728">
        <ele>188.25</ele>
        <time>2018-03-25T08:32:18Z</time>
      </trkpt>
      <trkpt lat="43.2241" lon="5.6173">
        <ele>188.19140625</ele>
        <time>2018-03-25T08:32:19Z</time>
      </trkpt>
      <trkpt lat="43.22406" lon="5.6173">
        <ele>187.96484375</ele>
        <time>2018-03-25T08:32:20Z</time>
      </trkpt>
      <trkpt lat="43.22402" lon="5.61729">
        <ele>187.3828125</ele>
        <time>2018-03-25T08:32:21Z</time>
      </trkpt>
      <trkpt lat="43.22398" lon="5.61726">
        <ele>186.5</ele>
        <time>2018-03-25T08:32:22Z</time>
      </trkpt>
      <trkpt lat="43.22395" lon="5.61721">
        <ele>185.51171875</ele>
        <time>2018-03-25T08:32:23Z</time>
      </trkpt>
      <trkpt lat="43.22387" lon="5.61713">
        <ele>183.02734375</ele>
        <time>2018-03-25T08:32:25Z</time>
      </trkpt>
      <trkpt lat="43.22383" lon="5.61711">
        <ele>182.5</ele>
        <time>2018-03-25T08:32:26Z</time>
      </trkpt>
      <trkpt lat="43.22379" lon="5.61711">
        <ele>181.953125</ele>
        <time>2018-03-25T08:32:27Z</time>
      </trkpt>
      <trkpt lat="43.22375" lon="5.6171">
        <ele>181.52734375</ele>
        <time>2018-03-25T08:32:28Z</time>
      </trkpt>
      <trkpt lat="43.22364" lon="5.6171">
        <ele>180.1015625</ele>
        <time>2018-03-25T08:32:31Z</time>
      </trkpt>
      <trkpt lat="43.22363" lon="5.61712">
        <ele>179.77734375</ele>
        <time>2018-03-25T08:32:32Z</time>
      </trkpt>
      <trkpt lat="43.22352" lon="5.6172">
        <ele>178.8828125</ele>
        <time>2018-03-25T08:32:35Z</time>
      </trkpt>
      <trkpt lat="43.22348" lon="5.61727">
        <ele>178.8671875</ele>
        <time>2018-03-25T08:32:36Z</time>
      </trkpt>
      <trkpt lat="43.22345" lon="5.61734">
        <ele>178.8125</ele>
        <time>2018-03-25T08:32:37Z</time>
      </trkpt>
      <trkpt lat="43.2234" lon="5.61758">
        <ele>179.59375</ele>
        <time>2018-03-25T08:32:41Z</time>
      </trkpt>
      <trkpt lat="43.22342" lon="5.61765">
        <ele>180.49609375</ele>
        <time>2018-03-25T08:32:42Z</time>
      </trkpt>
      <trkpt lat="43.22342" lon="5.6177">
        <ele>181.0703125</ele>
        <time>2018-03-25T08:32:43Z</time>
      </trkpt>
      <trkpt lat="43.22341" lon="5.61776">
        <ele>181.28125</ele>
        <time>2018-03-25T08:32:44Z</time>
      </trkpt>
      <trkpt lat="43.22341" lon="5.61779">
        <ele>181.44140625</ele>
        <time>2018-03-25T08:32:45Z</time>
      </trkpt>
      <trkpt lat="43.22341" lon="5.61782">
        <ele>181.546875</ele>
        <time>2018-03-25T08:32:46Z</time>
      </trkpt>
      <trkpt lat="43.22336" lon="5.61787">
        <ele>180.5546875</ele>
        <time>2018-03-25T08:33:01Z</time>
      </trkpt>
      <trkpt lat="43.22334" lon="5.61789">
        <ele>180.24609375</ele>
        <time>2018-03-25T08:33:29Z</time>
      </trkpt>
      <trkpt lat="43.22339" lon="5.61812">
        <ele>183.43359375</ele>
        <time>2018-03-25T08:33:47Z</time>
      </trkpt>
      <trkpt lat="43.22337" lon="5.61826">
        <ele>183.51953125</ele>
        <time>2018-03-25T08:33:51Z</time>
      </trkpt>
      <trkpt lat="43.22336" lon="5.61828">
        <ele>183.0546875</ele>
        <time>2018-03-25T08:33:52Z</time>
      </trkpt>
      <trkpt lat="43.22334" lon="5.6183">
        <ele>182.4609375</ele>
        <time>2018-03-25T08:33:53Z</time>
      </trkpt>
      <trkpt lat="43.22332" lon="5.61834">
        <ele>181.67578125</ele>
        <time>2018-03-25T08:33:54Z</time>
      </trkpt>
      <trkpt lat="43.2233" lon="5.61837">
        <ele>180.62890625</ele>
        <time>2018-03-25T08:33:55Z</time>
      </trkpt>
      <trkpt lat="43.22318" lon="5.61856">
        <ele>175.515625</ele>
        <time>2018-03-25T08:34:00Z</time>
      </trkpt>
      <trkpt lat="43.22315" lon="5.61861">
        <ele>174.3125</ele>
        <time>2018-03-25T08:34:01Z</time>
      </trkpt>
      <trkpt lat="43.22314" lon="5.61867">
        <ele>173.578125</ele>
        <time>2018-03-25T08:34:02Z</time>
      </trkpt>
      <trkpt lat="43.22313" lon="5.61871">
        <ele>173.13671875</ele>
        <time>2018-03-25T08:34:03Z</time>
      </trkpt>
      <trkpt lat="43.22313" lon="5.61876">
        <ele>172.8203125</ele>
        <time>2018-03-25T08:34:04Z</time>
      </trkpt>
      <trkpt lat="43.22313" lon="5.6188">
        <ele>173.01953125</ele>
        <time>2018-03-25T08:34:05Z</time>
      </trkpt>
      <trkpt lat="43.22315" lon="5.61883">
        <ele>173.65234375</ele>
        <time>2018-03-25T08:34:06Z</time>
      </trkpt>
      <trkpt lat="43.22318" lon="5.61886">
        <ele>174.49609375</ele>
        <time>2018-03-25T08:34:07Z</time>
      </trkpt>
      <trkpt lat="43.22321" lon="5.61888">
        <ele>175.40625</ele>
        <time>2018-03-25T08:34:08Z</time>
      </trkpt>
      <trkpt lat="43.22323" lon="5.61891">
        <ele>176.01953125</ele>
        <time>2018-03-25T08:34:09Z</time>
      </trkpt>
      <trkpt lat="43.22324" lon="5.61895">
        <ele>176.49609375</ele>
        <time>2018-03-25T08:34:10Z</time>
      </trkpt>
      <trkpt lat="43.22329" lon="5.61923">
        <ele>175.89453125</ele>
        <time>2018-03-25T08:34:20Z</time>
      </trkpt>
      <trkpt lat="43.22331" lon="5.61936">
        <ele>175.25390625</ele>
        <time>2018-03-25T08:34:24Z</time>
      </trkpt>
      <trkpt lat="43.22331" lon="5.61941">
        <ele>174.8671875</ele>
        <time>2018-03-25T08:34:25Z</time>
      </trkpt>
      <trkpt lat="43.22331" lon="5.61945">
        <ele>174.59765625</ele>
        <time>2018-03-25T08:34:26Z</time>
      </trkpt>
      <trkpt lat="43.22344" lon="5.61988">
        <ele>175.5390625</ele>
        <time>2018-03-25T08:34:36Z</time>
      </trkpt>
      <trkpt lat="43.22344" lon="5.61994">
        <ele>174.78515625</ele>
        <time>2018-03-25T08:34:37Z</time>
      </trkpt>
      <trkpt lat="43.22344" lon="5.62001">
        <ele>174.25390625</ele>
        <time>2018-03-25T08:34:38Z</time>
      </trkpt>
      <trkpt lat="43.22345" lon="5.62023">
        <ele>173.92578125</ele>
        <time>2018-03-25T08:34:41Z</time>
      </trkpt>
      <trkpt lat="43.22343" lon="5.6204">
        <ele>172.953125</ele>
        <time>2018-03-25T08:34:44Z</time>
      </trkpt>
      <trkpt lat="43.22342" lon="5.62055">
        <ele>172.76171875</ele>
        <time>2018-03-25T08:34:47Z</time>
      </trkpt>
      <trkpt lat="43.2234" lon="5.62067">
        <ele>172.3046875</ele>
        <time>2018-03-25T08:34:49Z</time>
      </trkpt>
      <trkpt lat="43.22337" lon="5.62075">
        <ele>171.12109375</ele>
        <time>2018-03-25T08:34:51Z</time>
      </trkpt>
      <trkpt lat="43.2233" lon="5.62086">
        <ele>168.703125</ele>
        <time>2018-03-25T08:34:54Z</time>
      </trkpt>
      <trkpt lat="43.22326" lon="5.62093">
        <ele>167.34765625</ele>
        <time>2018-03-25T08:34:57Z</time>
      </trkpt>
      <trkpt lat="43.22326" lon="5.62096">
        <ele>167.3828125</ele>
        <time>2018-03-25T08:34:58Z</time>
      </trkpt>
      <trkpt lat="43.22325" lon="5.621">
        <ele>167.48046875</ele>
        <time>2018-03-25T08:34:59Z</time>
      </trkpt>
      <trkpt lat="43.22325" lon="5.62105">
        <ele>167.8046875</ele>
        <time>2018-03-25T08:35:00Z</time>
      </trkpt>
      <trkpt lat="43.22324" lon="5.6211">
        <ele>167.92578125</ele>
        <time>2018-03-25T08:35:01Z</time>
      </trkpt>
      <trkpt lat="43.22322" lon="5.62114">
        <ele>167.51171875</ele>
        <time>2018-03-25T08:35:02Z</time>
      </trkpt>
      <trkpt lat="43.2232" lon="5.62118">
        <ele>167.078125</ele>
        <time>2018-03-25T08:35:03Z</time>
      </trkpt>
      <trkpt lat="43.22319" lon="5.62122">
        <ele>166.7890625</ele>
        <time>2018-03-25T08:35:04Z</time>
      </trkpt>
      <trkpt lat="43.22317" lon="5.62126">
        <ele>166.3203125</ele>
        <time>2018-03-25T08:35:05Z</time>
      </trkpt>
      <trkpt lat="43.22306" lon="5.62144">
        <ele>163.5546875</ele>
        <time>2018-03-25T08:35:11Z</time>
      </trkpt>
      <trkpt lat="43.22304" lon="5.62146">
        <ele>162.99609375</ele>
        <time>2018-03-25T08:35:12Z</time>
      </trkpt>
      <trkpt lat="43.22302" lon="5.62149">
        <ele>162.39453125</ele>
        <time>2018-03-25T08:35:13Z</time>
      </trkpt>
      <trkpt lat="43.223" lon="5.62151">
        <ele>161.66796875</ele>
        <time>2018-03-25T08:35:14Z</time>
      </trkpt>
      <trkpt lat="43.22293" lon="5.62166">
        <ele>159.62109375</ele>
        <time>2018-03-25T08:35:18Z</time>
      </trkpt>
      <trkpt lat="43.22293" lon="5.6217">
        <ele>160.0078125</ele>
        <time>2018-03-25T08:35:19Z</time>
      </trkpt>
      <trkpt lat="43.22294" lon="5.62174">
        <ele>160.703125</ele>
        <time>2018-03-25T08:35:20Z</time>
      </trkpt>
      <trkpt lat="43.22295" lon="5.62179">
        <ele>161.4140625</ele>
        <time>2018-03-25T08:35:21Z</time>
      </trkpt>
      <trkpt lat="43.22295" lon="5.62182">
        <ele>161.62890625</ele>
        <time>2018-03-25T08:35:22Z</time>
      </trkpt>
      <trkpt lat="43.22294" lon="5.62185">
        <ele>161.38671875</ele>
        <time>2018-03-25T08:35:23Z</time>
      </trkpt>
      <trkpt lat="43.22289" lon="5.62196">
        <ele>159.33984375</ele>
        <time>2018-03-25T08:35:32Z</time>
      </trkpt>
      <trkpt lat="43.22288" lon="5.62201">
        <ele>159.1640625</ele>
        <time>2018-03-25T08:35:33Z</time>
      </trkpt>
      <trkpt lat="43.22287" lon="5.62207">
        <ele>159.0078125</ele>
        <time>2018-03-25T08:35:34Z</time>
      </trkpt>
      <trkpt lat="43.22285" lon="5.62218">
        <ele>158.2734375</ele>
        <time>2018-03-25T08:35:36Z</time>
      </trkpt>
      <trkpt lat="43.22283" lon="5.62223">
        <ele>157.890625</ele>
        <time>2018-03-25T08:35:37Z</time>
      </trkpt>
      <trkpt lat="43.22282" lon="5.62228">
        <ele>157.5859375</ele>
        <time>2018-03-25T08:35:38Z</time>
      </trkpt>
      <trkpt lat="43.22281" lon="5.62232">
        <ele>157.05859375</ele>
        <time>2018-03-25T08:35:39Z</time>
      </trkpt>
      <trkpt lat="43.22279" lon="5.62236">
        <ele>156.38671875</ele>
        <time>2018-03-25T08:35:40Z</time>
      </trkpt>
      <trkpt lat="43.22277" lon="5.62241">
        <ele>155.75</ele>
        <time>2018-03-25T08:35:41Z</time>
      </trkpt>
      <trkpt lat="43.22264" lon="5.62261">
        <ele>150.0859375</ele>
        <time>2018-03-25T08:35:47Z</time>
      </trkpt>
      <trkpt lat="43.22263" lon="5.62263">
        <ele>149.7421875</ele>
        <time>2018-03-25T08:35:48Z</time>
      </trkpt>
      <trkpt lat="43.22261" lon="5.62265">
        <ele>149.2578125</ele>
        <time>2018-03-25T08:35:49Z</time>
      </trkpt>
      <trkpt lat="43.2226" lon="5.62268">
        <ele>148.72265625</ele>
        <time>2018-03-25T08:35:50Z</time>
      </trkpt>
      <trkpt lat="43.22259" lon="5.62271">
        <ele>148.12109375</ele>
        <time>2018-03-25T08:35:51Z</time>
      </trkpt>
      <trkpt lat="43.22257" lon="5.62273">
        <ele>147.58984375</ele>
        <time>2018-03-25T08:35:52Z</time>
      </trkpt>
      <trkpt lat="43.22256" lon="5.62277">
        <ele>147.24609375</ele>
        <time>2018-03-25T08:35:53Z</time>
      </trkpt>
      <trkpt lat="43.22254" lon="5.62281">
        <ele>147</ele>
        <time>2018-03-25T08:35:54Z</time>
      </trkpt>
      <trkpt lat="43.22253" lon="5.62283">
        <ele>146.62890625</ele>
        <time>2018-03-25T08:35:55Z</time>
      </trkpt>
      <trkpt lat="43.22251" lon="5.62285">
        <ele>146.22265625</ele>
        <time>2018-03-25T08:35:56Z</time>
      </trkpt>
      <trkpt lat="43.22245" lon="5.62295">
        <ele>144.51171875</ele>
        <time>2018-03-25T08:36:00Z</time>
      </trkpt>
      <trkpt lat="43.22244" lon="5.62298">
        <ele>144.234375</ele>
        <time>2018-03-25T08:36:01Z</time>
      </trkpt>
      <trkpt lat="43.22243" lon="5.62302">
        <ele>143.76171875</ele>
        <time>2018-03-25T08:36:02Z</time>
      </trkpt>
      <trkpt lat="43.22241" lon="5.62306">
        <ele>143.3515625</ele>
        <time>2018-03-25T08:36:03Z</time>
      </trkpt>
      <trkpt lat="43.2224" lon="5.6231">
        <ele>142.78515625</ele>
        <time>2018-03-25T08:36:04Z</time>
      </trkpt>
      <trkpt lat="43.22239" lon="5.62314">
        <ele>142.234375</ele>
        <time>2018-03-25T08:36:05Z</time>
      </trkpt>
      <trkpt lat="43.22238" lon="5.62317">
        <ele>141.59765625</ele>
        <time>2018-03-25T08:36:06Z</time>
      </trkpt>
      <trkpt lat="43.22236" lon="5.62321">
        <ele>140.9609375</ele>
        <time>2018-03-25T08:36:07Z</time>
      </trkpt>
      <trkpt lat="43.22235" lon="5.62325">
        <ele>140.3125</ele>
        <time>2018-03-25T08:36:08Z</time>
      </trkpt>
      <trkpt lat="43.22235" lon="5.62328">
        <ele>139.72265625</ele>
        <time>2018-03-25T08:36:09Z</time>
      </trkpt>
      <trkpt lat="43.22233" lon="5.62332">
        <ele>138.90625</ele>
        <time>2018-03-25T08:36:10Z</time>
      </trkpt>
      <trkpt lat="43.22232" lon="5.62335">
        <ele>137.69140625</ele>
        <time>2018-03-25T08:36:11Z</time>
      </trkpt>
      <trkpt lat="43.2223" lon="5.62338">
        <ele>136.67578125</ele>
        <time>2018-03-25T08:36:12Z</time>
      </trkpt>
      <trkpt lat="43.22228" lon="5.62342">
        <ele>135.50390625</ele>
        <time>2018-03-25T08:36:13Z</time>
      </trkpt>
      <trkpt lat="43.22226" lon="5.62347">
        <ele>134.6796875</ele>
        <time>2018-03-25T08:36:14Z</time>
      </trkpt>
      <trkpt lat="43.22224" lon="5.62352">
        <ele>134.0625</ele>
        <time>2018-03-25T08:36:15Z</time>
      </trkpt>
      <trkpt lat="43.22223" lon="5.62357">
        <ele>133.61328125</ele>
        <time>2018-03-25T08:36:16Z</time>
      </trkpt>
      <trkpt lat="43.22222" lon="5.6236">
        <ele>133.21875</ele>
        <time>2018-03-25T08:36:17Z</time>
      </trkpt>
      <trkpt lat="43.22221" lon="5.62364">
        <ele>132.8203125</ele>
        <time>2018-03-25T08:36:18Z</time>
      </trkpt>
      <trkpt lat="43.2222" lon="5.62368">
        <ele>132.3984375</ele>
        <time>2018-03-25T08:36:19Z</time>
      </trkpt>
      <trkpt lat="43.22219" lon="5.62372">
        <ele>132.00390625</ele>
        <time>2018-03-25T08:36:20Z</time>
      </trkpt>
      <trkpt lat="43.22218" lon="5.62376">
        <ele>131.6171875</ele>
        <time>2018-03-25T08:36:21Z</time>
      </trkpt>
      <trkpt lat="43.22201" lon="5.62416">
        <ele>126.3125</ele>
        <time>2018-03-25T08:36:31Z</time>
      </trkpt>
      <trkpt lat="43.22193" lon="5.6244">
        <ele>125.890625</ele>
        <time>2018-03-25T08:36:42Z</time>
      </trkpt>
      <trkpt lat="43.22192" lon="5.62447">
        <ele>126.078125</ele>
        <time>2018-03-25T08:36:48Z</time>
      </trkpt>
      <trkpt lat="43.2218" lon="5.62453">
        <ele>126.6875</ele>
        <time>2018-03-25T08:36:54Z</time>
      </trkpt>
      <trkpt lat="43.22176" lon="5.62452">
        <ele>126.734375</ele>
        <time>2018-03-25T08:36:55Z</time>
      </trkpt>
      <trkpt lat="43.22168" lon="5.62447">
        <ele>126.37890625</ele>
        <time>2018-03-25T08:36:57Z</time>
      </trkpt>
      <trkpt lat="43.22156" lon="5.62425">
        <ele>124.03515625</ele>
        <time>2018-03-25T08:37:01Z</time>
      </trkpt>
      <trkpt lat="43.22153" lon="5.6242">
        <ele>123.3046875</ele>
        <time>2018-03-25T08:37:02Z</time>
      </trkpt>
      <trkpt lat="43.2215" lon="5.62414">
        <ele>122.42578125</ele>
        <time>2018-03-25T08:37:03Z</time>
      </trkpt>
      <trkpt lat="43.22148" lon="5.62409">
        <ele>121.54296875</ele>
        <time>2018-03-25T08:37:04Z</time>
      </trkpt>
      <trkpt lat="43.22145" lon="5.62406">
        <ele>121.14453125</ele>
        <time>2018-03-25T08:37:05Z</time>
      </trkpt>
      <trkpt lat="43.22142" lon="5.62405">
        <ele>120.83984375</ele>
        <time>2018-03-25T08:37:06Z</time>
      </trkpt>
      <trkpt lat="43.2214" lon="5.62404">
        <ele>120.56640625</ele>
        <time>2018-03-25T08:37:07Z</time>
      </trkpt>
      <trkpt lat="43.22137" lon="5.62403">
        <ele>120.2578125</ele>
        <time>2018-03-25T08:37:08Z</time>
      </trkpt>
      <trkpt lat="43.22135" lon="5.62402">
        <ele>119.97265625</ele>
        <time>2018-03-25T08:37:09Z</time>
      </trkpt>
      <trkpt lat="43.22112" lon="5.62403">
        <ele>117.9140625</ele>
        <time>2018-03-25T08:37:21Z</time>
      </trkpt>
      <trkpt lat="43.22084" lon="5.62421">
        <ele>123.6875</ele>
        <time>2018-03-25T08:37:34Z</time>
      </trkpt>
      <trkpt lat="43.22062" lon="5.62426">
        <ele>126.33984375</ele>
        <time>2018-03-25T08:37:46Z</time>
      </trkpt>
      <trkpt lat="43.22049" lon="5.62435">
        <ele>127.68359375</ele>
        <time>2018-03-25T08:37:56Z</time>
      </trkpt>
      <trkpt lat="43.22048" lon="5.62436">
        <ele>127.8515625</ele>
        <time>2018-03-25T08:37:57Z</time>
      </trkpt>
      <trkpt lat="43.22047" lon="5.62437">
        <ele>128.04296875</ele>
        <time>2018-03-25T08:37:58Z</time>
      </trkpt>
      <trkpt lat="43.22046" lon="5.62438">
        <ele>128.21875</ele>
        <time>2018-03-25T08:37:59Z</time>
      </trkpt>
      <trkpt lat="43.22045" lon="5.62439">
        <ele>128.52734375</ele>
        <time>2018-03-25T08:38:00Z</time>
      </trkpt>
      <trkpt lat="43.22044" lon="5.62441">
        <ele>128.96484375</ele>
        <time>2018-03-25T08:38:01Z</time>
      </trkpt>
      <trkpt lat="43.22043" lon="5.62442">
        <ele>129.359375</ele>
        <time>2018-03-25T08:38:02Z</time>
      </trkpt>
      <trkpt lat="43.22042" lon="5.62443">
        <ele>129.5546875</ele>
        <time>2018-03-25T08:38:03Z</time>
      </trkpt>
      <trkpt lat="43.22039" lon="5.62447">
        <ele>130.37890625</ele>
        <time>2018-03-25T08:38:06Z</time>
      </trkpt>
      <trkpt lat="43.22037" lon="5.62449">
        <ele>130.8046875</ele>
        <time>2018-03-25T08:38:08Z</time>
      </trkpt>
      <trkpt lat="43.22035" lon="5.6245">
        <ele>131.11328125</ele>
        <time>2018-03-25T08:38:09Z</time>
      </trkpt>
      <trkpt lat="43.22034" lon="5.62451">
        <ele>131.34375</ele>
        <time>2018-03-25T08:38:10Z</time>
      </trkpt>
      <trkpt lat="43.22031" lon="5.62456">
        <ele>132.56640625</ele>
        <time>2018-03-25T08:38:13Z</time>
      </trkpt>
      <trkpt lat="43.2203" lon="5.62457">
        <ele>132.8125</ele>
        <time>2018-03-25T08:38:14Z</time>
      </trkpt>
      <trkpt lat="43.22026" lon="5.62461">
        <ele>133.50390625</ele>
        <time>2018-03-25T08:38:19Z</time>
      </trkpt>
      <trkpt lat="43.22025" lon="5.62462">
        <ele>133.80078125</ele>
        <time>2018-03-25T08:38:20Z</time>
      </trkpt>
      <trkpt lat="43.22024" lon="5.62463">
        <ele>133.9765625</ele>
        <time>2018-03-25T08:38:21Z</time>
      </trkpt>
      <trkpt lat="43.22008" lon="5.62476">
        <ele>135.90625</ele>
        <time>2018-03-25T08:38:36Z</time>
      </trkpt>
      <trkpt lat="43.21994" lon="5.62477">
        <ele>134.25390625</ele>
        <time>2018-03-25T08:38:49Z</time>
      </trkpt>
      <trkpt lat="43.21976" lon="5.6248">
        <ele>132.87890625</ele>
        <time>2018-03-25T08:39:03Z</time>
      </trkpt>
      <trkpt lat="43.21975" lon="5.62479">
        <ele>132.55078125</ele>
        <time>2018-03-25T08:39:04Z</time>
      </trkpt>
      <trkpt lat="43.21974" lon="5.62479">
        <ele>132.31640625</ele>
        <time>2018-03-25T08:39:05Z</time>
      </trkpt>
      <trkpt lat="43.21973" lon="5.62479">
        <ele>132.2734375</ele>
        <time>2018-03-25T08:39:06Z</time>
      </trkpt>
      <trkpt lat="43.21972" lon="5.62479">
        <ele>132.12109375</ele>
        <time>2018-03-25T08:39:07Z</time>
      </trkpt>
      <trkpt lat="43.21971" lon="5.62478">
        <ele>131.98828125</ele>
        <time>2018-03-25T08:39:08Z</time>
      </trkpt>
      <trkpt lat="43.21969" lon="5.6248">
        <ele>132.28125</ele>
        <time>2018-03-25T08:39:10Z</time>
      </trkpt>
      <trkpt lat="43.21968" lon="5.62481">
        <ele>132.48828125</ele>
        <time>2018-03-25T08:39:11Z</time>
      </trkpt>
      <trkpt lat="43.21967" lon="5.62482">
        <ele>132.6640625</ele>
        <time>2018-03-25T08:39:12Z</time>
      </trkpt>
      <trkpt lat="43.21966" lon="5.62483">
        <ele>132.82421875</ele>
        <time>2018-03-25T08:39:13Z</time>
      </trkpt>
      <trkpt lat="43.21953" lon="5.62488">
        <ele>133.37109375</ele>
        <time>2018-03-25T08:39:26Z</time>
      </trkpt>
      <trkpt lat="43.21945" lon="5.62494">
        <ele>134.515625</ele>
        <time>2018-03-25T08:39:33Z</time>
      </trkpt>
      <trkpt lat="43.2194" lon="5.62496">
        <ele>134.9140625</ele>
        <time>2018-03-25T08:39:38Z</time>
      </trkpt>
      <trkpt lat="43.21939" lon="5.62496">
        <ele>134.859375</ele>
        <time>2018-03-25T08:39:39Z</time>
      </trkpt>
      <trkpt lat="43.21935" lon="5.62498">
        <ele>135.23046875</ele>
        <time>2018-03-25T08:39:42Z</time>
      </trkpt>
      <trkpt lat="43.21931" lon="5.62501">
        <ele>135.734375</ele>
        <time>2018-03-25T08:39:46Z</time>
      </trkpt>
      <trkpt lat="43.2193" lon="5.62502">
        <ele>135.87890625</ele>
        <time>2018-03-25T08:39:47Z</time>
      </trkpt>
      <trkpt lat="43.21914" lon="5.62513">
        <ele>137.1328125</ele>
        <time>2018-03-25T08:40:00Z</time>
      </trkpt>
      <trkpt lat="43.21913" lon="5.62515">
        <ele>137.28125</ele>
        <time>2018-03-25T08:40:01Z</time>
      </trkpt>
      <trkpt lat="43.21913" lon="5.62516">
        <ele>137.41015625</ele>
        <time>2018-03-25T08:40:02Z</time>
      </trkpt>
      <trkpt lat="43.21912" lon="5.62517">
        <ele>137.53515625</ele>
        <time>2018-03-25T08:40:03Z</time>
      </trkpt>
      <trkpt lat="43.21911" lon="5.62518">
        <ele>137.671875</ele>
        <time>2018-03-25T08:40:04Z</time>
      </trkpt>
      <trkpt lat="43.21909" lon="5.62519">
        <ele>137.7109375</ele>
        <time>2018-03-25T08:40:05Z</time>
      </trkpt>
      <trkpt lat="43.21908" lon="5.6252">
        <ele>137.71484375</ele>
        <time>2018-03-25T08:40:06Z</time>
      </trkpt>
      <trkpt lat="43.21903" lon="5.62526">
        <ele>138.0859375</ele>
        <time>2018-03-25T08:40:11Z</time>
      </trkpt>
      <trkpt lat="43.21903" lon="5.62527">
        <ele>138.2109375</ele>
        <time>2018-03-25T08:40:12Z</time>
      </trkpt>
      <trkpt lat="43.21902" lon="5.62528">
        <ele>138.23046875</ele>
        <time>2018-03-25T08:40:13Z</time>
      </trkpt>
      <trkpt lat="43.21901" lon="5.62529">
        <ele>138.22265625</ele>
        <time>2018-03-25T08:40:14Z</time>
      </trkpt>
      <trkpt lat="43.21899" lon="5.6253">
        <ele>138.203125</ele>
        <time>2018-03-25T08:40:15Z</time>
      </trkpt>
      <trkpt lat="43.21898" lon="5.62531">
        <ele>138.20703125</ele>
        <time>2018-03-25T08:40:16Z</time>
      </trkpt>
      <trkpt lat="43.21897" lon="5.62532">
        <ele>138.2265625</ele>
        <time>2018-03-25T08:40:17Z</time>
      </trkpt>
      <trkpt lat="43.21896" lon="5.62532">
        <ele>138.21875</ele>
        <time>2018-03-25T08:40:18Z</time>
      </trkpt>
      <trkpt lat="43.21893" lon="5.62536">
        <ele>138.44140625</ele>
        <time>2018-03-25T08:40:21Z</time>
      </trkpt>
      <trkpt lat="43.21892" lon="5.62538">
        <ele>138.5703125</ele>
        <time>2018-03-25T08:40:22Z</time>
      </trkpt>
      <trkpt lat="43.21891" lon="5.62539">
        <ele>138.734375</ele>
        <time>2018-03-25T08:40:23Z</time>
      </trkpt>
      <trkpt lat="43.21891" lon="5.62541">
        <ele>138.83203125</ele>
        <time>2018-03-25T08:40:24Z</time>
      </trkpt>
      <trkpt lat="43.2189" lon="5.62542">
        <ele>138.875</ele>
        <time>2018-03-25T08:40:25Z</time>
      </trkpt>
      <trkpt lat="43.21889" lon="5.62543">
        <ele>138.98828125</ele>
        <time>2018-03-25T08:40:26Z</time>
      </trkpt>
      <trkpt lat="43.21888" lon="5.62545">
        <ele>139.11328125</ele>
        <time>2018-03-25T08:40:27Z</time>
      </trkpt>
      <trkpt lat="43.21887" lon="5.62557">
        <ele>139.92578125</ele>
        <time>2018-03-25T08:40:41Z</time>
      </trkpt>
      <trkpt lat="43.21885" lon="5.62557">
        <ele>139.75390625</ele>
        <time>2018-03-25T08:41:04Z</time>
      </trkpt>
      <trkpt lat="43.21884" lon="5.62558">
        <ele>139.734375</ele>
        <time>2018-03-25T08:41:20Z</time>
      </trkpt>
      <trkpt lat="43.21885" lon="5.62558">
        <ele>139.875</ele>
        <time>2018-03-25T08:41:45Z</time>
      </trkpt>
      <trkpt lat="43.21885" lon="5.62558">
        <ele>139.8125</ele>
        <time>2018-03-25T08:42:08Z</time>
      </trkpt>
      <trkpt lat="43.21883" lon="5.62556">
        <ele>139.43359375</ele>
        <time>2018-03-25T08:42:36Z</time>
      </trkpt>
      <trkpt lat="43.21883" lon="5.62557">
        <ele>139.5625</ele>
        <time>2018-03-25T08:43:15Z</time>
      </trkpt>
      <trkpt lat="43.21885" lon="5.62559">
        <ele>139.921875</ele>
        <time>2018-03-25T08:43:42Z</time>
      </trkpt>
      <trkpt lat="43.21886" lon="5.6256">
        <ele>140.1328125</ele>
        <time>2018-03-25T08:43:44Z</time>
      </trkpt>
      <trkpt lat="43.21887" lon="5.62561">
        <ele>140.23828125</ele>
        <time>2018-03-25T08:43:45Z</time>
      </trkpt>
      <trkpt lat="43.21888" lon="5.6256">
        <ele>140.3515625</ele>
        <time>2018-03-25T08:43:46Z</time>
      </trkpt>
      <trkpt lat="43.2189" lon="5.62561">
        <ele>140.55078125</ele>
        <time>2018-03-25T08:43:47Z</time>
      </trkpt>
      <trkpt lat="43.21891" lon="5.62562">
        <ele>140.76953125</ele>
        <time>2018-03-25T08:43:48Z</time>
      </trkpt>
      <trkpt lat="43.21894" lon="5.62564">
        <ele>141.17578125</ele>
        <time>2018-03-25T08:43:50Z</time>
      </trkpt>
      <trkpt lat="43.21895" lon="5.62565">
        <ele>141.40625</ele>
        <time>2018-03-25T08:43:51Z</time>
      </trkpt>
      <trkpt lat="43.21896" lon="5.62567">
        <ele>141.6953125</ele>
        <time>2018-03-25T08:43:52Z</time>
      </trkpt>
      <trkpt lat="43.21912" lon="5.62577">
        <ele>144.6640625</ele>
        <time>2018-03-25T08:44:05Z</time>
      </trkpt>
      <trkpt lat="43.21925" lon="5.62581">
        <ele>146.54296875</ele>
        <time>2018-03-25T08:44:15Z</time>
      </trkpt>
      <trkpt lat="43.21926" lon="5.62581">
        <ele>146.68359375</ele>
        <time>2018-03-25T08:44:16Z</time>
      </trkpt>
      <trkpt lat="43.21927" lon="5.62581">
        <ele>146.80078125</ele>
        <time>2018-03-25T08:44:17Z</time>
      </trkpt>
      <trkpt lat="43.21944" lon="5.62587">
        <ele>148.82421875</ele>
        <time>2018-03-25T08:44:33Z</time>
      </trkpt>
      <trkpt lat="43.21957" lon="5.62592">
        <ele>150.42578125</ele>
        <time>2018-03-25T08:44:45Z</time>
      </trkpt>
      <trkpt lat="43.21958" lon="5.62592">
        <ele>150.5625</ele>
        <time>2018-03-25T08:44:46Z</time>
      </trkpt>
      <trkpt lat="43.2196" lon="5.62592">
        <ele>150.6953125</ele>
        <time>2018-03-25T08:44:47Z</time>
      </trkpt>
      <trkpt lat="43.21961" lon="5.62593">
        <ele>150.83203125</ele>
        <time>2018-03-25T08:44:48Z</time>
      </trkpt>
      <trkpt lat="43.21961" lon="5.62594">
        <ele>150.953125</ele>
        <time>2018-03-25T08:44:49Z</time>
      </trkpt>
      <trkpt lat="43.21963" lon="5.62595">
        <ele>151.1640625</ele>
        <time>2018-03-25T08:44:51Z</time>
      </trkpt>
      <trkpt lat="43.21964" lon="5.62595">
        <ele>151.296875</ele>
        <time>2018-03-25T08:44:52Z</time>
      </trkpt>
      <trkpt lat="43.21965" lon="5.62595">
        <ele>151.4296875</ele>
        <time>2018-03-25T08:44:53Z</time>
      </trkpt>
      <trkpt lat="43.21967" lon="5.62595">
        <ele>151.56640625</ele>
        <time>2018-03-25T08:44:54Z</time>
      </trkpt>
      <trkpt lat="43.21968" lon="5.62596">
        <ele>151.78125</ele>
        <time>2018-03-25T08:44:55Z</time>
      </trkpt>
      <trkpt lat="43.2197" lon="5.62597">
        <ele>151.96484375</ele>
        <time>2018-03-25T08:44:56Z</time>
      </trkpt>
      <trkpt lat="43.21971" lon="5.62598">
        <ele>152.11328125</ele>
        <time>2018-03-25T08:44:57Z</time>
      </trkpt>
      <trkpt lat="43.21974" lon="5.62599">
        <ele>152.4609375</ele>
        <time>2018-03-25T08:44:59Z</time>
      </trkpt>
      <trkpt lat="43.21985" lon="5.62601">
        <ele>153.77734375</ele>
        <time>2018-03-25T08:45:09Z</time>
      </trkpt>
      <trkpt lat="43.21988" lon="5.62601">
        <ele>154.1171875</ele>
        <time>2018-03-25T08:45:12Z</time>
      </trkpt>
      <trkpt lat="43.22008" lon="5.62604">
        <ele>156.1796875</ele>
        <time>2018-03-25T08:45:29Z</time>
      </trkpt>
      <trkpt lat="43.22034" lon="5.62602">
        <ele>159.0546875</ele>
        <time>2018-03-25T08:45:49Z</time>
      </trkpt>
      <trkpt lat="43.22042" lon="5.62602">
        <ele>159.93359375</ele>
        <time>2018-03-25T08:45:56Z</time>
      </trkpt>
      <trkpt lat="43.2205" lon="5.62603">
        <ele>160.765625</ele>
        <time>2018-03-25T08:46:03Z</time>
      </trkpt>
      <trkpt lat="43.22071" lon="5.62603">
        <ele>162.69140625</ele>
        <time>2018-03-25T08:46:21Z</time>
      </trkpt>
      <trkpt lat="43.22089" lon="5.62606">
        <ele>164</ele>
        <time>2018-03-25T08:46:36Z</time>
      </trkpt>
      <trkpt lat="43.22112" lon="5.62616">
        <ele>165.30078125</ele>
        <time>2018-03-25T08:46:56Z</time>
      </trkpt>
      <trkpt lat="43.22134" lon="5.62626">
        <ele>166.41015625</ele>
        <time>2018-03-25T08:47:13Z</time>
      </trkpt>
      <trkpt lat="43.2216" lon="5.62639">
        <ele>166.984375</ele>
        <time>2018-03-25T08:47:30Z</time>
      </trkpt>
      <trkpt lat="43.22186" lon="5.62657">
        <ele>167.03515625</ele>
        <time>2018-03-25T08:47:46Z</time>
      </trkpt>
      <trkpt lat="43.22188" lon="5.62659">
        <ele>167.00390625</ele>
        <time>2018-03-25T08:47:47Z</time>
      </trkpt>
      <trkpt lat="43.22193" lon="5.62667">
        <ele>167.45703125</ele>
        <time>2018-03-25T08:47:51Z</time>
      </trkpt>
      <trkpt lat="43.22202" lon="5.62712">
        <ele>171.70703125</ele>
        <time>2018-03-25T08:48:08Z</time>
      </trkpt>
      <trkpt lat="43.22212" lon="5.62742">
        <ele>173.20703125</ele>
        <time>2018-03-25T08:48:22Z</time>
      </trkpt>
      <trkpt lat="43.22213" lon="5.62744">
        <ele>173.23828125</ele>
        <time>2018-03-25T08:48:23Z</time>
      </trkpt>
      <trkpt lat="43.22215" lon="5.62745">
        <ele>173.25</ele>
        <time>2018-03-25T08:48:24Z</time>
      </trkpt>
      <trkpt lat="43.22216" lon="5.62746">
        <ele>173.265625</ele>
        <time>2018-03-25T08:48:25Z</time>
      </trkpt>
      <trkpt lat="43.22217" lon="5.62748">
        <ele>173.2890625</ele>
        <time>2018-03-25T08:48:26Z</time>
      </trkpt>
      <trkpt lat="43.22218" lon="5.62748">
        <ele>173.296875</ele>
        <time>2018-03-25T08:48:27Z</time>
      </trkpt>
      <trkpt lat="43.22219" lon="5.6275">
        <ele>173.26171875</ele>
        <time>2018-03-25T08:48:29Z</time>
      </trkpt>
      <trkpt lat="43.2222" lon="5.6275">
        <ele>173.24609375</ele>
        <time>2018-03-25T08:48:30Z</time>
      </trkpt>
      <trkpt lat="43.22221" lon="5.62751">
        <ele>173.234375</ele>
        <time>2018-03-25T08:48:31Z</time>
      </trkpt>
      <trkpt lat="43.22222" lon="5.62751">
        <ele>173.18359375</ele>
        <time>2018-03-25T08:48:32Z</time>
      </trkpt>
      <trkpt lat="43.22223" lon="5.62752">
        <ele>173.125</ele>
        <time>2018-03-25T08:48:33Z</time>
      </trkpt>
      <trkpt lat="43.22224" lon="5.62753">
        <ele>173.12109375</ele>
        <time>2018-03-25T08:48:34Z</time>
      </trkpt>
      <trkpt lat="43.22225" lon="5.62754">
        <ele>173.11328125</ele>
        <time>2018-03-25T08:48:35Z</time>
      </trkpt>
      <trkpt lat="43.22231" lon="5.62758">
        <ele>172.8671875</ele>
        <time>2018-03-25T08:48:42Z</time>
      </trkpt>
      <trkpt lat="43.22232" lon="5.62759">
        <ele>172.80078125</ele>
        <time>2018-03-25T08:48:43Z</time>
      </trkpt>
      <trkpt lat="43.22246" lon="5.62764">
        <ele>171.65234375</ele>
        <time>2018-03-25T08:48:55Z</time>
      </trkpt>
      <trkpt lat="43.22253" lon="5.62787">
        <ele>173.2734375</ele>
        <time>2018-03-25T08:49:09Z</time>
      </trkpt>
      <trkpt lat="43.22253" lon="5.62788">
        <ele>173.484375</ele>
        <time>2018-03-25T08:49:10Z</time>
      </trkpt>
      <trkpt lat="43.22253" lon="5.6279">
        <ele>173.671875</ele>
        <time>2018-03-25T08:49:11Z</time>
      </trkpt>
      <trkpt lat="43.22253" lon="5.62792">
        <ele>173.8359375</ele>
        <time>2018-03-25T08:49:12Z</time>
      </trkpt>
      <trkpt lat="43.22253" lon="5.62794">
        <ele>174.01171875</ele>
        <time>2018-03-25T08:49:13Z</time>
      </trkpt>
      <trkpt lat="43.22253" lon="5.62795">
        <ele>174.23828125</ele>
        <time>2018-03-25T08:49:14Z</time>
      </trkpt>
      <trkpt lat="43.22252" lon="5.62797">
        <ele>174.4921875</ele>
        <time>2018-03-25T08:49:15Z</time>
      </trkpt>
      <trkpt lat="43.22252" lon="5.628">
        <ele>174.7265625</ele>
        <time>2018-03-25T08:49:16Z</time>
      </trkpt>
      <trkpt lat="43.22252" lon="5.62801">
        <ele>174.8984375</ele>
        <time>2018-03-25T08:49:17Z</time>
      </trkpt>
      <trkpt lat="43.22255" lon="5.6282">
        <ele>176.67578125</ele>
        <time>2018-03-25T08:49:27Z</time>
      </trkpt>
      <trkpt lat="43.22255" lon="5.62822">
        <ele>176.828125</ele>
        <time>2018-03-25T08:49:28Z</time>
      </trkpt>
      <trkpt lat="43.22255" lon="5.62824">
        <ele>176.99609375</ele>
        <time>2018-03-25T08:49:29Z</time>
      </trkpt>
      <trkpt lat="43.22255" lon="5.62825">
        <ele>177.0859375</ele>
        <time>2018-03-25T08:49:30Z</time>
      </trkpt>
      <trkpt lat="43.22255" lon="5.62827">
        <ele>177.24609375</ele>
        <time>2018-03-25T08:49:31Z</time>
      </trkpt>
      <trkpt lat="43.22254" lon="5.62829">
        <ele>177.3984375</ele>
        <time>2018-03-25T08:49:32Z</time>
      </trkpt>
      <trkpt lat="43.22251" lon="5.62844">
        <ele>178.48046875</ele>
        <time>2018-03-25T08:49:41Z</time>
      </trkpt>
      <trkpt lat="43.2225" lon="5.62845">
        <ele>178.55859375</ele>
        <time>2018-03-25T08:49:42Z</time>
      </trkpt>
      <trkpt lat="43.22249" lon="5.62846">
        <ele>178.66015625</ele>
        <time>2018-03-25T08:49:43Z</time>
      </trkpt>
      <trkpt lat="43.22249" lon="5.62848">
        <ele>178.7734375</ele>
        <time>2018-03-25T08:49:44Z</time>
      </trkpt>
      <trkpt lat="43.22249" lon="5.6285">
        <ele>178.9140625</ele>
        <time>2018-03-25T08:49:45Z</time>
      </trkpt>
      <trkpt lat="43.22248" lon="5.62852">
        <ele>179.0234375</ele>
        <time>2018-03-25T08:49:46Z</time>
      </trkpt>
      <trkpt lat="43.22248" lon="5.62854">
        <ele>179.10546875</ele>
        <time>2018-03-25T08:49:47Z</time>
      </trkpt>
      <trkpt lat="43.22247" lon="5.62857">
        <ele>179.1953125</ele>
        <time>2018-03-25T08:49:48Z</time>
      </trkpt>
      <trkpt lat="43.22228" lon="5.62902">
        <ele>180.046875</ele>
        <time>2018-03-25T08:50:01Z</time>
      </trkpt>
      <trkpt lat="43.2222" lon="5.62939">
        <ele>180.01171875</ele>
        <time>2018-03-25T08:50:08Z</time>
      </trkpt>
      <trkpt lat="43.22218" lon="5.62954">
        <ele>179.0234375</ele>
        <time>2018-03-25T08:50:13Z</time>
      </trkpt>
      <trkpt lat="43.22219" lon="5.62955">
        <ele>179.06640625</ele>
        <time>2018-03-25T08:50:14Z</time>
      </trkpt>
      <trkpt lat="43.22219" lon="5.62957">
        <ele>179.03125</ele>
        <time>2018-03-25T08:50:15Z</time>
      </trkpt>
      <trkpt lat="43.22219" lon="5.62959">
        <ele>178.91015625</ele>
        <time>2018-03-25T08:50:16Z</time>
      </trkpt>
      <trkpt lat="43.22218" lon="5.62961">
        <ele>178.74609375</ele>
        <time>2018-03-25T08:50:17Z</time>
      </trkpt>
      <trkpt lat="43.22217" lon="5.62962">
        <ele>178.51953125</ele>
        <time>2018-03-25T08:50:18Z</time>
      </trkpt>
      <trkpt lat="43.22215" lon="5.62961">
        <ele>178.296875</ele>
        <time>2018-03-25T08:50:19Z</time>
      </trkpt>
      <trkpt lat="43.22214" lon="5.62961">
        <ele>178.078125</ele>
        <time>2018-03-25T08:50:20Z</time>
      </trkpt>
      <trkpt lat="43.22212" lon="5.6296">
        <ele>177.8515625</ele>
        <time>2018-03-25T08:50:21Z</time>
      </trkpt>
      <trkpt lat="43.2221" lon="5.6296">
        <ele>177.64453125</ele>
        <time>2018-03-25T08:50:22Z</time>
      </trkpt>
      <trkpt lat="43.22208" lon="5.62962">
        <ele>177.2109375</ele>
        <time>2018-03-25T08:50:35Z</time>
      </trkpt>
      <trkpt lat="43.22207" lon="5.62962">
        <ele>176.99609375</ele>
        <time>2018-03-25T08:50:52Z</time>
      </trkpt>
      <trkpt lat="43.22206" lon="5.62962">
        <ele>176.9609375</ele>
        <time>2018-03-25T08:51:11Z</time>
      </trkpt>
      <trkpt lat="43.22204" lon="5.62961">
        <ele>176.74609375</ele>
        <time>2018-03-25T08:51:43Z</time>
      </trkpt>
      <trkpt lat="43.22207" lon="5.62961">
        <ele>177.09765625</ele>
        <time>2018-03-25T08:52:17Z</time>
      </trkpt>
      <trkpt lat="43.22208" lon="5.62965">
        <ele>177.1015625</ele>
        <time>2018-03-25T08:52:36Z</time>
      </trkpt>
      <trkpt lat="43.22211" lon="5.62968">
        <ele>177.40234375</ele>
        <time>2018-03-25T08:52:48Z</time>
      </trkpt>
      <trkpt lat="43.22211" lon="5.62967">
        <ele>177.3828125</ele>
        <time>2018-03-25T08:53:25Z</time>
      </trkpt>
      <trkpt lat="43.22213" lon="5.62962">
        <ele>177.9296875</ele>
        <time>2018-03-25T08:53:51Z</time>
      </trkpt>
    </trkseg>
  </trk>
</gpx>